<?xml version="1.0" encoding="utf-8"?>
<gpx xmlns:xsi="http://www.w3.org/2001/XMLSchema-instance" xmlns:xsd="http://www.w3.org/2001/XMLSchema" version="1.1" creator="Shapelink.com" xmlns="http://www.topografix.com/GPX/1/1" xmlns:gpxtpx="http://www.garmin.com/xmlschemas/TrackPointExtension/v1">
  <metadata>
    <name>Ejecutar 5.36 km, 2019-12-12</name>
    <desc></desc>
    <author><name>Peter Littke</name></author> 
    <time>2019-12-12T06:27:14Z</time>
  </metadata>
  <trk>
    <name>Ejecutar 5.36 km, 2019-12-12</name>
    <trkseg>
      <trkpt lat="59.299113" lon="18.081814">
        <ele>46</ele>
        <time>2019-12-12T06:27:14Z</time>
      </trkpt>
      <trkpt lat="59.299128" lon="18.081874">
        <ele>48</ele>
        <time>2019-12-12T06:27:17Z</time>
      </trkpt>
      <trkpt lat="59.299138" lon="18.081921">
        <ele>48</ele>
        <time>2019-12-12T06:27:18Z</time>
      </trkpt>
      <trkpt lat="59.299148" lon="18.081975">
        <ele>49</ele>
        <time>2019-12-12T06:27:20Z</time>
      </trkpt>
      <trkpt lat="59.299158" lon="18.082032">
        <ele>49</ele>
        <time>2019-12-12T06:27:20Z</time>
      </trkpt>
      <trkpt lat="59.299169" lon="18.082091">
        <ele>50</ele>
        <time>2019-12-12T06:27:21Z</time>
      </trkpt>
      <trkpt lat="59.299173" lon="18.082153">
        <ele>49</ele>
        <time>2019-12-12T06:27:23Z</time>
      </trkpt>
      <trkpt lat="59.299169" lon="18.082214">
        <ele>49</ele>
        <time>2019-12-12T06:27:23Z</time>
      </trkpt>
      <trkpt lat="59.299153" lon="18.082263">
        <ele>47</ele>
        <time>2019-12-12T06:27:24Z</time>
      </trkpt>
      <trkpt lat="59.299128" lon="18.082306">
        <ele>47</ele>
        <time>2019-12-12T06:27:26Z</time>
      </trkpt>
      <trkpt lat="59.299102" lon="18.082347">
        <ele>46</ele>
        <time>2019-12-12T06:27:26Z</time>
      </trkpt>
      <trkpt lat="59.29907" lon="18.082382">
        <ele>45</ele>
        <time>2019-12-12T06:27:27Z</time>
      </trkpt>
      <trkpt lat="59.299039" lon="18.08241">
        <ele>45</ele>
        <time>2019-12-12T06:27:28Z</time>
      </trkpt>
      <trkpt lat="59.299006" lon="18.082431">
        <ele>44</ele>
        <time>2019-12-12T06:27:29Z</time>
      </trkpt>
      <trkpt lat="59.298973" lon="18.082454">
        <ele>43</ele>
        <time>2019-12-12T06:27:31Z</time>
      </trkpt>
      <trkpt lat="59.298942" lon="18.082478">
        <ele>44</ele>
        <time>2019-12-12T06:27:32Z</time>
      </trkpt>
      <trkpt lat="59.298914" lon="18.082496">
        <ele>44</ele>
        <time>2019-12-12T06:27:33Z</time>
      </trkpt>
      <trkpt lat="59.298889" lon="18.08251">
        <ele>44</ele>
        <time>2019-12-12T06:27:33Z</time>
      </trkpt>
      <trkpt lat="59.298858" lon="18.082524">
        <ele>44</ele>
        <time>2019-12-12T06:27:35Z</time>
      </trkpt>
      <trkpt lat="59.29883" lon="18.082544">
        <ele>44</ele>
        <time>2019-12-12T06:27:35Z</time>
      </trkpt>
      <trkpt lat="59.298802" lon="18.082559">
        <ele>44</ele>
        <time>2019-12-12T06:27:36Z</time>
      </trkpt>
      <trkpt lat="59.298779" lon="18.082575">
        <ele>44</ele>
        <time>2019-12-12T06:27:38Z</time>
      </trkpt>
      <trkpt lat="59.298755" lon="18.082585">
        <ele>44</ele>
        <time>2019-12-12T06:27:38Z</time>
      </trkpt>
      <trkpt lat="59.298749" lon="18.082543">
        <ele>43</ele>
        <time>2019-12-12T06:27:40Z</time>
      </trkpt>
      <trkpt lat="59.298773" lon="18.082506">
        <ele>43</ele>
        <time>2019-12-12T06:27:42Z</time>
      </trkpt>
      <trkpt lat="59.298789" lon="18.082485">
        <ele>42</ele>
        <time>2019-12-12T06:27:43Z</time>
      </trkpt>
      <trkpt lat="59.298807" lon="18.082463">
        <ele>42</ele>
        <time>2019-12-12T06:27:44Z</time>
      </trkpt>
      <trkpt lat="59.298829" lon="18.082442">
        <ele>42</ele>
        <time>2019-12-12T06:27:46Z</time>
      </trkpt>
      <trkpt lat="59.298853" lon="18.082426">
        <ele>42</ele>
        <time>2019-12-12T06:27:46Z</time>
      </trkpt>
      <trkpt lat="59.298877" lon="18.082408">
        <ele>42</ele>
        <time>2019-12-12T06:27:47Z</time>
      </trkpt>
      <trkpt lat="59.298904" lon="18.082394">
        <ele>42</ele>
        <time>2019-12-12T06:27:49Z</time>
      </trkpt>
      <trkpt lat="59.298932" lon="18.082375">
        <ele>42</ele>
        <time>2019-12-12T06:27:49Z</time>
      </trkpt>
      <trkpt lat="59.298959" lon="18.082358">
        <ele>41</ele>
        <time>2019-12-12T06:27:50Z</time>
      </trkpt>
      <trkpt lat="59.29899" lon="18.082344">
        <ele>41</ele>
        <time>2019-12-12T06:27:52Z</time>
      </trkpt>
      <trkpt lat="59.299019" lon="18.082334">
        <ele>41</ele>
        <time>2019-12-12T06:27:53Z</time>
      </trkpt>
      <trkpt lat="59.299044" lon="18.082321">
        <ele>41</ele>
        <time>2019-12-12T06:27:53Z</time>
      </trkpt>
      <trkpt lat="59.29907" lon="18.082311">
        <ele>41</ele>
        <time>2019-12-12T06:27:54Z</time>
      </trkpt>
      <trkpt lat="59.299091" lon="18.082302">
        <ele>41</ele>
        <time>2019-12-12T06:27:55Z</time>
      </trkpt>
      <trkpt lat="59.29911" lon="18.082292">
        <ele>41</ele>
        <time>2019-12-12T06:27:56Z</time>
      </trkpt>
      <trkpt lat="59.29913" lon="18.08229">
        <ele>41</ele>
        <time>2019-12-12T06:27:58Z</time>
      </trkpt>
      <trkpt lat="59.299156" lon="18.082296">
        <ele>41</ele>
        <time>2019-12-12T06:27:58Z</time>
      </trkpt>
      <trkpt lat="59.29918" lon="18.082301">
        <ele>41</ele>
        <time>2019-12-12T06:27:59Z</time>
      </trkpt>
      <trkpt lat="59.299202" lon="18.082305">
        <ele>40</ele>
        <time>2019-12-12T06:28:01Z</time>
      </trkpt>
      <trkpt lat="59.299224" lon="18.082315">
        <ele>40</ele>
        <time>2019-12-12T06:28:01Z</time>
      </trkpt>
      <trkpt lat="59.299246" lon="18.082326">
        <ele>40</ele>
        <time>2019-12-12T06:28:02Z</time>
      </trkpt>
      <trkpt lat="59.299271" lon="18.082325">
        <ele>40</ele>
        <time>2019-12-12T06:28:04Z</time>
      </trkpt>
      <trkpt lat="59.299298" lon="18.082321">
        <ele>40</ele>
        <time>2019-12-12T06:28:04Z</time>
      </trkpt>
      <trkpt lat="59.299332" lon="18.082302">
        <ele>40</ele>
        <time>2019-12-12T06:28:05Z</time>
      </trkpt>
      <trkpt lat="59.299368" lon="18.082287">
        <ele>40</ele>
        <time>2019-12-12T06:28:07Z</time>
      </trkpt>
      <trkpt lat="59.299407" lon="18.082268">
        <ele>40</ele>
        <time>2019-12-12T06:28:07Z</time>
      </trkpt>
      <trkpt lat="59.299442" lon="18.082252">
        <ele>40</ele>
        <time>2019-12-12T06:28:08Z</time>
      </trkpt>
      <trkpt lat="59.299478" lon="18.08223">
        <ele>40</ele>
        <time>2019-12-12T06:28:10Z</time>
      </trkpt>
      <trkpt lat="59.29951" lon="18.08221">
        <ele>40</ele>
        <time>2019-12-12T06:28:11Z</time>
      </trkpt>
      <trkpt lat="59.299541" lon="18.082192">
        <ele>40</ele>
        <time>2019-12-12T06:28:11Z</time>
      </trkpt>
      <trkpt lat="59.299571" lon="18.08217">
        <ele>40</ele>
        <time>2019-12-12T06:28:13Z</time>
      </trkpt>
      <trkpt lat="59.2996" lon="18.082145">
        <ele>40</ele>
        <time>2019-12-12T06:28:13Z</time>
      </trkpt>
      <trkpt lat="59.29963" lon="18.082124">
        <ele>41</ele>
        <time>2019-12-12T06:28:14Z</time>
      </trkpt>
      <trkpt lat="59.299661" lon="18.082106">
        <ele>41</ele>
        <time>2019-12-12T06:28:16Z</time>
      </trkpt>
      <trkpt lat="59.29969" lon="18.082082">
        <ele>41</ele>
        <time>2019-12-12T06:28:16Z</time>
      </trkpt>
      <trkpt lat="59.299719" lon="18.082063">
        <ele>41</ele>
        <time>2019-12-12T06:28:17Z</time>
      </trkpt>
      <trkpt lat="59.299749" lon="18.082051">
        <ele>41</ele>
        <time>2019-12-12T06:28:18Z</time>
      </trkpt>
      <trkpt lat="59.299776" lon="18.082028">
        <ele>40</ele>
        <time>2019-12-12T06:28:19Z</time>
      </trkpt>
      <trkpt lat="59.299802" lon="18.082003">
        <ele>40</ele>
        <time>2019-12-12T06:28:20Z</time>
      </trkpt>
      <trkpt lat="59.299833" lon="18.081991">
        <ele>40</ele>
        <time>2019-12-12T06:28:21Z</time>
      </trkpt>
      <trkpt lat="59.299864" lon="18.081976">
        <ele>40</ele>
        <time>2019-12-12T06:28:22Z</time>
      </trkpt>
      <trkpt lat="59.299893" lon="18.081955">
        <ele>40</ele>
        <time>2019-12-12T06:28:24Z</time>
      </trkpt>
      <trkpt lat="59.299921" lon="18.081936">
        <ele>40</ele>
        <time>2019-12-12T06:28:24Z</time>
      </trkpt>
      <trkpt lat="59.29995" lon="18.081918">
        <ele>40</ele>
        <time>2019-12-12T06:28:25Z</time>
      </trkpt>
      <trkpt lat="59.299975" lon="18.081893">
        <ele>40</ele>
        <time>2019-12-12T06:28:27Z</time>
      </trkpt>
      <trkpt lat="59.300003" lon="18.081875">
        <ele>40</ele>
        <time>2019-12-12T06:28:27Z</time>
      </trkpt>
      <trkpt lat="59.300029" lon="18.081857">
        <ele>40</ele>
        <time>2019-12-12T06:28:28Z</time>
      </trkpt>
      <trkpt lat="59.300055" lon="18.081837">
        <ele>40</ele>
        <time>2019-12-12T06:28:30Z</time>
      </trkpt>
      <trkpt lat="59.300081" lon="18.081818">
        <ele>40</ele>
        <time>2019-12-12T06:28:30Z</time>
      </trkpt>
      <trkpt lat="59.300105" lon="18.081796">
        <ele>40</ele>
        <time>2019-12-12T06:28:31Z</time>
      </trkpt>
      <trkpt lat="59.300133" lon="18.081779">
        <ele>40</ele>
        <time>2019-12-12T06:28:32Z</time>
      </trkpt>
      <trkpt lat="59.300164" lon="18.081763">
        <ele>40</ele>
        <time>2019-12-12T06:28:33Z</time>
      </trkpt>
      <trkpt lat="59.300194" lon="18.08175">
        <ele>40</ele>
        <time>2019-12-12T06:28:35Z</time>
      </trkpt>
      <trkpt lat="59.300222" lon="18.081736">
        <ele>40</ele>
        <time>2019-12-12T06:28:35Z</time>
      </trkpt>
      <trkpt lat="59.300253" lon="18.081715">
        <ele>40</ele>
        <time>2019-12-12T06:28:36Z</time>
      </trkpt>
      <trkpt lat="59.30028" lon="18.081692">
        <ele>40</ele>
        <time>2019-12-12T06:28:38Z</time>
      </trkpt>
      <trkpt lat="59.300305" lon="18.08166">
        <ele>40</ele>
        <time>2019-12-12T06:28:38Z</time>
      </trkpt>
      <trkpt lat="59.300333" lon="18.081644">
        <ele>40</ele>
        <time>2019-12-12T06:28:39Z</time>
      </trkpt>
      <trkpt lat="59.30036" lon="18.081628">
        <ele>40</ele>
        <time>2019-12-12T06:28:41Z</time>
      </trkpt>
      <trkpt lat="59.300386" lon="18.081612">
        <ele>40</ele>
        <time>2019-12-12T06:28:41Z</time>
      </trkpt>
      <trkpt lat="59.300413" lon="18.08159">
        <ele>40</ele>
        <time>2019-12-12T06:28:42Z</time>
      </trkpt>
      <trkpt lat="59.30044" lon="18.081568">
        <ele>40</ele>
        <time>2019-12-12T06:28:44Z</time>
      </trkpt>
      <trkpt lat="59.300466" lon="18.081545">
        <ele>40</ele>
        <time>2019-12-12T06:28:44Z</time>
      </trkpt>
      <trkpt lat="59.300495" lon="18.081524">
        <ele>40</ele>
        <time>2019-12-12T06:28:45Z</time>
      </trkpt>
      <trkpt lat="59.300523" lon="18.081501">
        <ele>40</ele>
        <time>2019-12-12T06:28:47Z</time>
      </trkpt>
      <trkpt lat="59.300552" lon="18.081479">
        <ele>40</ele>
        <time>2019-12-12T06:28:47Z</time>
      </trkpt>
      <trkpt lat="59.300579" lon="18.081455">
        <ele>40</ele>
        <time>2019-12-12T06:28:49Z</time>
      </trkpt>
      <trkpt lat="59.300608" lon="18.081432">
        <ele>40</ele>
        <time>2019-12-12T06:28:49Z</time>
      </trkpt>
      <trkpt lat="59.300638" lon="18.081408">
        <ele>40</ele>
        <time>2019-12-12T06:28:51Z</time>
      </trkpt>
      <trkpt lat="59.300665" lon="18.08139">
        <ele>40</ele>
        <time>2019-12-12T06:28:51Z</time>
      </trkpt>
      <trkpt lat="59.300696" lon="18.081375">
        <ele>40</ele>
        <time>2019-12-12T06:28:52Z</time>
      </trkpt>
      <trkpt lat="59.300723" lon="18.081359">
        <ele>40</ele>
        <time>2019-12-12T06:28:54Z</time>
      </trkpt>
      <trkpt lat="59.300753" lon="18.081331">
        <ele>40</ele>
        <time>2019-12-12T06:28:54Z</time>
      </trkpt>
      <trkpt lat="59.30078" lon="18.081314">
        <ele>40</ele>
        <time>2019-12-12T06:28:55Z</time>
      </trkpt>
      <trkpt lat="59.300807" lon="18.081298">
        <ele>40</ele>
        <time>2019-12-12T06:28:56Z</time>
      </trkpt>
      <trkpt lat="59.300831" lon="18.081289">
        <ele>40</ele>
        <time>2019-12-12T06:28:57Z</time>
      </trkpt>
      <trkpt lat="59.300859" lon="18.081276">
        <ele>40</ele>
        <time>2019-12-12T06:28:59Z</time>
      </trkpt>
      <trkpt lat="59.300888" lon="18.081258">
        <ele>40</ele>
        <time>2019-12-12T06:28:59Z</time>
      </trkpt>
      <trkpt lat="59.300916" lon="18.081237">
        <ele>40</ele>
        <time>2019-12-12T06:29:01Z</time>
      </trkpt>
      <trkpt lat="59.30095" lon="18.081214">
        <ele>40</ele>
        <time>2019-12-12T06:29:01Z</time>
      </trkpt>
      <trkpt lat="59.300983" lon="18.081194">
        <ele>40</ele>
        <time>2019-12-12T06:29:02Z</time>
      </trkpt>
      <trkpt lat="59.301009" lon="18.081172">
        <ele>40</ele>
        <time>2019-12-12T06:29:04Z</time>
      </trkpt>
      <trkpt lat="59.301036" lon="18.081146">
        <ele>40</ele>
        <time>2019-12-12T06:29:04Z</time>
      </trkpt>
      <trkpt lat="59.301063" lon="18.081112">
        <ele>40</ele>
        <time>2019-12-12T06:29:05Z</time>
      </trkpt>
      <trkpt lat="59.301093" lon="18.081083">
        <ele>40</ele>
        <time>2019-12-12T06:29:06Z</time>
      </trkpt>
      <trkpt lat="59.30112" lon="18.081054">
        <ele>40</ele>
        <time>2019-12-12T06:29:08Z</time>
      </trkpt>
      <trkpt lat="59.301148" lon="18.081028">
        <ele>40</ele>
        <time>2019-12-12T06:29:08Z</time>
      </trkpt>
      <trkpt lat="59.301178" lon="18.080996">
        <ele>40</ele>
        <time>2019-12-12T06:29:10Z</time>
      </trkpt>
      <trkpt lat="59.301206" lon="18.080971">
        <ele>40</ele>
        <time>2019-12-12T06:29:10Z</time>
      </trkpt>
      <trkpt lat="59.301233" lon="18.080941">
        <ele>40</ele>
        <time>2019-12-12T06:29:11Z</time>
      </trkpt>
      <trkpt lat="59.301257" lon="18.08091">
        <ele>40</ele>
        <time>2019-12-12T06:29:13Z</time>
      </trkpt>
      <trkpt lat="59.301282" lon="18.08088">
        <ele>40</ele>
        <time>2019-12-12T06:29:13Z</time>
      </trkpt>
      <trkpt lat="59.301307" lon="18.080848">
        <ele>40</ele>
        <time>2019-12-12T06:29:14Z</time>
      </trkpt>
      <trkpt lat="59.301334" lon="18.080825">
        <ele>39</ele>
        <time>2019-12-12T06:29:16Z</time>
      </trkpt>
      <trkpt lat="59.301363" lon="18.0808">
        <ele>39</ele>
        <time>2019-12-12T06:29:16Z</time>
      </trkpt>
      <trkpt lat="59.301386" lon="18.080772">
        <ele>39</ele>
        <time>2019-12-12T06:29:17Z</time>
      </trkpt>
      <trkpt lat="59.301412" lon="18.080747">
        <ele>39</ele>
        <time>2019-12-12T06:29:19Z</time>
      </trkpt>
      <trkpt lat="59.301436" lon="18.080721">
        <ele>39</ele>
        <time>2019-12-12T06:29:19Z</time>
      </trkpt>
      <trkpt lat="59.301463" lon="18.080699">
        <ele>39</ele>
        <time>2019-12-12T06:29:20Z</time>
      </trkpt>
      <trkpt lat="59.301489" lon="18.080673">
        <ele>39</ele>
        <time>2019-12-12T06:29:21Z</time>
      </trkpt>
      <trkpt lat="59.301514" lon="18.080647">
        <ele>39</ele>
        <time>2019-12-12T06:29:22Z</time>
      </trkpt>
      <trkpt lat="59.301543" lon="18.080626">
        <ele>39</ele>
        <time>2019-12-12T06:29:23Z</time>
      </trkpt>
      <trkpt lat="59.301568" lon="18.080606">
        <ele>39</ele>
        <time>2019-12-12T06:29:24Z</time>
      </trkpt>
      <trkpt lat="59.301593" lon="18.080583">
        <ele>39</ele>
        <time>2019-12-12T06:29:25Z</time>
      </trkpt>
      <trkpt lat="59.301619" lon="18.080557">
        <ele>39</ele>
        <time>2019-12-12T06:29:27Z</time>
      </trkpt>
      <trkpt lat="59.301648" lon="18.080541">
        <ele>39</ele>
        <time>2019-12-12T06:29:27Z</time>
      </trkpt>
      <trkpt lat="59.301675" lon="18.080521">
        <ele>39</ele>
        <time>2019-12-12T06:29:28Z</time>
      </trkpt>
      <trkpt lat="59.301701" lon="18.080496">
        <ele>39</ele>
        <time>2019-12-12T06:29:30Z</time>
      </trkpt>
      <trkpt lat="59.301727" lon="18.080474">
        <ele>39</ele>
        <time>2019-12-12T06:29:30Z</time>
      </trkpt>
      <trkpt lat="59.301755" lon="18.08045">
        <ele>39</ele>
        <time>2019-12-12T06:29:31Z</time>
      </trkpt>
      <trkpt lat="59.301783" lon="18.080426">
        <ele>39</ele>
        <time>2019-12-12T06:29:32Z</time>
      </trkpt>
      <trkpt lat="59.301811" lon="18.080399">
        <ele>39</ele>
        <time>2019-12-12T06:29:34Z</time>
      </trkpt>
      <trkpt lat="59.301838" lon="18.080381">
        <ele>39</ele>
        <time>2019-12-12T06:29:34Z</time>
      </trkpt>
      <trkpt lat="59.301867" lon="18.080361">
        <ele>39</ele>
        <time>2019-12-12T06:29:35Z</time>
      </trkpt>
      <trkpt lat="59.301895" lon="18.08034">
        <ele>39</ele>
        <time>2019-12-12T06:29:37Z</time>
      </trkpt>
      <trkpt lat="59.301923" lon="18.080321">
        <ele>39</ele>
        <time>2019-12-12T06:29:37Z</time>
      </trkpt>
      <trkpt lat="59.301951" lon="18.080302">
        <ele>38</ele>
        <time>2019-12-12T06:29:38Z</time>
      </trkpt>
      <trkpt lat="59.301977" lon="18.080284">
        <ele>38</ele>
        <time>2019-12-12T06:29:39Z</time>
      </trkpt>
      <trkpt lat="59.302004" lon="18.080264">
        <ele>38</ele>
        <time>2019-12-12T06:29:40Z</time>
      </trkpt>
      <trkpt lat="59.302029" lon="18.080242">
        <ele>38</ele>
        <time>2019-12-12T06:29:42Z</time>
      </trkpt>
      <trkpt lat="59.302056" lon="18.080221">
        <ele>38</ele>
        <time>2019-12-12T06:29:42Z</time>
      </trkpt>
      <trkpt lat="59.302082" lon="18.080207">
        <ele>38</ele>
        <time>2019-12-12T06:29:43Z</time>
      </trkpt>
      <trkpt lat="59.302107" lon="18.080184">
        <ele>38</ele>
        <time>2019-12-12T06:29:45Z</time>
      </trkpt>
      <trkpt lat="59.302136" lon="18.080167">
        <ele>38</ele>
        <time>2019-12-12T06:29:46Z</time>
      </trkpt>
      <trkpt lat="59.302163" lon="18.08015">
        <ele>38</ele>
        <time>2019-12-12T06:29:46Z</time>
      </trkpt>
      <trkpt lat="59.302191" lon="18.080135">
        <ele>38</ele>
        <time>2019-12-12T06:29:48Z</time>
      </trkpt>
      <trkpt lat="59.302218" lon="18.080118">
        <ele>38</ele>
        <time>2019-12-12T06:29:48Z</time>
      </trkpt>
      <trkpt lat="59.302245" lon="18.080096">
        <ele>38</ele>
        <time>2019-12-12T06:29:49Z</time>
      </trkpt>
      <trkpt lat="59.302274" lon="18.080078">
        <ele>38</ele>
        <time>2019-12-12T06:29:51Z</time>
      </trkpt>
      <trkpt lat="59.302302" lon="18.080062">
        <ele>38</ele>
        <time>2019-12-12T06:29:51Z</time>
      </trkpt>
      <trkpt lat="59.30233" lon="18.080049">
        <ele>38</ele>
        <time>2019-12-12T06:29:52Z</time>
      </trkpt>
      <trkpt lat="59.302358" lon="18.08003">
        <ele>38</ele>
        <time>2019-12-12T06:29:54Z</time>
      </trkpt>
      <trkpt lat="59.302387" lon="18.08002">
        <ele>38</ele>
        <time>2019-12-12T06:29:54Z</time>
      </trkpt>
      <trkpt lat="59.302416" lon="18.080005">
        <ele>38</ele>
        <time>2019-12-12T06:29:55Z</time>
      </trkpt>
      <trkpt lat="59.302445" lon="18.079989">
        <ele>38</ele>
        <time>2019-12-12T06:29:57Z</time>
      </trkpt>
      <trkpt lat="59.302472" lon="18.079973">
        <ele>37</ele>
        <time>2019-12-12T06:29:57Z</time>
      </trkpt>
      <trkpt lat="59.302501" lon="18.079956">
        <ele>37</ele>
        <time>2019-12-12T06:29:58Z</time>
      </trkpt>
      <trkpt lat="59.302529" lon="18.079938">
        <ele>37</ele>
        <time>2019-12-12T06:29:59Z</time>
      </trkpt>
      <trkpt lat="59.302556" lon="18.079925">
        <ele>0</ele>
        <time>2019-12-12T06:30:00Z</time>
      </trkpt>
      <trkpt lat="59.302581" lon="18.079915">
        <ele>37</ele>
        <time>2019-12-12T06:30:01Z</time>
      </trkpt>
      <trkpt lat="59.302609" lon="18.079902">
        <ele>37</ele>
        <time>2019-12-12T06:30:03Z</time>
      </trkpt>
      <trkpt lat="59.302635" lon="18.079888">
        <ele>37</ele>
        <time>2019-12-12T06:30:03Z</time>
      </trkpt>
      <trkpt lat="59.302663" lon="18.079874">
        <ele>37</ele>
        <time>2019-12-12T06:30:05Z</time>
      </trkpt>
      <trkpt lat="59.302691" lon="18.079856">
        <ele>37</ele>
        <time>2019-12-12T06:30:05Z</time>
      </trkpt>
      <trkpt lat="59.302718" lon="18.079846">
        <ele>37</ele>
        <time>2019-12-12T06:30:07Z</time>
      </trkpt>
      <trkpt lat="59.302745" lon="18.079832">
        <ele>37</ele>
        <time>2019-12-12T06:30:08Z</time>
      </trkpt>
      <trkpt lat="59.302774" lon="18.079819">
        <ele>36</ele>
        <time>2019-12-12T06:30:08Z</time>
      </trkpt>
      <trkpt lat="59.302801" lon="18.079801">
        <ele>37</ele>
        <time>2019-12-12T06:30:09Z</time>
      </trkpt>
      <trkpt lat="59.302827" lon="18.079781">
        <ele>36</ele>
        <time>2019-12-12T06:30:10Z</time>
      </trkpt>
      <trkpt lat="59.302854" lon="18.079765">
        <ele>36</ele>
        <time>2019-12-12T06:30:11Z</time>
      </trkpt>
      <trkpt lat="59.30288" lon="18.079744">
        <ele>36</ele>
        <time>2019-12-12T06:30:12Z</time>
      </trkpt>
      <trkpt lat="59.302907" lon="18.079725">
        <ele>36</ele>
        <time>2019-12-12T06:30:13Z</time>
      </trkpt>
      <trkpt lat="59.302935" lon="18.079704">
        <ele>36</ele>
        <time>2019-12-12T06:30:14Z</time>
      </trkpt>
      <trkpt lat="59.302962" lon="18.079687">
        <ele>36</ele>
        <time>2019-12-12T06:30:16Z</time>
      </trkpt>
      <trkpt lat="59.302988" lon="18.079667">
        <ele>36</ele>
        <time>2019-12-12T06:30:16Z</time>
      </trkpt>
      <trkpt lat="59.303014" lon="18.079647">
        <ele>36</ele>
        <time>2019-12-12T06:30:17Z</time>
      </trkpt>
      <trkpt lat="59.30304" lon="18.079627">
        <ele>36</ele>
        <time>2019-12-12T06:30:19Z</time>
      </trkpt>
      <trkpt lat="59.303067" lon="18.079609">
        <ele>36</ele>
        <time>2019-12-12T06:30:19Z</time>
      </trkpt>
      <trkpt lat="59.303094" lon="18.079593">
        <ele>36</ele>
        <time>2019-12-12T06:30:20Z</time>
      </trkpt>
      <trkpt lat="59.30312" lon="18.079576">
        <ele>36</ele>
        <time>2019-12-12T06:30:22Z</time>
      </trkpt>
      <trkpt lat="59.303148" lon="18.079563">
        <ele>36</ele>
        <time>2019-12-12T06:30:22Z</time>
      </trkpt>
      <trkpt lat="59.303176" lon="18.079546">
        <ele>36</ele>
        <time>2019-12-12T06:30:24Z</time>
      </trkpt>
      <trkpt lat="59.303206" lon="18.079533">
        <ele>36</ele>
        <time>2019-12-12T06:30:24Z</time>
      </trkpt>
      <trkpt lat="59.303234" lon="18.079518">
        <ele>36</ele>
        <time>2019-12-12T06:30:26Z</time>
      </trkpt>
      <trkpt lat="59.303262" lon="18.079502">
        <ele>36</ele>
        <time>2019-12-12T06:30:26Z</time>
      </trkpt>
      <trkpt lat="59.303289" lon="18.079487">
        <ele>36</ele>
        <time>2019-12-12T06:30:27Z</time>
      </trkpt>
      <trkpt lat="59.303315" lon="18.079472">
        <ele>36</ele>
        <time>2019-12-12T06:30:29Z</time>
      </trkpt>
      <trkpt lat="59.303342" lon="18.079455">
        <ele>36</ele>
        <time>2019-12-12T06:30:29Z</time>
      </trkpt>
      <trkpt lat="59.303369" lon="18.079431">
        <ele>36</ele>
        <time>2019-12-12T06:30:30Z</time>
      </trkpt>
      <trkpt lat="59.303398" lon="18.079411">
        <ele>36</ele>
        <time>2019-12-12T06:30:32Z</time>
      </trkpt>
      <trkpt lat="59.303425" lon="18.079398">
        <ele>35</ele>
        <time>2019-12-12T06:30:32Z</time>
      </trkpt>
      <trkpt lat="59.303454" lon="18.079379">
        <ele>35</ele>
        <time>2019-12-12T06:30:33Z</time>
      </trkpt>
      <trkpt lat="59.30348" lon="18.079357">
        <ele>35</ele>
        <time>2019-12-12T06:30:34Z</time>
      </trkpt>
      <trkpt lat="59.303507" lon="18.079336">
        <ele>35</ele>
        <time>2019-12-12T06:30:35Z</time>
      </trkpt>
      <trkpt lat="59.303535" lon="18.079314">
        <ele>35</ele>
        <time>2019-12-12T06:30:36Z</time>
      </trkpt>
      <trkpt lat="59.303563" lon="18.079292">
        <ele>35</ele>
        <time>2019-12-12T06:30:37Z</time>
      </trkpt>
      <trkpt lat="59.303592" lon="18.079277">
        <ele>35</ele>
        <time>2019-12-12T06:30:38Z</time>
      </trkpt>
      <trkpt lat="59.303619" lon="18.079259">
        <ele>35</ele>
        <time>2019-12-12T06:30:40Z</time>
      </trkpt>
      <trkpt lat="59.303648" lon="18.079241">
        <ele>35</ele>
        <time>2019-12-12T06:30:40Z</time>
      </trkpt>
      <trkpt lat="59.303675" lon="18.079226">
        <ele>35</ele>
        <time>2019-12-12T06:30:41Z</time>
      </trkpt>
      <trkpt lat="59.303704" lon="18.079209">
        <ele>0</ele>
        <time>2019-12-12T06:30:42Z</time>
      </trkpt>
      <trkpt lat="59.303732" lon="18.079196">
        <ele>35</ele>
        <time>2019-12-12T06:30:43Z</time>
      </trkpt>
      <trkpt lat="59.30376" lon="18.07918">
        <ele>35</ele>
        <time>2019-12-12T06:30:44Z</time>
      </trkpt>
      <trkpt lat="59.303789" lon="18.079164">
        <ele>35</ele>
        <time>2019-12-12T06:30:46Z</time>
      </trkpt>
      <trkpt lat="59.303817" lon="18.079149">
        <ele>35</ele>
        <time>2019-12-12T06:30:46Z</time>
      </trkpt>
      <trkpt lat="59.303846" lon="18.079132">
        <ele>35</ele>
        <time>2019-12-12T06:30:47Z</time>
      </trkpt>
      <trkpt lat="59.303874" lon="18.079116">
        <ele>35</ele>
        <time>2019-12-12T06:30:48Z</time>
      </trkpt>
      <trkpt lat="59.303903" lon="18.079092">
        <ele>35</ele>
        <time>2019-12-12T06:30:49Z</time>
      </trkpt>
      <trkpt lat="59.303931" lon="18.079073">
        <ele>35</ele>
        <time>2019-12-12T06:30:51Z</time>
      </trkpt>
      <trkpt lat="59.303961" lon="18.07906">
        <ele>35</ele>
        <time>2019-12-12T06:30:51Z</time>
      </trkpt>
      <trkpt lat="59.30399" lon="18.079045">
        <ele>34</ele>
        <time>2019-12-12T06:30:52Z</time>
      </trkpt>
      <trkpt lat="59.30402" lon="18.079029">
        <ele>34</ele>
        <time>2019-12-12T06:30:54Z</time>
      </trkpt>
      <trkpt lat="59.304049" lon="18.079011">
        <ele>34</ele>
        <time>2019-12-12T06:30:54Z</time>
      </trkpt>
      <trkpt lat="59.304078" lon="18.078995">
        <ele>34</ele>
        <time>2019-12-12T06:30:55Z</time>
      </trkpt>
      <trkpt lat="59.304109" lon="18.078976">
        <ele>34</ele>
        <time>2019-12-12T06:30:57Z</time>
      </trkpt>
      <trkpt lat="59.30414" lon="18.078953">
        <ele>34</ele>
        <time>2019-12-12T06:30:57Z</time>
      </trkpt>
      <trkpt lat="59.304171" lon="18.078937">
        <ele>34</ele>
        <time>2019-12-12T06:30:59Z</time>
      </trkpt>
      <trkpt lat="59.304202" lon="18.078918">
        <ele>34</ele>
        <time>2019-12-12T06:30:59Z</time>
      </trkpt>
      <trkpt lat="59.304232" lon="18.078899">
        <ele>34</ele>
        <time>2019-12-12T06:31:00Z</time>
      </trkpt>
      <trkpt lat="59.30426" lon="18.078878">
        <ele>34</ele>
        <time>2019-12-12T06:31:02Z</time>
      </trkpt>
      <trkpt lat="59.304289" lon="18.078862">
        <ele>34</ele>
        <time>2019-12-12T06:31:02Z</time>
      </trkpt>
      <trkpt lat="59.304314" lon="18.078842">
        <ele>34</ele>
        <time>2019-12-12T06:31:03Z</time>
      </trkpt>
      <trkpt lat="59.304344" lon="18.078823">
        <ele>33</ele>
        <time>2019-12-12T06:31:04Z</time>
      </trkpt>
      <trkpt lat="59.304371" lon="18.078804">
        <ele>33</ele>
        <time>2019-12-12T06:31:05Z</time>
      </trkpt>
      <trkpt lat="59.304399" lon="18.078783">
        <ele>33</ele>
        <time>2019-12-12T06:31:07Z</time>
      </trkpt>
      <trkpt lat="59.304427" lon="18.078763">
        <ele>33</ele>
        <time>2019-12-12T06:31:07Z</time>
      </trkpt>
      <trkpt lat="59.304455" lon="18.078741">
        <ele>33</ele>
        <time>2019-12-12T06:31:08Z</time>
      </trkpt>
      <trkpt lat="59.304484" lon="18.078722">
        <ele>33</ele>
        <time>2019-12-12T06:31:10Z</time>
      </trkpt>
      <trkpt lat="59.304512" lon="18.078701">
        <ele>33</ele>
        <time>2019-12-12T06:31:10Z</time>
      </trkpt>
      <trkpt lat="59.304541" lon="18.078682">
        <ele>33</ele>
        <time>2019-12-12T06:31:11Z</time>
      </trkpt>
      <trkpt lat="59.304571" lon="18.078662">
        <ele>33</ele>
        <time>2019-12-12T06:31:13Z</time>
      </trkpt>
      <trkpt lat="59.304602" lon="18.078641">
        <ele>32</ele>
        <time>2019-12-12T06:31:13Z</time>
      </trkpt>
      <trkpt lat="59.304633" lon="18.078624">
        <ele>32</ele>
        <time>2019-12-12T06:31:14Z</time>
      </trkpt>
      <trkpt lat="59.304664" lon="18.078607">
        <ele>32</ele>
        <time>2019-12-12T06:31:16Z</time>
      </trkpt>
      <trkpt lat="59.304696" lon="18.078588">
        <ele>32</ele>
        <time>2019-12-12T06:31:16Z</time>
      </trkpt>
      <trkpt lat="59.304727" lon="18.078569">
        <ele>32</ele>
        <time>2019-12-12T06:31:17Z</time>
      </trkpt>
      <trkpt lat="59.304757" lon="18.078545">
        <ele>32</ele>
        <time>2019-12-12T06:31:18Z</time>
      </trkpt>
      <trkpt lat="59.304789" lon="18.078525">
        <ele>32</ele>
        <time>2019-12-12T06:31:19Z</time>
      </trkpt>
      <trkpt lat="59.304819" lon="18.078503">
        <ele>32</ele>
        <time>2019-12-12T06:31:21Z</time>
      </trkpt>
      <trkpt lat="59.30485" lon="18.078485">
        <ele>31</ele>
        <time>2019-12-12T06:31:21Z</time>
      </trkpt>
      <trkpt lat="59.30488" lon="18.078469">
        <ele>31</ele>
        <time>2019-12-12T06:31:22Z</time>
      </trkpt>
      <trkpt lat="59.304909" lon="18.07845">
        <ele>31</ele>
        <time>2019-12-12T06:31:23Z</time>
      </trkpt>
      <trkpt lat="59.304938" lon="18.078428">
        <ele>31</ele>
        <time>2019-12-12T06:31:24Z</time>
      </trkpt>
      <trkpt lat="59.304967" lon="18.078405">
        <ele>31</ele>
        <time>2019-12-12T06:31:25Z</time>
      </trkpt>
      <trkpt lat="59.304997" lon="18.078385">
        <ele>31</ele>
        <time>2019-12-12T06:31:26Z</time>
      </trkpt>
      <trkpt lat="59.305026" lon="18.078371">
        <ele>31</ele>
        <time>2019-12-12T06:31:27Z</time>
      </trkpt>
      <trkpt lat="59.305057" lon="18.078357">
        <ele>31</ele>
        <time>2019-12-12T06:31:29Z</time>
      </trkpt>
      <trkpt lat="59.305086" lon="18.078343">
        <ele>31</ele>
        <time>2019-12-12T06:31:29Z</time>
      </trkpt>
      <trkpt lat="59.305116" lon="18.078326">
        <ele>31</ele>
        <time>2019-12-12T06:31:30Z</time>
      </trkpt>
      <trkpt lat="59.305146" lon="18.078315">
        <ele>30</ele>
        <time>2019-12-12T06:31:32Z</time>
      </trkpt>
      <trkpt lat="59.305177" lon="18.078299">
        <ele>30</ele>
        <time>2019-12-12T06:31:32Z</time>
      </trkpt>
      <trkpt lat="59.305207" lon="18.078281">
        <ele>30</ele>
        <time>2019-12-12T06:31:33Z</time>
      </trkpt>
      <trkpt lat="59.305237" lon="18.078261">
        <ele>30</ele>
        <time>2019-12-12T06:31:34Z</time>
      </trkpt>
      <trkpt lat="59.305265" lon="18.078244">
        <ele>30</ele>
        <time>2019-12-12T06:31:35Z</time>
      </trkpt>
      <trkpt lat="59.305296" lon="18.078229">
        <ele>30</ele>
        <time>2019-12-12T06:31:36Z</time>
      </trkpt>
      <trkpt lat="59.305323" lon="18.078209">
        <ele>30</ele>
        <time>2019-12-12T06:31:37Z</time>
      </trkpt>
      <trkpt lat="59.305352" lon="18.078193">
        <ele>30</ele>
        <time>2019-12-12T06:31:38Z</time>
      </trkpt>
      <trkpt lat="59.30538" lon="18.078173">
        <ele>30</ele>
        <time>2019-12-12T06:31:40Z</time>
      </trkpt>
      <trkpt lat="59.305411" lon="18.078152">
        <ele>29</ele>
        <time>2019-12-12T06:31:40Z</time>
      </trkpt>
      <trkpt lat="59.305439" lon="18.078132">
        <ele>29</ele>
        <time>2019-12-12T06:31:41Z</time>
      </trkpt>
      <trkpt lat="59.305469" lon="18.078111">
        <ele>29</ele>
        <time>2019-12-12T06:31:43Z</time>
      </trkpt>
      <trkpt lat="59.305498" lon="18.078092">
        <ele>29</ele>
        <time>2019-12-12T06:31:43Z</time>
      </trkpt>
      <trkpt lat="59.305528" lon="18.078072">
        <ele>29</ele>
        <time>2019-12-12T06:31:44Z</time>
      </trkpt>
      <trkpt lat="59.305555" lon="18.078052">
        <ele>29</ele>
        <time>2019-12-12T06:31:46Z</time>
      </trkpt>
      <trkpt lat="59.305584" lon="18.078034">
        <ele>28</ele>
        <time>2019-12-12T06:31:46Z</time>
      </trkpt>
      <trkpt lat="59.305613" lon="18.078014">
        <ele>28</ele>
        <time>2019-12-12T06:31:48Z</time>
      </trkpt>
      <trkpt lat="59.305641" lon="18.077992">
        <ele>28</ele>
        <time>2019-12-12T06:31:48Z</time>
      </trkpt>
      <trkpt lat="59.305669" lon="18.077969">
        <ele>28</ele>
        <time>2019-12-12T06:31:49Z</time>
      </trkpt>
      <trkpt lat="59.305698" lon="18.077949">
        <ele>28</ele>
        <time>2019-12-12T06:31:51Z</time>
      </trkpt>
      <trkpt lat="59.305727" lon="18.077925">
        <ele>28</ele>
        <time>2019-12-12T06:31:51Z</time>
      </trkpt>
      <trkpt lat="59.305755" lon="18.077903">
        <ele>28</ele>
        <time>2019-12-12T06:31:52Z</time>
      </trkpt>
      <trkpt lat="59.305784" lon="18.077882">
        <ele>28</ele>
        <time>2019-12-12T06:31:53Z</time>
      </trkpt>
      <trkpt lat="59.305813" lon="18.077864">
        <ele>28</ele>
        <time>2019-12-12T06:31:54Z</time>
      </trkpt>
      <trkpt lat="59.305843" lon="18.077848">
        <ele>28</ele>
        <time>2019-12-12T06:31:55Z</time>
      </trkpt>
      <trkpt lat="59.305873" lon="18.077831">
        <ele>28</ele>
        <time>2019-12-12T06:31:56Z</time>
      </trkpt>
      <trkpt lat="59.305905" lon="18.077814">
        <ele>27</ele>
        <time>2019-12-12T06:31:58Z</time>
      </trkpt>
      <trkpt lat="59.305935" lon="18.077801">
        <ele>27</ele>
        <time>2019-12-12T06:31:59Z</time>
      </trkpt>
      <trkpt lat="59.305966" lon="18.077785">
        <ele>27</ele>
        <time>2019-12-12T06:31:59Z</time>
      </trkpt>
      <trkpt lat="59.305996" lon="18.077771">
        <ele>27</ele>
        <time>2019-12-12T06:32:01Z</time>
      </trkpt>
      <trkpt lat="59.306027" lon="18.077755">
        <ele>27</ele>
        <time>2019-12-12T06:32:01Z</time>
      </trkpt>
      <trkpt lat="59.306054" lon="18.07774">
        <ele>27</ele>
        <time>2019-12-12T06:32:02Z</time>
      </trkpt>
      <trkpt lat="59.306084" lon="18.077726">
        <ele>27</ele>
        <time>2019-12-12T06:32:04Z</time>
      </trkpt>
      <trkpt lat="59.306113" lon="18.077706">
        <ele>26</ele>
        <time>2019-12-12T06:32:04Z</time>
      </trkpt>
      <trkpt lat="59.306144" lon="18.07769">
        <ele>26</ele>
        <time>2019-12-12T06:32:05Z</time>
      </trkpt>
      <trkpt lat="59.306176" lon="18.077674">
        <ele>26</ele>
        <time>2019-12-12T06:32:07Z</time>
      </trkpt>
      <trkpt lat="59.306207" lon="18.07766">
        <ele>26</ele>
        <time>2019-12-12T06:32:07Z</time>
      </trkpt>
      <trkpt lat="59.306238" lon="18.077646">
        <ele>26</ele>
        <time>2019-12-12T06:32:08Z</time>
      </trkpt>
      <trkpt lat="59.306268" lon="18.077628">
        <ele>26</ele>
        <time>2019-12-12T06:32:09Z</time>
      </trkpt>
      <trkpt lat="59.306299" lon="18.077606">
        <ele>26</ele>
        <time>2019-12-12T06:32:10Z</time>
      </trkpt>
      <trkpt lat="59.306328" lon="18.077588">
        <ele>26</ele>
        <time>2019-12-12T06:32:11Z</time>
      </trkpt>
      <trkpt lat="59.306357" lon="18.07757">
        <ele>26</ele>
        <time>2019-12-12T06:32:12Z</time>
      </trkpt>
      <trkpt lat="59.306385" lon="18.07755">
        <ele>26</ele>
        <time>2019-12-12T06:32:13Z</time>
      </trkpt>
      <trkpt lat="59.306413" lon="18.077526">
        <ele>26</ele>
        <time>2019-12-12T06:32:14Z</time>
      </trkpt>
      <trkpt lat="59.30644" lon="18.07751">
        <ele>26</ele>
        <time>2019-12-12T06:32:15Z</time>
      </trkpt>
      <trkpt lat="59.306468" lon="18.077496">
        <ele>25</ele>
        <time>2019-12-12T06:32:16Z</time>
      </trkpt>
      <trkpt lat="59.306497" lon="18.077484">
        <ele>25</ele>
        <time>2019-12-12T06:32:18Z</time>
      </trkpt>
      <trkpt lat="59.306526" lon="18.077468">
        <ele>25</ele>
        <time>2019-12-12T06:32:18Z</time>
      </trkpt>
      <trkpt lat="59.306556" lon="18.07746">
        <ele>25</ele>
        <time>2019-12-12T06:32:20Z</time>
      </trkpt>
      <trkpt lat="59.306586" lon="18.077446">
        <ele>25</ele>
        <time>2019-12-12T06:32:20Z</time>
      </trkpt>
      <trkpt lat="59.306615" lon="18.077433">
        <ele>25</ele>
        <time>2019-12-12T06:32:21Z</time>
      </trkpt>
      <trkpt lat="59.306647" lon="18.077422">
        <ele>25</ele>
        <time>2019-12-12T06:32:23Z</time>
      </trkpt>
      <trkpt lat="59.306677" lon="18.07741">
        <ele>25</ele>
        <time>2019-12-12T06:32:23Z</time>
      </trkpt>
      <trkpt lat="59.306708" lon="18.077398">
        <ele>25</ele>
        <time>2019-12-12T06:32:24Z</time>
      </trkpt>
      <trkpt lat="59.306739" lon="18.077388">
        <ele>25</ele>
        <time>2019-12-12T06:32:25Z</time>
      </trkpt>
      <trkpt lat="59.306769" lon="18.077368">
        <ele>25</ele>
        <time>2019-12-12T06:32:26Z</time>
      </trkpt>
      <trkpt lat="59.3068" lon="18.07736">
        <ele>25</ele>
        <time>2019-12-12T06:32:28Z</time>
      </trkpt>
      <trkpt lat="59.30683" lon="18.077348">
        <ele>26</ele>
        <time>2019-12-12T06:32:28Z</time>
      </trkpt>
      <trkpt lat="59.306857" lon="18.077324">
        <ele>26</ele>
        <time>2019-12-12T06:32:29Z</time>
      </trkpt>
      <trkpt lat="59.306886" lon="18.077312">
        <ele>26</ele>
        <time>2019-12-12T06:32:30Z</time>
      </trkpt>
      <trkpt lat="59.306916" lon="18.077299">
        <ele>26</ele>
        <time>2019-12-12T06:32:31Z</time>
      </trkpt>
      <trkpt lat="59.306944" lon="18.07729">
        <ele>26</ele>
        <time>2019-12-12T06:32:32Z</time>
      </trkpt>
      <trkpt lat="59.306974" lon="18.077278">
        <ele>26</ele>
        <time>2019-12-12T06:32:34Z</time>
      </trkpt>
      <trkpt lat="59.307001" lon="18.077262">
        <ele>26</ele>
        <time>2019-12-12T06:32:34Z</time>
      </trkpt>
      <trkpt lat="59.30703" lon="18.077244">
        <ele>26</ele>
        <time>2019-12-12T06:32:35Z</time>
      </trkpt>
      <trkpt lat="59.307058" lon="18.077228">
        <ele>0</ele>
        <time>2019-12-12T06:32:36Z</time>
      </trkpt>
      <trkpt lat="59.307089" lon="18.077218">
        <ele>26</ele>
        <time>2019-12-12T06:32:37Z</time>
      </trkpt>
      <trkpt lat="59.307118" lon="18.077204">
        <ele>25</ele>
        <time>2019-12-12T06:32:38Z</time>
      </trkpt>
      <trkpt lat="59.307149" lon="18.077192">
        <ele>26</ele>
        <time>2019-12-12T06:32:39Z</time>
      </trkpt>
      <trkpt lat="59.307179" lon="18.077184">
        <ele>26</ele>
        <time>2019-12-12T06:32:40Z</time>
      </trkpt>
      <trkpt lat="59.307206" lon="18.077175">
        <ele>26</ele>
        <time>2019-12-12T06:32:42Z</time>
      </trkpt>
      <trkpt lat="59.307234" lon="18.077164">
        <ele>26</ele>
        <time>2019-12-12T06:32:42Z</time>
      </trkpt>
      <trkpt lat="59.307261" lon="18.077149">
        <ele>26</ele>
        <time>2019-12-12T06:32:43Z</time>
      </trkpt>
      <trkpt lat="59.307285" lon="18.077136">
        <ele>26</ele>
        <time>2019-12-12T06:32:45Z</time>
      </trkpt>
      <trkpt lat="59.307305" lon="18.077128">
        <ele>26</ele>
        <time>2019-12-12T06:32:45Z</time>
      </trkpt>
      <trkpt lat="59.307324" lon="18.077122">
        <ele>26</ele>
        <time>2019-12-12T06:32:46Z</time>
      </trkpt>
      <trkpt lat="59.307348" lon="18.077107">
        <ele>26</ele>
        <time>2019-12-12T06:32:48Z</time>
      </trkpt>
      <trkpt lat="59.307374" lon="18.077091">
        <ele>25</ele>
        <time>2019-12-12T06:32:48Z</time>
      </trkpt>
      <trkpt lat="59.307402" lon="18.077074">
        <ele>25</ele>
        <time>2019-12-12T06:32:49Z</time>
      </trkpt>
      <trkpt lat="59.307432" lon="18.077056">
        <ele>25</ele>
        <time>2019-12-12T06:32:50Z</time>
      </trkpt>
      <trkpt lat="59.307459" lon="18.077039">
        <ele>25</ele>
        <time>2019-12-12T06:32:51Z</time>
      </trkpt>
      <trkpt lat="59.307489" lon="18.077026">
        <ele>25</ele>
        <time>2019-12-12T06:32:53Z</time>
      </trkpt>
      <trkpt lat="59.307519" lon="18.077011">
        <ele>25</ele>
        <time>2019-12-12T06:32:53Z</time>
      </trkpt>
      <trkpt lat="59.307548" lon="18.076992">
        <ele>25</ele>
        <time>2019-12-12T06:32:55Z</time>
      </trkpt>
      <trkpt lat="59.307576" lon="18.076978">
        <ele>25</ele>
        <time>2019-12-12T06:32:56Z</time>
      </trkpt>
      <trkpt lat="59.307604" lon="18.076966">
        <ele>25</ele>
        <time>2019-12-12T06:32:56Z</time>
      </trkpt>
      <trkpt lat="59.307629" lon="18.076954">
        <ele>25</ele>
        <time>2019-12-12T06:32:58Z</time>
      </trkpt>
      <trkpt lat="59.307654" lon="18.076942">
        <ele>25</ele>
        <time>2019-12-12T06:32:58Z</time>
      </trkpt>
      <trkpt lat="59.307679" lon="18.076928">
        <ele>25</ele>
        <time>2019-12-12T06:32:59Z</time>
      </trkpt>
      <trkpt lat="59.307707" lon="18.076922">
        <ele>25</ele>
        <time>2019-12-12T06:33:01Z</time>
      </trkpt>
      <trkpt lat="59.307736" lon="18.076911">
        <ele>25</ele>
        <time>2019-12-12T06:33:01Z</time>
      </trkpt>
      <trkpt lat="59.307761" lon="18.076896">
        <ele>25</ele>
        <time>2019-12-12T06:33:02Z</time>
      </trkpt>
      <trkpt lat="59.30779" lon="18.076888">
        <ele>25</ele>
        <time>2019-12-12T06:33:03Z</time>
      </trkpt>
      <trkpt lat="59.30782" lon="18.076876">
        <ele>25</ele>
        <time>2019-12-12T06:33:04Z</time>
      </trkpt>
      <trkpt lat="59.307848" lon="18.07687">
        <ele>26</ele>
        <time>2019-12-12T06:33:05Z</time>
      </trkpt>
      <trkpt lat="59.307877" lon="18.076866">
        <ele>26</ele>
        <time>2019-12-12T06:33:06Z</time>
      </trkpt>
      <trkpt lat="59.307903" lon="18.076867">
        <ele>26</ele>
        <time>2019-12-12T06:33:07Z</time>
      </trkpt>
      <trkpt lat="59.307927" lon="18.076881">
        <ele>26</ele>
        <time>2019-12-12T06:33:09Z</time>
      </trkpt>
      <trkpt lat="59.307944" lon="18.07689">
        <ele>26</ele>
        <time>2019-12-12T06:33:09Z</time>
      </trkpt>
      <trkpt lat="59.307969" lon="18.076855">
        <ele>26</ele>
        <time>2019-12-12T06:33:12Z</time>
      </trkpt>
      <trkpt lat="59.307978" lon="18.076806">
        <ele>26</ele>
        <time>2019-12-12T06:33:12Z</time>
      </trkpt>
      <trkpt lat="59.307997" lon="18.076764">
        <ele>26</ele>
        <time>2019-12-12T06:33:14Z</time>
      </trkpt>
      <trkpt lat="59.308022" lon="18.076742">
        <ele>26</ele>
        <time>2019-12-12T06:33:15Z</time>
      </trkpt>
      <trkpt lat="59.308049" lon="18.076729">
        <ele>26</ele>
        <time>2019-12-12T06:33:15Z</time>
      </trkpt>
      <trkpt lat="59.308073" lon="18.076718">
        <ele>27</ele>
        <time>2019-12-12T06:33:17Z</time>
      </trkpt>
      <trkpt lat="59.308102" lon="18.076712">
        <ele>27</ele>
        <time>2019-12-12T06:33:17Z</time>
      </trkpt>
      <trkpt lat="59.308131" lon="18.076702">
        <ele>27</ele>
        <time>2019-12-12T06:33:18Z</time>
      </trkpt>
      <trkpt lat="59.308162" lon="18.07669">
        <ele>27</ele>
        <time>2019-12-12T06:33:20Z</time>
      </trkpt>
      <trkpt lat="59.308194" lon="18.076675">
        <ele>27</ele>
        <time>2019-12-12T06:33:20Z</time>
      </trkpt>
      <trkpt lat="59.308226" lon="18.07666">
        <ele>27</ele>
        <time>2019-12-12T06:33:21Z</time>
      </trkpt>
      <trkpt lat="59.308255" lon="18.076652">
        <ele>27</ele>
        <time>2019-12-12T06:33:22Z</time>
      </trkpt>
      <trkpt lat="59.308285" lon="18.076643">
        <ele>28</ele>
        <time>2019-12-12T06:33:23Z</time>
      </trkpt>
      <trkpt lat="59.308313" lon="18.076629">
        <ele>28</ele>
        <time>2019-12-12T06:33:24Z</time>
      </trkpt>
      <trkpt lat="59.308345" lon="18.076616">
        <ele>28</ele>
        <time>2019-12-12T06:33:25Z</time>
      </trkpt>
      <trkpt lat="59.308376" lon="18.076602">
        <ele>28</ele>
        <time>2019-12-12T06:33:26Z</time>
      </trkpt>
      <trkpt lat="59.308397" lon="18.076574">
        <ele>29</ele>
        <time>2019-12-12T06:33:28Z</time>
      </trkpt>
      <trkpt lat="59.308413" lon="18.076551">
        <ele>30</ele>
        <time>2019-12-12T06:33:28Z</time>
      </trkpt>
      <trkpt lat="59.308431" lon="18.076525">
        <ele>30</ele>
        <time>2019-12-12T06:33:29Z</time>
      </trkpt>
      <trkpt lat="59.308459" lon="18.076514">
        <ele>30</ele>
        <time>2019-12-12T06:33:31Z</time>
      </trkpt>
      <trkpt lat="59.308487" lon="18.076495">
        <ele>30</ele>
        <time>2019-12-12T06:33:31Z</time>
      </trkpt>
      <trkpt lat="59.308517" lon="18.076481">
        <ele>30</ele>
        <time>2019-12-12T06:33:32Z</time>
      </trkpt>
      <trkpt lat="59.308544" lon="18.076465">
        <ele>30</ele>
        <time>2019-12-12T06:33:34Z</time>
      </trkpt>
      <trkpt lat="59.308572" lon="18.076445">
        <ele>30</ele>
        <time>2019-12-12T06:33:34Z</time>
      </trkpt>
      <trkpt lat="59.308603" lon="18.076422">
        <ele>30</ele>
        <time>2019-12-12T06:33:35Z</time>
      </trkpt>
      <trkpt lat="59.308634" lon="18.076399">
        <ele>30</ele>
        <time>2019-12-12T06:33:37Z</time>
      </trkpt>
      <trkpt lat="59.308661" lon="18.076365">
        <ele>30</ele>
        <time>2019-12-12T06:33:37Z</time>
      </trkpt>
      <trkpt lat="59.308688" lon="18.076324">
        <ele>31</ele>
        <time>2019-12-12T06:33:38Z</time>
      </trkpt>
      <trkpt lat="59.308715" lon="18.076305">
        <ele>31</ele>
        <time>2019-12-12T06:33:40Z</time>
      </trkpt>
      <trkpt lat="59.308743" lon="18.07628">
        <ele>31</ele>
        <time>2019-12-12T06:33:40Z</time>
      </trkpt>
      <trkpt lat="59.308771" lon="18.076252">
        <ele>32</ele>
        <time>2019-12-12T06:33:41Z</time>
      </trkpt>
      <trkpt lat="59.308792" lon="18.076208">
        <ele>32</ele>
        <time>2019-12-12T06:33:42Z</time>
      </trkpt>
      <trkpt lat="59.308817" lon="18.07619">
        <ele>32</ele>
        <time>2019-12-12T06:33:43Z</time>
      </trkpt>
      <trkpt lat="59.308845" lon="18.076176">
        <ele>32</ele>
        <time>2019-12-12T06:33:44Z</time>
      </trkpt>
      <trkpt lat="59.308874" lon="18.076155">
        <ele>32</ele>
        <time>2019-12-12T06:33:46Z</time>
      </trkpt>
      <trkpt lat="59.308906" lon="18.076129">
        <ele>32</ele>
        <time>2019-12-12T06:33:47Z</time>
      </trkpt>
      <trkpt lat="59.308936" lon="18.076104">
        <ele>32</ele>
        <time>2019-12-12T06:33:47Z</time>
      </trkpt>
      <trkpt lat="59.308967" lon="18.076074">
        <ele>32</ele>
        <time>2019-12-12T06:33:48Z</time>
      </trkpt>
      <trkpt lat="59.308996" lon="18.07604">
        <ele>32</ele>
        <time>2019-12-12T06:33:49Z</time>
      </trkpt>
      <trkpt lat="59.309024" lon="18.076023">
        <ele>32</ele>
        <time>2019-12-12T06:33:50Z</time>
      </trkpt>
      <trkpt lat="59.309045" lon="18.076011">
        <ele>31</ele>
        <time>2019-12-12T06:33:51Z</time>
      </trkpt>
      <trkpt lat="59.309069" lon="18.075994">
        <ele>32</ele>
        <time>2019-12-12T06:33:53Z</time>
      </trkpt>
      <trkpt lat="59.309098" lon="18.07598">
        <ele>31</ele>
        <time>2019-12-12T06:33:53Z</time>
      </trkpt>
      <trkpt lat="59.309123" lon="18.07597">
        <ele>31</ele>
        <time>2019-12-12T06:33:55Z</time>
      </trkpt>
      <trkpt lat="59.30915" lon="18.075962">
        <ele>32</ele>
        <time>2019-12-12T06:33:55Z</time>
      </trkpt>
      <trkpt lat="59.309179" lon="18.07596">
        <ele>32</ele>
        <time>2019-12-12T06:33:56Z</time>
      </trkpt>
      <trkpt lat="59.309207" lon="18.075955">
        <ele>32</ele>
        <time>2019-12-12T06:33:57Z</time>
      </trkpt>
      <trkpt lat="59.309241" lon="18.075936">
        <ele>32</ele>
        <time>2019-12-12T06:33:58Z</time>
      </trkpt>
      <trkpt lat="59.309281" lon="18.075913">
        <ele>32</ele>
        <time>2019-12-12T06:33:59Z</time>
      </trkpt>
      <trkpt lat="59.30931" lon="18.075901">
        <ele>32</ele>
        <time>2019-12-12T06:34:01Z</time>
      </trkpt>
      <trkpt lat="59.309336" lon="18.075897">
        <ele>31</ele>
        <time>2019-12-12T06:34:01Z</time>
      </trkpt>
      <trkpt lat="59.309363" lon="18.07589">
        <ele>31</ele>
        <time>2019-12-12T06:34:02Z</time>
      </trkpt>
      <trkpt lat="59.30939" lon="18.07589">
        <ele>31</ele>
        <time>2019-12-12T06:34:04Z</time>
      </trkpt>
      <trkpt lat="59.309419" lon="18.07587">
        <ele>32</ele>
        <time>2019-12-12T06:34:04Z</time>
      </trkpt>
      <trkpt lat="59.309443" lon="18.075816">
        <ele>32</ele>
        <time>2019-12-12T06:34:05Z</time>
      </trkpt>
      <trkpt lat="59.30947" lon="18.075782">
        <ele>32</ele>
        <time>2019-12-12T06:34:07Z</time>
      </trkpt>
      <trkpt lat="59.309496" lon="18.075767">
        <ele>32</ele>
        <time>2019-12-12T06:34:07Z</time>
      </trkpt>
      <trkpt lat="59.309525" lon="18.075745">
        <ele>32</ele>
        <time>2019-12-12T06:34:08Z</time>
      </trkpt>
      <trkpt lat="59.30955" lon="18.075709">
        <ele>32</ele>
        <time>2019-12-12T06:34:09Z</time>
      </trkpt>
      <trkpt lat="59.309578" lon="18.075689">
        <ele>32</ele>
        <time>2019-12-12T06:34:10Z</time>
      </trkpt>
      <trkpt lat="59.309607" lon="18.075658">
        <ele>32</ele>
        <time>2019-12-12T06:34:12Z</time>
      </trkpt>
      <trkpt lat="59.309636" lon="18.075622">
        <ele>32</ele>
        <time>2019-12-12T06:34:12Z</time>
      </trkpt>
      <trkpt lat="59.309664" lon="18.075591">
        <ele>32</ele>
        <time>2019-12-12T06:34:13Z</time>
      </trkpt>
      <trkpt lat="59.309687" lon="18.075554">
        <ele>32</ele>
        <time>2019-12-12T06:34:14Z</time>
      </trkpt>
      <trkpt lat="59.309713" lon="18.075525">
        <ele>32</ele>
        <time>2019-12-12T06:34:15Z</time>
      </trkpt>
      <trkpt lat="59.309737" lon="18.075496">
        <ele>32</ele>
        <time>2019-12-12T06:34:16Z</time>
      </trkpt>
      <trkpt lat="59.309765" lon="18.07547">
        <ele>33</ele>
        <time>2019-12-12T06:34:17Z</time>
      </trkpt>
      <trkpt lat="59.309793" lon="18.075449">
        <ele>33</ele>
        <time>2019-12-12T06:34:18Z</time>
      </trkpt>
      <trkpt lat="59.309821" lon="18.075433">
        <ele>33</ele>
        <time>2019-12-12T06:34:20Z</time>
      </trkpt>
      <trkpt lat="59.309851" lon="18.075423">
        <ele>33</ele>
        <time>2019-12-12T06:34:20Z</time>
      </trkpt>
      <trkpt lat="59.309884" lon="18.075423">
        <ele>33</ele>
        <time>2019-12-12T06:34:21Z</time>
      </trkpt>
      <trkpt lat="59.30992" lon="18.075408">
        <ele>33</ele>
        <time>2019-12-12T06:34:23Z</time>
      </trkpt>
      <trkpt lat="59.309957" lon="18.07539">
        <ele>33</ele>
        <time>2019-12-12T06:34:23Z</time>
      </trkpt>
      <trkpt lat="59.309991" lon="18.07538">
        <ele>33</ele>
        <time>2019-12-12T06:34:24Z</time>
      </trkpt>
      <trkpt lat="59.310028" lon="18.07537">
        <ele>32</ele>
        <time>2019-12-12T06:34:26Z</time>
      </trkpt>
      <trkpt lat="59.310061" lon="18.075353">
        <ele>32</ele>
        <time>2019-12-12T06:34:26Z</time>
      </trkpt>
      <trkpt lat="59.310093" lon="18.075342">
        <ele>32</ele>
        <time>2019-12-12T06:34:27Z</time>
      </trkpt>
      <trkpt lat="59.310125" lon="18.075331">
        <ele>32</ele>
        <time>2019-12-12T06:34:29Z</time>
      </trkpt>
      <trkpt lat="59.310156" lon="18.075319">
        <ele>32</ele>
        <time>2019-12-12T06:34:29Z</time>
      </trkpt>
      <trkpt lat="59.310185" lon="18.075306">
        <ele>31</ele>
        <time>2019-12-12T06:34:31Z</time>
      </trkpt>
      <trkpt lat="59.310214" lon="18.075301">
        <ele>31</ele>
        <time>2019-12-12T06:34:31Z</time>
      </trkpt>
      <trkpt lat="59.310244" lon="18.075293">
        <ele>31</ele>
        <time>2019-12-12T06:34:33Z</time>
      </trkpt>
      <trkpt lat="59.310273" lon="18.075287">
        <ele>31</ele>
        <time>2019-12-12T06:34:33Z</time>
      </trkpt>
      <trkpt lat="59.310301" lon="18.075275">
        <ele>31</ele>
        <time>2019-12-12T06:34:34Z</time>
      </trkpt>
      <trkpt lat="59.310326" lon="18.075243">
        <ele>31</ele>
        <time>2019-12-12T06:34:36Z</time>
      </trkpt>
      <trkpt lat="59.31035" lon="18.07521">
        <ele>31</ele>
        <time>2019-12-12T06:34:36Z</time>
      </trkpt>
      <trkpt lat="59.310374" lon="18.075179">
        <ele>31</ele>
        <time>2019-12-12T06:34:37Z</time>
      </trkpt>
      <trkpt lat="59.310397" lon="18.075153">
        <ele>31</ele>
        <time>2019-12-12T06:34:39Z</time>
      </trkpt>
      <trkpt lat="59.310418" lon="18.07512">
        <ele>31</ele>
        <time>2019-12-12T06:34:39Z</time>
      </trkpt>
      <trkpt lat="59.31044" lon="18.075094">
        <ele>31</ele>
        <time>2019-12-12T06:34:40Z</time>
      </trkpt>
      <trkpt lat="59.310461" lon="18.075073">
        <ele>32</ele>
        <time>2019-12-12T06:34:42Z</time>
      </trkpt>
      <trkpt lat="59.31048" lon="18.075077">
        <ele>32</ele>
        <time>2019-12-12T06:34:42Z</time>
      </trkpt>
      <trkpt lat="59.310494" lon="18.075103">
        <ele>32</ele>
        <time>2019-12-12T06:34:43Z</time>
      </trkpt>
      <trkpt lat="59.310506" lon="18.075132">
        <ele>33</ele>
        <time>2019-12-12T06:34:45Z</time>
      </trkpt>
      <trkpt lat="59.310529" lon="18.075167">
        <ele>34</ele>
        <time>2019-12-12T06:34:48Z</time>
      </trkpt>
      <trkpt lat="59.310549" lon="18.075166">
        <ele>34</ele>
        <time>2019-12-12T06:34:50Z</time>
      </trkpt>
      <trkpt lat="59.310581" lon="18.075166">
        <ele>34</ele>
        <time>2019-12-12T06:34:51Z</time>
      </trkpt>
      <trkpt lat="59.310608" lon="18.075167">
        <ele>34</ele>
        <time>2019-12-12T06:34:51Z</time>
      </trkpt>
      <trkpt lat="59.310636" lon="18.075164">
        <ele>35</ele>
        <time>2019-12-12T06:34:53Z</time>
      </trkpt>
      <trkpt lat="59.310663" lon="18.075134">
        <ele>35</ele>
        <time>2019-12-12T06:34:53Z</time>
      </trkpt>
      <trkpt lat="59.310692" lon="18.075098">
        <ele>35</ele>
        <time>2019-12-12T06:34:54Z</time>
      </trkpt>
      <trkpt lat="59.310719" lon="18.075074">
        <ele>35</ele>
        <time>2019-12-12T06:34:56Z</time>
      </trkpt>
      <trkpt lat="59.310746" lon="18.075046">
        <ele>36</ele>
        <time>2019-12-12T06:34:57Z</time>
      </trkpt>
      <trkpt lat="59.310776" lon="18.075009">
        <ele>36</ele>
        <time>2019-12-12T06:34:57Z</time>
      </trkpt>
      <trkpt lat="59.310806" lon="18.07497">
        <ele>36</ele>
        <time>2019-12-12T06:34:58Z</time>
      </trkpt>
      <trkpt lat="59.310837" lon="18.074929">
        <ele>37</ele>
        <time>2019-12-12T06:34:59Z</time>
      </trkpt>
      <trkpt lat="59.310872" lon="18.07489">
        <ele>37</ele>
        <time>2019-12-12T06:35:00Z</time>
      </trkpt>
      <trkpt lat="59.310907" lon="18.074855">
        <ele>37</ele>
        <time>2019-12-12T06:35:01Z</time>
      </trkpt>
      <trkpt lat="59.310939" lon="18.074821">
        <ele>37</ele>
        <time>2019-12-12T06:35:02Z</time>
      </trkpt>
      <trkpt lat="59.310965" lon="18.074782">
        <ele>37</ele>
        <time>2019-12-12T06:35:03Z</time>
      </trkpt>
      <trkpt lat="59.311" lon="18.074755">
        <ele>38</ele>
        <time>2019-12-12T06:35:05Z</time>
      </trkpt>
      <trkpt lat="59.31103" lon="18.074729">
        <ele>38</ele>
        <time>2019-12-12T06:35:05Z</time>
      </trkpt>
      <trkpt lat="59.311057" lon="18.074697">
        <ele>38</ele>
        <time>2019-12-12T06:35:06Z</time>
      </trkpt>
      <trkpt lat="59.311082" lon="18.07467">
        <ele>38</ele>
        <time>2019-12-12T06:35:08Z</time>
      </trkpt>
      <trkpt lat="59.311112" lon="18.074648">
        <ele>39</ele>
        <time>2019-12-12T06:35:09Z</time>
      </trkpt>
      <trkpt lat="59.311138" lon="18.074632">
        <ele>39</ele>
        <time>2019-12-12T06:35:09Z</time>
      </trkpt>
      <trkpt lat="59.311165" lon="18.074607">
        <ele>39</ele>
        <time>2019-12-12T06:35:11Z</time>
      </trkpt>
      <trkpt lat="59.311194" lon="18.074589">
        <ele>39</ele>
        <time>2019-12-12T06:35:12Z</time>
      </trkpt>
      <trkpt lat="59.311219" lon="18.074569">
        <ele>39</ele>
        <time>2019-12-12T06:35:12Z</time>
      </trkpt>
      <trkpt lat="59.311248" lon="18.074547">
        <ele>39</ele>
        <time>2019-12-12T06:35:13Z</time>
      </trkpt>
      <trkpt lat="59.311276" lon="18.074526">
        <ele>39</ele>
        <time>2019-12-12T06:35:14Z</time>
      </trkpt>
      <trkpt lat="59.311303" lon="18.074509">
        <ele>39</ele>
        <time>2019-12-12T06:35:15Z</time>
      </trkpt>
      <trkpt lat="59.311333" lon="18.074494">
        <ele>39</ele>
        <time>2019-12-12T06:35:16Z</time>
      </trkpt>
      <trkpt lat="59.311365" lon="18.074479">
        <ele>39</ele>
        <time>2019-12-12T06:35:17Z</time>
      </trkpt>
      <trkpt lat="59.311393" lon="18.074456">
        <ele>39</ele>
        <time>2019-12-12T06:35:18Z</time>
      </trkpt>
      <trkpt lat="59.311421" lon="18.074442">
        <ele>39</ele>
        <time>2019-12-12T06:35:20Z</time>
      </trkpt>
      <trkpt lat="59.311449" lon="18.074431">
        <ele>39</ele>
        <time>2019-12-12T06:35:20Z</time>
      </trkpt>
      <trkpt lat="59.311479" lon="18.074416">
        <ele>38</ele>
        <time>2019-12-12T06:35:21Z</time>
      </trkpt>
      <trkpt lat="59.311512" lon="18.074405">
        <ele>38</ele>
        <time>2019-12-12T06:35:23Z</time>
      </trkpt>
      <trkpt lat="59.311548" lon="18.074393">
        <ele>38</ele>
        <time>2019-12-12T06:35:23Z</time>
      </trkpt>
      <trkpt lat="59.311589" lon="18.074382">
        <ele>37</ele>
        <time>2019-12-12T06:35:24Z</time>
      </trkpt>
      <trkpt lat="59.311623" lon="18.074372">
        <ele>37</ele>
        <time>2019-12-12T06:35:26Z</time>
      </trkpt>
      <trkpt lat="59.31166" lon="18.074362">
        <ele>37</ele>
        <time>2019-12-12T06:35:26Z</time>
      </trkpt>
      <trkpt lat="59.311693" lon="18.074355">
        <ele>0</ele>
        <time>2019-12-12T06:35:27Z</time>
      </trkpt>
      <trkpt lat="59.311731" lon="18.074351">
        <ele>37</ele>
        <time>2019-12-12T06:35:28Z</time>
      </trkpt>
      <trkpt lat="59.311766" lon="18.074355">
        <ele>37</ele>
        <time>2019-12-12T06:35:30Z</time>
      </trkpt>
      <trkpt lat="59.311797" lon="18.074354">
        <ele>37</ele>
        <time>2019-12-12T06:35:30Z</time>
      </trkpt>
      <trkpt lat="59.311826" lon="18.074348">
        <ele>38</ele>
        <time>2019-12-12T06:35:31Z</time>
      </trkpt>
      <trkpt lat="59.311854" lon="18.074347">
        <ele>38</ele>
        <time>2019-12-12T06:35:33Z</time>
      </trkpt>
      <trkpt lat="59.311881" lon="18.074337">
        <ele>38</ele>
        <time>2019-12-12T06:35:33Z</time>
      </trkpt>
      <trkpt lat="59.311901" lon="18.074278">
        <ele>38</ele>
        <time>2019-12-12T06:35:34Z</time>
      </trkpt>
      <trkpt lat="59.311924" lon="18.074269">
        <ele>38</ele>
        <time>2019-12-12T06:35:36Z</time>
      </trkpt>
      <trkpt lat="59.311951" lon="18.074259">
        <ele>38</ele>
        <time>2019-12-12T06:35:36Z</time>
      </trkpt>
      <trkpt lat="59.311978" lon="18.074228">
        <ele>38</ele>
        <time>2019-12-12T06:35:37Z</time>
      </trkpt>
      <trkpt lat="59.312005" lon="18.074209">
        <ele>37</ele>
        <time>2019-12-12T06:35:39Z</time>
      </trkpt>
      <trkpt lat="59.312033" lon="18.074191">
        <ele>37</ele>
        <time>2019-12-12T06:35:39Z</time>
      </trkpt>
      <trkpt lat="59.312062" lon="18.074163">
        <ele>37</ele>
        <time>2019-12-12T06:35:40Z</time>
      </trkpt>
      <trkpt lat="59.312092" lon="18.074158">
        <ele>37</ele>
        <time>2019-12-12T06:35:42Z</time>
      </trkpt>
      <trkpt lat="59.312119" lon="18.074156">
        <ele>37</ele>
        <time>2019-12-12T06:35:42Z</time>
      </trkpt>
      <trkpt lat="59.312143" lon="18.07415">
        <ele>36</ele>
        <time>2019-12-12T06:35:43Z</time>
      </trkpt>
      <trkpt lat="59.312167" lon="18.074143">
        <ele>36</ele>
        <time>2019-12-12T06:35:45Z</time>
      </trkpt>
      <trkpt lat="59.31219" lon="18.074125">
        <ele>36</ele>
        <time>2019-12-12T06:35:45Z</time>
      </trkpt>
      <trkpt lat="59.312211" lon="18.074109">
        <ele>36</ele>
        <time>2019-12-12T06:35:47Z</time>
      </trkpt>
      <trkpt lat="59.312232" lon="18.074065">
        <ele>36</ele>
        <time>2019-12-12T06:35:47Z</time>
      </trkpt>
      <trkpt lat="59.312249" lon="18.074038">
        <ele>36</ele>
        <time>2019-12-12T06:35:49Z</time>
      </trkpt>
      <trkpt lat="59.312268" lon="18.074024">
        <ele>36</ele>
        <time>2019-12-12T06:35:49Z</time>
      </trkpt>
      <trkpt lat="59.312284" lon="18.073994">
        <ele>36</ele>
        <time>2019-12-12T06:35:50Z</time>
      </trkpt>
      <trkpt lat="59.312303" lon="18.073969">
        <ele>35</ele>
        <time>2019-12-12T06:35:52Z</time>
      </trkpt>
      <trkpt lat="59.312317" lon="18.073939">
        <ele>35</ele>
        <time>2019-12-12T06:35:52Z</time>
      </trkpt>
      <trkpt lat="59.312343" lon="18.073899">
        <ele>34</ele>
        <time>2019-12-12T06:35:53Z</time>
      </trkpt>
      <trkpt lat="59.312366" lon="18.073857">
        <ele>34</ele>
        <time>2019-12-12T06:35:55Z</time>
      </trkpt>
      <trkpt lat="59.312393" lon="18.073833">
        <ele>34</ele>
        <time>2019-12-12T06:35:55Z</time>
      </trkpt>
      <trkpt lat="59.31242" lon="18.073803">
        <ele>34</ele>
        <time>2019-12-12T06:35:56Z</time>
      </trkpt>
      <trkpt lat="59.312445" lon="18.073769">
        <ele>33</ele>
        <time>2019-12-12T06:35:57Z</time>
      </trkpt>
      <trkpt lat="59.31247" lon="18.07375">
        <ele>33</ele>
        <time>2019-12-12T06:35:58Z</time>
      </trkpt>
      <trkpt lat="59.312498" lon="18.073732">
        <ele>33</ele>
        <time>2019-12-12T06:36:00Z</time>
      </trkpt>
      <trkpt lat="59.312523" lon="18.073716">
        <ele>33</ele>
        <time>2019-12-12T06:36:00Z</time>
      </trkpt>
      <trkpt lat="59.312551" lon="18.073712">
        <ele>33</ele>
        <time>2019-12-12T06:36:01Z</time>
      </trkpt>
      <trkpt lat="59.312583" lon="18.073697">
        <ele>32</ele>
        <time>2019-12-12T06:36:03Z</time>
      </trkpt>
      <trkpt lat="59.312612" lon="18.073686">
        <ele>33</ele>
        <time>2019-12-12T06:36:03Z</time>
      </trkpt>
      <trkpt lat="59.312641" lon="18.073682">
        <ele>33</ele>
        <time>2019-12-12T06:36:04Z</time>
      </trkpt>
      <trkpt lat="59.312671" lon="18.073672">
        <ele>33</ele>
        <time>2019-12-12T06:36:06Z</time>
      </trkpt>
      <trkpt lat="59.312699" lon="18.073662">
        <ele>33</ele>
        <time>2019-12-12T06:36:07Z</time>
      </trkpt>
      <trkpt lat="59.31273" lon="18.073657">
        <ele>33</ele>
        <time>2019-12-12T06:36:07Z</time>
      </trkpt>
      <trkpt lat="59.31276" lon="18.073642">
        <ele>33</ele>
        <time>2019-12-12T06:36:08Z</time>
      </trkpt>
      <trkpt lat="59.31279" lon="18.073632">
        <ele>33</ele>
        <time>2019-12-12T06:36:09Z</time>
      </trkpt>
      <trkpt lat="59.312815" lon="18.07362">
        <ele>33</ele>
        <time>2019-12-12T06:36:10Z</time>
      </trkpt>
      <trkpt lat="59.312843" lon="18.07361">
        <ele>33</ele>
        <time>2019-12-12T06:36:12Z</time>
      </trkpt>
      <trkpt lat="59.31287" lon="18.073616">
        <ele>33</ele>
        <time>2019-12-12T06:36:12Z</time>
      </trkpt>
      <trkpt lat="59.312898" lon="18.073638">
        <ele>33</ele>
        <time>2019-12-12T06:36:13Z</time>
      </trkpt>
      <trkpt lat="59.312926" lon="18.073657">
        <ele>34</ele>
        <time>2019-12-12T06:36:14Z</time>
      </trkpt>
      <trkpt lat="59.312952" lon="18.073678">
        <ele>35</ele>
        <time>2019-12-12T06:36:15Z</time>
      </trkpt>
      <trkpt lat="59.312979" lon="18.073678">
        <ele>35</ele>
        <time>2019-12-12T06:36:17Z</time>
      </trkpt>
      <trkpt lat="59.313006" lon="18.073676">
        <ele>36</ele>
        <time>2019-12-12T06:36:17Z</time>
      </trkpt>
      <trkpt lat="59.313035" lon="18.073678">
        <ele>36</ele>
        <time>2019-12-12T06:36:18Z</time>
      </trkpt>
      <trkpt lat="59.313061" lon="18.073682">
        <ele>36</ele>
        <time>2019-12-12T06:36:20Z</time>
      </trkpt>
      <trkpt lat="59.313086" lon="18.073686">
        <ele>36</ele>
        <time>2019-12-12T06:36:21Z</time>
      </trkpt>
      <trkpt lat="59.313111" lon="18.073686">
        <ele>37</ele>
        <time>2019-12-12T06:36:21Z</time>
      </trkpt>
      <trkpt lat="59.313136" lon="18.073674">
        <ele>37</ele>
        <time>2019-12-12T06:36:22Z</time>
      </trkpt>
      <trkpt lat="59.313162" lon="18.073665">
        <ele>37</ele>
        <time>2019-12-12T06:36:24Z</time>
      </trkpt>
      <trkpt lat="59.313189" lon="18.073654">
        <ele>37</ele>
        <time>2019-12-12T06:36:25Z</time>
      </trkpt>
      <trkpt lat="59.313214" lon="18.073654">
        <ele>38</ele>
        <time>2019-12-12T06:36:25Z</time>
      </trkpt>
      <trkpt lat="59.313236" lon="18.073657">
        <ele>38</ele>
        <time>2019-12-12T06:36:27Z</time>
      </trkpt>
      <trkpt lat="59.313261" lon="18.073664">
        <ele>38</ele>
        <time>2019-12-12T06:36:27Z</time>
      </trkpt>
      <trkpt lat="59.313294" lon="18.073666">
        <ele>39</ele>
        <time>2019-12-12T06:36:28Z</time>
      </trkpt>
      <trkpt lat="59.313317" lon="18.073662">
        <ele>39</ele>
        <time>2019-12-12T06:36:30Z</time>
      </trkpt>
      <trkpt lat="59.313339" lon="18.073662">
        <ele>39</ele>
        <time>2019-12-12T06:36:30Z</time>
      </trkpt>
      <trkpt lat="59.313367" lon="18.073654">
        <ele>39</ele>
        <time>2019-12-12T06:36:31Z</time>
      </trkpt>
      <trkpt lat="59.313395" lon="18.073644">
        <ele>39</ele>
        <time>2019-12-12T06:36:32Z</time>
      </trkpt>
      <trkpt lat="59.313422" lon="18.07364">
        <ele>39</ele>
        <time>2019-12-12T06:36:33Z</time>
      </trkpt>
      <trkpt lat="59.313438" lon="18.073688">
        <ele>39</ele>
        <time>2019-12-12T06:36:34Z</time>
      </trkpt>
      <trkpt lat="59.313452" lon="18.073749">
        <ele>39</ele>
        <time>2019-12-12T06:36:35Z</time>
      </trkpt>
      <trkpt lat="59.313473" lon="18.073744">
        <ele>40</ele>
        <time>2019-12-12T06:36:36Z</time>
      </trkpt>
      <trkpt lat="59.313502" lon="18.073724">
        <ele>40</ele>
        <time>2019-12-12T06:36:38Z</time>
      </trkpt>
      <trkpt lat="59.313527" lon="18.073714">
        <ele>41</ele>
        <time>2019-12-12T06:36:39Z</time>
      </trkpt>
      <trkpt lat="59.313554" lon="18.073704">
        <ele>41</ele>
        <time>2019-12-12T06:36:39Z</time>
      </trkpt>
      <trkpt lat="59.313584" lon="18.073678">
        <ele>41</ele>
        <time>2019-12-12T06:36:40Z</time>
      </trkpt>
      <trkpt lat="59.31361" lon="18.073659">
        <ele>41</ele>
        <time>2019-12-12T06:36:41Z</time>
      </trkpt>
      <trkpt lat="59.313634" lon="18.073638">
        <ele>41</ele>
        <time>2019-12-12T06:36:42Z</time>
      </trkpt>
      <trkpt lat="59.313657" lon="18.073624">
        <ele>41</ele>
        <time>2019-12-12T06:36:44Z</time>
      </trkpt>
      <trkpt lat="59.313681" lon="18.073604">
        <ele>41</ele>
        <time>2019-12-12T06:36:44Z</time>
      </trkpt>
      <trkpt lat="59.313706" lon="18.073584">
        <ele>41</ele>
        <time>2019-12-12T06:36:46Z</time>
      </trkpt>
      <trkpt lat="59.313733" lon="18.073562">
        <ele>41</ele>
        <time>2019-12-12T06:36:46Z</time>
      </trkpt>
      <trkpt lat="59.31376" lon="18.073546">
        <ele>41</ele>
        <time>2019-12-12T06:36:47Z</time>
      </trkpt>
      <trkpt lat="59.313783" lon="18.073524">
        <ele>41</ele>
        <time>2019-12-12T06:36:49Z</time>
      </trkpt>
      <trkpt lat="59.313808" lon="18.073496">
        <ele>42</ele>
        <time>2019-12-12T06:36:49Z</time>
      </trkpt>
      <trkpt lat="59.313835" lon="18.07348">
        <ele>41</ele>
        <time>2019-12-12T06:36:50Z</time>
      </trkpt>
      <trkpt lat="59.313864" lon="18.073462">
        <ele>41</ele>
        <time>2019-12-12T06:36:52Z</time>
      </trkpt>
      <trkpt lat="59.313896" lon="18.073434">
        <ele>41</ele>
        <time>2019-12-12T06:36:52Z</time>
      </trkpt>
      <trkpt lat="59.313928" lon="18.073427">
        <ele>42</ele>
        <time>2019-12-12T06:36:53Z</time>
      </trkpt>
      <trkpt lat="59.313955" lon="18.073416">
        <ele>42</ele>
        <time>2019-12-12T06:36:54Z</time>
      </trkpt>
      <trkpt lat="59.313978" lon="18.0734">
        <ele>42</ele>
        <time>2019-12-12T06:36:55Z</time>
      </trkpt>
      <trkpt lat="59.314005" lon="18.073386">
        <ele>43</ele>
        <time>2019-12-12T06:36:57Z</time>
      </trkpt>
      <trkpt lat="59.314032" lon="18.073372">
        <ele>43</ele>
        <time>2019-12-12T06:36:58Z</time>
      </trkpt>
      <trkpt lat="59.314059" lon="18.07338">
        <ele>43</ele>
        <time>2019-12-12T06:36:58Z</time>
      </trkpt>
      <trkpt lat="59.314093" lon="18.073386">
        <ele>43</ele>
        <time>2019-12-12T06:36:59Z</time>
      </trkpt>
      <trkpt lat="59.314128" lon="18.0734">
        <ele>42</ele>
        <time>2019-12-12T06:37:01Z</time>
      </trkpt>
      <trkpt lat="59.314149" lon="18.07343">
        <ele>42</ele>
        <time>2019-12-12T06:37:01Z</time>
      </trkpt>
      <trkpt lat="59.314169" lon="18.073448">
        <ele>42</ele>
        <time>2019-12-12T06:37:03Z</time>
      </trkpt>
      <trkpt lat="59.314179" lon="18.073514">
        <ele>42</ele>
        <time>2019-12-12T06:37:06Z</time>
      </trkpt>
      <trkpt lat="59.31419" lon="18.073574">
        <ele>42</ele>
        <time>2019-12-12T06:37:08Z</time>
      </trkpt>
      <trkpt lat="59.314203" lon="18.073602">
        <ele>42</ele>
        <time>2019-12-12T06:37:10Z</time>
      </trkpt>
      <trkpt lat="59.314219" lon="18.073626">
        <ele>42</ele>
        <time>2019-12-12T06:37:14Z</time>
      </trkpt>
      <trkpt lat="59.314242" lon="18.073642">
        <ele>41</ele>
        <time>2019-12-12T06:37:16Z</time>
      </trkpt>
      <trkpt lat="59.314272" lon="18.073653">
        <ele>41</ele>
        <time>2019-12-12T06:37:18Z</time>
      </trkpt>
      <trkpt lat="59.314297" lon="18.073657">
        <ele>41</ele>
        <time>2019-12-12T06:37:22Z</time>
      </trkpt>
      <trkpt lat="59.31433" lon="18.073643">
        <ele>40</ele>
        <time>2019-12-12T06:37:29Z</time>
      </trkpt>
      <trkpt lat="59.314357" lon="18.073629">
        <ele>39</ele>
        <time>2019-12-12T06:37:31Z</time>
      </trkpt>
      <trkpt lat="59.314384" lon="18.073608">
        <ele>39</ele>
        <time>2019-12-12T06:37:31Z</time>
      </trkpt>
      <trkpt lat="59.314413" lon="18.073592">
        <ele>39</ele>
        <time>2019-12-12T06:37:33Z</time>
      </trkpt>
      <trkpt lat="59.314448" lon="18.073581">
        <ele>39</ele>
        <time>2019-12-12T06:37:33Z</time>
      </trkpt>
      <trkpt lat="59.314484" lon="18.073566">
        <ele>38</ele>
        <time>2019-12-12T06:37:34Z</time>
      </trkpt>
      <trkpt lat="59.314517" lon="18.07356">
        <ele>38</ele>
        <time>2019-12-12T06:37:36Z</time>
      </trkpt>
      <trkpt lat="59.314549" lon="18.073554">
        <ele>38</ele>
        <time>2019-12-12T06:37:36Z</time>
      </trkpt>
      <trkpt lat="59.314581" lon="18.073544">
        <ele>38</ele>
        <time>2019-12-12T06:37:37Z</time>
      </trkpt>
      <trkpt lat="59.314613" lon="18.07352">
        <ele>37</ele>
        <time>2019-12-12T06:37:38Z</time>
      </trkpt>
      <trkpt lat="59.314646" lon="18.073495">
        <ele>37</ele>
        <time>2019-12-12T06:37:39Z</time>
      </trkpt>
      <trkpt lat="59.31468" lon="18.073475">
        <ele>37</ele>
        <time>2019-12-12T06:37:41Z</time>
      </trkpt>
      <trkpt lat="59.314716" lon="18.073455">
        <ele>37</ele>
        <time>2019-12-12T06:37:41Z</time>
      </trkpt>
      <trkpt lat="59.31475" lon="18.073435">
        <ele>36</ele>
        <time>2019-12-12T06:37:43Z</time>
      </trkpt>
      <trkpt lat="59.314782" lon="18.073409">
        <ele>36</ele>
        <time>2019-12-12T06:37:43Z</time>
      </trkpt>
      <trkpt lat="59.314811" lon="18.073388">
        <ele>36</ele>
        <time>2019-12-12T06:37:44Z</time>
      </trkpt>
      <trkpt lat="59.314841" lon="18.07337">
        <ele>36</ele>
        <time>2019-12-12T06:37:46Z</time>
      </trkpt>
      <trkpt lat="59.314872" lon="18.073351">
        <ele>35</ele>
        <time>2019-12-12T06:37:46Z</time>
      </trkpt>
      <trkpt lat="59.314904" lon="18.073331">
        <ele>35</ele>
        <time>2019-12-12T06:37:48Z</time>
      </trkpt>
      <trkpt lat="59.314937" lon="18.073312">
        <ele>35</ele>
        <time>2019-12-12T06:37:48Z</time>
      </trkpt>
      <trkpt lat="59.314967" lon="18.073298">
        <ele>35</ele>
        <time>2019-12-12T06:37:49Z</time>
      </trkpt>
      <trkpt lat="59.314998" lon="18.073289">
        <ele>34</ele>
        <time>2019-12-12T06:37:50Z</time>
      </trkpt>
      <trkpt lat="59.315027" lon="18.073276">
        <ele>34</ele>
        <time>2019-12-12T06:37:51Z</time>
      </trkpt>
      <trkpt lat="59.315058" lon="18.073261">
        <ele>34</ele>
        <time>2019-12-12T06:37:52Z</time>
      </trkpt>
      <trkpt lat="59.315089" lon="18.073248">
        <ele>33</ele>
        <time>2019-12-12T06:37:53Z</time>
      </trkpt>
      <trkpt lat="59.315121" lon="18.073232">
        <ele>33</ele>
        <time>2019-12-12T06:37:54Z</time>
      </trkpt>
      <trkpt lat="59.315151" lon="18.073216">
        <ele>33</ele>
        <time>2019-12-12T06:37:56Z</time>
      </trkpt>
      <trkpt lat="59.315182" lon="18.073202">
        <ele>33</ele>
        <time>2019-12-12T06:37:56Z</time>
      </trkpt>
      <trkpt lat="59.315215" lon="18.073192">
        <ele>32</ele>
        <time>2019-12-12T06:37:57Z</time>
      </trkpt>
      <trkpt lat="59.315245" lon="18.073182">
        <ele>32</ele>
        <time>2019-12-12T06:37:59Z</time>
      </trkpt>
      <trkpt lat="59.315273" lon="18.073168">
        <ele>32</ele>
        <time>2019-12-12T06:38:00Z</time>
      </trkpt>
      <trkpt lat="59.315302" lon="18.073155">
        <ele>32</ele>
        <time>2019-12-12T06:38:00Z</time>
      </trkpt>
      <trkpt lat="59.315331" lon="18.073142">
        <ele>32</ele>
        <time>2019-12-12T06:38:02Z</time>
      </trkpt>
      <trkpt lat="59.31536" lon="18.07313">
        <ele>32</ele>
        <time>2019-12-12T06:38:02Z</time>
      </trkpt>
      <trkpt lat="59.315388" lon="18.073106">
        <ele>31</ele>
        <time>2019-12-12T06:38:04Z</time>
      </trkpt>
      <trkpt lat="59.315416" lon="18.073078">
        <ele>31</ele>
        <time>2019-12-12T06:38:04Z</time>
      </trkpt>
      <trkpt lat="59.315445" lon="18.073064">
        <ele>31</ele>
        <time>2019-12-12T06:38:05Z</time>
      </trkpt>
      <trkpt lat="59.315474" lon="18.073048">
        <ele>31</ele>
        <time>2019-12-12T06:38:07Z</time>
      </trkpt>
      <trkpt lat="59.315501" lon="18.07303">
        <ele>31</ele>
        <time>2019-12-12T06:38:07Z</time>
      </trkpt>
      <trkpt lat="59.315529" lon="18.073004">
        <ele>30</ele>
        <time>2019-12-12T06:38:08Z</time>
      </trkpt>
      <trkpt lat="59.315556" lon="18.072978">
        <ele>31</ele>
        <time>2019-12-12T06:38:09Z</time>
      </trkpt>
      <trkpt lat="59.315585" lon="18.072936">
        <ele>31</ele>
        <time>2019-12-12T06:38:10Z</time>
      </trkpt>
      <trkpt lat="59.315613" lon="18.072902">
        <ele>30</ele>
        <time>2019-12-12T06:38:12Z</time>
      </trkpt>
      <trkpt lat="59.31564" lon="18.072868">
        <ele>31</ele>
        <time>2019-12-12T06:38:12Z</time>
      </trkpt>
      <trkpt lat="59.315665" lon="18.072833">
        <ele>31</ele>
        <time>2019-12-12T06:38:13Z</time>
      </trkpt>
      <trkpt lat="59.315687" lon="18.07279">
        <ele>31</ele>
        <time>2019-12-12T06:38:15Z</time>
      </trkpt>
      <trkpt lat="59.315706" lon="18.072748">
        <ele>31</ele>
        <time>2019-12-12T06:38:15Z</time>
      </trkpt>
      <trkpt lat="59.315728" lon="18.072706">
        <ele>31</ele>
        <time>2019-12-12T06:38:16Z</time>
      </trkpt>
      <trkpt lat="59.315752" lon="18.072677">
        <ele>31</ele>
        <time>2019-12-12T06:38:18Z</time>
      </trkpt>
      <trkpt lat="59.315779" lon="18.07266">
        <ele>31</ele>
        <time>2019-12-12T06:38:19Z</time>
      </trkpt>
      <trkpt lat="59.315804" lon="18.072642">
        <ele>31</ele>
        <time>2019-12-12T06:38:19Z</time>
      </trkpt>
      <trkpt lat="59.31583" lon="18.072624">
        <ele>31</ele>
        <time>2019-12-12T06:38:21Z</time>
      </trkpt>
      <trkpt lat="59.315857" lon="18.072602">
        <ele>31</ele>
        <time>2019-12-12T06:38:21Z</time>
      </trkpt>
      <trkpt lat="59.315886" lon="18.072576">
        <ele>32</ele>
        <time>2019-12-12T06:38:22Z</time>
      </trkpt>
      <trkpt lat="59.315911" lon="18.072556">
        <ele>32</ele>
        <time>2019-12-12T06:38:24Z</time>
      </trkpt>
      <trkpt lat="59.315933" lon="18.07254">
        <ele>32</ele>
        <time>2019-12-12T06:38:24Z</time>
      </trkpt>
      <trkpt lat="59.315955" lon="18.072528">
        <ele>32</ele>
        <time>2019-12-12T06:38:25Z</time>
      </trkpt>
      <trkpt lat="59.315983" lon="18.072506">
        <ele>32</ele>
        <time>2019-12-12T06:38:26Z</time>
      </trkpt>
      <trkpt lat="59.316013" lon="18.072486">
        <ele>32</ele>
        <time>2019-12-12T06:38:27Z</time>
      </trkpt>
      <trkpt lat="59.316046" lon="18.072478">
        <ele>32</ele>
        <time>2019-12-12T06:38:28Z</time>
      </trkpt>
      <trkpt lat="59.316075" lon="18.072456">
        <ele>33</ele>
        <time>2019-12-12T06:38:30Z</time>
      </trkpt>
      <trkpt lat="59.316105" lon="18.072425">
        <ele>33</ele>
        <time>2019-12-12T06:38:30Z</time>
      </trkpt>
      <trkpt lat="59.316137" lon="18.072402">
        <ele>33</ele>
        <time>2019-12-12T06:38:31Z</time>
      </trkpt>
      <trkpt lat="59.316167" lon="18.07237">
        <ele>33</ele>
        <time>2019-12-12T06:38:32Z</time>
      </trkpt>
      <trkpt lat="59.316197" lon="18.072342">
        <ele>33</ele>
        <time>2019-12-12T06:38:33Z</time>
      </trkpt>
      <trkpt lat="59.31623" lon="18.072318">
        <ele>33</ele>
        <time>2019-12-12T06:38:34Z</time>
      </trkpt>
      <trkpt lat="59.316253" lon="18.072294">
        <ele>33</ele>
        <time>2019-12-12T06:38:35Z</time>
      </trkpt>
      <trkpt lat="59.316271" lon="18.072274">
        <ele>33</ele>
        <time>2019-12-12T06:38:36Z</time>
      </trkpt>
      <trkpt lat="59.316295" lon="18.072258">
        <ele>0</ele>
        <time>2019-12-12T06:38:37Z</time>
      </trkpt>
      <trkpt lat="59.316319" lon="18.072236">
        <ele>34</ele>
        <time>2019-12-12T06:38:38Z</time>
      </trkpt>
      <trkpt lat="59.316337" lon="18.072215">
        <ele>34</ele>
        <time>2019-12-12T06:38:39Z</time>
      </trkpt>
      <trkpt lat="59.316373" lon="18.072169">
        <ele>34</ele>
        <time>2019-12-12T06:38:41Z</time>
      </trkpt>
      <trkpt lat="59.316464" lon="18.072126">
        <ele>35</ele>
        <time>2019-12-12T06:38:44Z</time>
      </trkpt>
      <trkpt lat="59.316485" lon="18.072108">
        <ele>35</ele>
        <time>2019-12-12T06:38:45Z</time>
      </trkpt>
      <trkpt lat="59.316505" lon="18.072096">
        <ele>35</ele>
        <time>2019-12-12T06:38:46Z</time>
      </trkpt>
      <trkpt lat="59.316528" lon="18.072084">
        <ele>35</ele>
        <time>2019-12-12T06:38:47Z</time>
      </trkpt>
      <trkpt lat="59.316556" lon="18.072068">
        <ele>36</ele>
        <time>2019-12-12T06:38:49Z</time>
      </trkpt>
      <trkpt lat="59.316585" lon="18.072045">
        <ele>36</ele>
        <time>2019-12-12T06:38:49Z</time>
      </trkpt>
      <trkpt lat="59.316607" lon="18.072034">
        <ele>35</ele>
        <time>2019-12-12T06:38:50Z</time>
      </trkpt>
      <trkpt lat="59.316636" lon="18.07202">
        <ele>35</ele>
        <time>2019-12-12T06:38:52Z</time>
      </trkpt>
      <trkpt lat="59.316667" lon="18.072">
        <ele>35</ele>
        <time>2019-12-12T06:38:52Z</time>
      </trkpt>
      <trkpt lat="59.316702" lon="18.07199">
        <ele>35</ele>
        <time>2019-12-12T06:38:53Z</time>
      </trkpt>
      <trkpt lat="59.31673" lon="18.07198">
        <ele>35</ele>
        <time>2019-12-12T06:38:55Z</time>
      </trkpt>
      <trkpt lat="59.316757" lon="18.071966">
        <ele>35</ele>
        <time>2019-12-12T06:38:56Z</time>
      </trkpt>
      <trkpt lat="59.31679" lon="18.071952">
        <ele>35</ele>
        <time>2019-12-12T06:38:57Z</time>
      </trkpt>
      <trkpt lat="59.316819" lon="18.071936">
        <ele>36</ele>
        <time>2019-12-12T06:38:57Z</time>
      </trkpt>
      <trkpt lat="59.316935" lon="18.071899">
        <ele>38</ele>
        <time>2019-12-12T06:39:02Z</time>
      </trkpt>
      <trkpt lat="59.317064" lon="18.071881">
        <ele>40</ele>
        <time>2019-12-12T06:39:04Z</time>
      </trkpt>
      <trkpt lat="59.317089" lon="18.071878">
        <ele>40</ele>
        <time>2019-12-12T06:39:05Z</time>
      </trkpt>
      <trkpt lat="59.317142" lon="18.071851">
        <ele>41</ele>
        <time>2019-12-12T06:39:07Z</time>
      </trkpt>
      <trkpt lat="59.317168" lon="18.071843">
        <ele>41</ele>
        <time>2019-12-12T06:39:08Z</time>
      </trkpt>
      <trkpt lat="59.317191" lon="18.071829">
        <ele>41</ele>
        <time>2019-12-12T06:39:10Z</time>
      </trkpt>
      <trkpt lat="59.317214" lon="18.071816">
        <ele>41</ele>
        <time>2019-12-12T06:39:10Z</time>
      </trkpt>
      <trkpt lat="59.317244" lon="18.071803">
        <ele>42</ele>
        <time>2019-12-12T06:39:12Z</time>
      </trkpt>
      <trkpt lat="59.317267" lon="18.071799">
        <ele>42</ele>
        <time>2019-12-12T06:39:12Z</time>
      </trkpt>
      <trkpt lat="59.31729" lon="18.071799">
        <ele>42</ele>
        <time>2019-12-12T06:39:13Z</time>
      </trkpt>
      <trkpt lat="59.317317" lon="18.071787">
        <ele>42</ele>
        <time>2019-12-12T06:39:15Z</time>
      </trkpt>
      <trkpt lat="59.317345" lon="18.071769">
        <ele>42</ele>
        <time>2019-12-12T06:39:16Z</time>
      </trkpt>
      <trkpt lat="59.317373" lon="18.071759">
        <ele>42</ele>
        <time>2019-12-12T06:39:16Z</time>
      </trkpt>
      <trkpt lat="59.317399" lon="18.07174">
        <ele>42</ele>
        <time>2019-12-12T06:39:18Z</time>
      </trkpt>
      <trkpt lat="59.317427" lon="18.071716">
        <ele>42</ele>
        <time>2019-12-12T06:39:18Z</time>
      </trkpt>
      <trkpt lat="59.317453" lon="18.071691">
        <ele>42</ele>
        <time>2019-12-12T06:39:19Z</time>
      </trkpt>
      <trkpt lat="59.317478" lon="18.071673">
        <ele>42</ele>
        <time>2019-12-12T06:39:21Z</time>
      </trkpt>
      <trkpt lat="59.31753" lon="18.071632">
        <ele>42</ele>
        <time>2019-12-12T06:39:22Z</time>
      </trkpt>
      <trkpt lat="59.317632" lon="18.071559">
        <ele>41</ele>
        <time>2019-12-12T06:39:26Z</time>
      </trkpt>
      <trkpt lat="59.317707" lon="18.071537">
        <ele>42</ele>
        <time>2019-12-12T06:39:29Z</time>
      </trkpt>
      <trkpt lat="59.317726" lon="18.071526">
        <ele>43</ele>
        <time>2019-12-12T06:39:31Z</time>
      </trkpt>
      <trkpt lat="59.317752" lon="18.071519">
        <ele>43</ele>
        <time>2019-12-12T06:39:31Z</time>
      </trkpt>
      <trkpt lat="59.317823" lon="18.071513">
        <ele>43</ele>
        <time>2019-12-12T06:39:33Z</time>
      </trkpt>
      <trkpt lat="59.317858" lon="18.071511">
        <ele>43</ele>
        <time>2019-12-12T06:39:35Z</time>
      </trkpt>
      <trkpt lat="59.317887" lon="18.071489">
        <ele>44</ele>
        <time>2019-12-12T06:39:35Z</time>
      </trkpt>
      <trkpt lat="59.317916" lon="18.07147">
        <ele>44</ele>
        <time>2019-12-12T06:39:37Z</time>
      </trkpt>
      <trkpt lat="59.317944" lon="18.071447">
        <ele>45</ele>
        <time>2019-12-12T06:39:37Z</time>
      </trkpt>
      <trkpt lat="59.317968" lon="18.071429">
        <ele>45</ele>
        <time>2019-12-12T06:39:39Z</time>
      </trkpt>
      <trkpt lat="59.317984" lon="18.071415">
        <ele>45</ele>
        <time>2019-12-12T06:39:39Z</time>
      </trkpt>
      <trkpt lat="59.318002" lon="18.071406">
        <ele>46</ele>
        <time>2019-12-12T06:39:40Z</time>
      </trkpt>
      <trkpt lat="59.318023" lon="18.071405">
        <ele>46</ele>
        <time>2019-12-12T06:39:42Z</time>
      </trkpt>
      <trkpt lat="59.318047" lon="18.071393">
        <ele>46</ele>
        <time>2019-12-12T06:39:42Z</time>
      </trkpt>
      <trkpt lat="59.318071" lon="18.071381">
        <ele>46</ele>
        <time>2019-12-12T06:39:43Z</time>
      </trkpt>
      <trkpt lat="59.3181" lon="18.071371">
        <ele>46</ele>
        <time>2019-12-12T06:39:44Z</time>
      </trkpt>
      <trkpt lat="59.318128" lon="18.071354">
        <ele>46</ele>
        <time>2019-12-12T06:39:45Z</time>
      </trkpt>
      <trkpt lat="59.318158" lon="18.071337">
        <ele>47</ele>
        <time>2019-12-12T06:39:46Z</time>
      </trkpt>
      <trkpt lat="59.318198" lon="18.07133">
        <ele>47</ele>
        <time>2019-12-12T06:39:48Z</time>
      </trkpt>
      <trkpt lat="59.318237" lon="18.071316">
        <ele>47</ele>
        <time>2019-12-12T06:39:48Z</time>
      </trkpt>
      <trkpt lat="59.318274" lon="18.071302">
        <ele>47</ele>
        <time>2019-12-12T06:39:49Z</time>
      </trkpt>
      <trkpt lat="59.318305" lon="18.071287">
        <ele>47</ele>
        <time>2019-12-12T06:39:51Z</time>
      </trkpt>
      <trkpt lat="59.318336" lon="18.071267">
        <ele>47</ele>
        <time>2019-12-12T06:39:51Z</time>
      </trkpt>
      <trkpt lat="59.318366" lon="18.07124">
        <ele>46</ele>
        <time>2019-12-12T06:39:52Z</time>
      </trkpt>
      <trkpt lat="59.318395" lon="18.071212">
        <ele>46</ele>
        <time>2019-12-12T06:39:54Z</time>
      </trkpt>
      <trkpt lat="59.318427" lon="18.071179">
        <ele>45</ele>
        <time>2019-12-12T06:39:54Z</time>
      </trkpt>
      <trkpt lat="59.318461" lon="18.07115">
        <ele>45</ele>
        <time>2019-12-12T06:39:56Z</time>
      </trkpt>
      <trkpt lat="59.318495" lon="18.071136">
        <ele>45</ele>
        <time>2019-12-12T06:39:56Z</time>
      </trkpt>
      <trkpt lat="59.318527" lon="18.071119">
        <ele>45</ele>
        <time>2019-12-12T06:39:57Z</time>
      </trkpt>
      <trkpt lat="59.318552" lon="18.071095">
        <ele>45</ele>
        <time>2019-12-12T06:39:59Z</time>
      </trkpt>
      <trkpt lat="59.318576" lon="18.071083">
        <ele>45</ele>
        <time>2019-12-12T06:39:59Z</time>
      </trkpt>
      <trkpt lat="59.318652" lon="18.07103">
        <ele>44</ele>
        <time>2019-12-12T06:40:02Z</time>
      </trkpt>
      <trkpt lat="59.318678" lon="18.071008">
        <ele>44</ele>
        <time>2019-12-12T06:40:04Z</time>
      </trkpt>
      <trkpt lat="59.318699" lon="18.070985">
        <ele>44</ele>
        <time>2019-12-12T06:40:04Z</time>
      </trkpt>
      <trkpt lat="59.318726" lon="18.070974">
        <ele>45</ele>
        <time>2019-12-12T06:40:05Z</time>
      </trkpt>
      <trkpt lat="59.318752" lon="18.070967">
        <ele>45</ele>
        <time>2019-12-12T06:40:06Z</time>
      </trkpt>
      <trkpt lat="59.31878" lon="18.070961">
        <ele>45</ele>
        <time>2019-12-12T06:40:07Z</time>
      </trkpt>
      <trkpt lat="59.318808" lon="18.070957">
        <ele>46</ele>
        <time>2019-12-12T06:40:08Z</time>
      </trkpt>
      <trkpt lat="59.318831" lon="18.070961">
        <ele>46</ele>
        <time>2019-12-12T06:40:09Z</time>
      </trkpt>
      <trkpt lat="59.318861" lon="18.07095">
        <ele>46</ele>
        <time>2019-12-12T06:40:10Z</time>
      </trkpt>
      <trkpt lat="59.318897" lon="18.070936">
        <ele>45</ele>
        <time>2019-12-12T06:40:12Z</time>
      </trkpt>
      <trkpt lat="59.318927" lon="18.070918">
        <ele>45</ele>
        <time>2019-12-12T06:40:13Z</time>
      </trkpt>
      <trkpt lat="59.318953" lon="18.070906">
        <ele>45</ele>
        <time>2019-12-12T06:40:13Z</time>
      </trkpt>
      <trkpt lat="59.318982" lon="18.070899">
        <ele>45</ele>
        <time>2019-12-12T06:40:15Z</time>
      </trkpt>
      <trkpt lat="59.319014" lon="18.070898">
        <ele>45</ele>
        <time>2019-12-12T06:40:15Z</time>
      </trkpt>
      <trkpt lat="59.319044" lon="18.070903">
        <ele>45</ele>
        <time>2019-12-12T06:40:16Z</time>
      </trkpt>
      <trkpt lat="59.319074" lon="18.070902">
        <ele>45</ele>
        <time>2019-12-12T06:40:18Z</time>
      </trkpt>
      <trkpt lat="59.319098" lon="18.070896">
        <ele>45</ele>
        <time>2019-12-12T06:40:18Z</time>
      </trkpt>
      <trkpt lat="59.319128" lon="18.070895">
        <ele>45</ele>
        <time>2019-12-12T06:40:19Z</time>
      </trkpt>
      <trkpt lat="59.31916" lon="18.070887">
        <ele>45</ele>
        <time>2019-12-12T06:40:21Z</time>
      </trkpt>
      <trkpt lat="59.319194" lon="18.070879">
        <ele>46</ele>
        <time>2019-12-12T06:40:21Z</time>
      </trkpt>
      <trkpt lat="59.319228" lon="18.070866">
        <ele>46</ele>
        <time>2019-12-12T06:40:22Z</time>
      </trkpt>
      <trkpt lat="59.319262" lon="18.070856">
        <ele>46</ele>
        <time>2019-12-12T06:40:24Z</time>
      </trkpt>
      <trkpt lat="59.319286" lon="18.070837">
        <ele>46</ele>
        <time>2019-12-12T06:40:24Z</time>
      </trkpt>
      <trkpt lat="59.319308" lon="18.070823">
        <ele>46</ele>
        <time>2019-12-12T06:40:25Z</time>
      </trkpt>
      <trkpt lat="59.31933" lon="18.070802">
        <ele>45</ele>
        <time>2019-12-12T06:40:26Z</time>
      </trkpt>
      <trkpt lat="59.319356" lon="18.070788">
        <ele>44</ele>
        <time>2019-12-12T06:40:27Z</time>
      </trkpt>
      <trkpt lat="59.319377" lon="18.070767">
        <ele>44</ele>
        <time>2019-12-12T06:40:28Z</time>
      </trkpt>
      <trkpt lat="59.319403" lon="18.070742">
        <ele>43</ele>
        <time>2019-12-12T06:40:29Z</time>
      </trkpt>
      <trkpt lat="59.319438" lon="18.07072">
        <ele>43</ele>
        <time>2019-12-12T06:40:30Z</time>
      </trkpt>
      <trkpt lat="59.319472" lon="18.070704">
        <ele>43</ele>
        <time>2019-12-12T06:40:32Z</time>
      </trkpt>
      <trkpt lat="59.319503" lon="18.070691">
        <ele>43</ele>
        <time>2019-12-12T06:40:32Z</time>
      </trkpt>
      <trkpt lat="59.319539" lon="18.070676">
        <ele>42</ele>
        <time>2019-12-12T06:40:33Z</time>
      </trkpt>
      <trkpt lat="59.319572" lon="18.070661">
        <ele>42</ele>
        <time>2019-12-12T06:40:34Z</time>
      </trkpt>
      <trkpt lat="59.319604" lon="18.070641">
        <ele>42</ele>
        <time>2019-12-12T06:40:35Z</time>
      </trkpt>
      <trkpt lat="59.319633" lon="18.070623">
        <ele>41</ele>
        <time>2019-12-12T06:40:37Z</time>
      </trkpt>
      <trkpt lat="59.319666" lon="18.070595">
        <ele>41</ele>
        <time>2019-12-12T06:40:37Z</time>
      </trkpt>
      <trkpt lat="59.319699" lon="18.07057">
        <ele>41</ele>
        <time>2019-12-12T06:40:38Z</time>
      </trkpt>
      <trkpt lat="59.319728" lon="18.070556">
        <ele>41</ele>
        <time>2019-12-12T06:40:40Z</time>
      </trkpt>
      <trkpt lat="59.319786" lon="18.070544">
        <ele>41</ele>
        <time>2019-12-12T06:40:41Z</time>
      </trkpt>
      <trkpt lat="59.319812" lon="18.070537">
        <ele>41</ele>
        <time>2019-12-12T06:40:42Z</time>
      </trkpt>
      <trkpt lat="59.319849" lon="18.070531">
        <ele>40</ele>
        <time>2019-12-12T06:40:43Z</time>
      </trkpt>
      <trkpt lat="59.31989" lon="18.070554">
        <ele>39</ele>
        <time>2019-12-12T06:40:45Z</time>
      </trkpt>
      <trkpt lat="59.319922" lon="18.070623">
        <ele>38</ele>
        <time>2019-12-12T06:40:45Z</time>
      </trkpt>
      <trkpt lat="59.319952" lon="18.070694">
        <ele>38</ele>
        <time>2019-12-12T06:40:46Z</time>
      </trkpt>
      <trkpt lat="59.319975" lon="18.070776">
        <ele>37</ele>
        <time>2019-12-12T06:40:48Z</time>
      </trkpt>
      <trkpt lat="59.32" lon="18.070842">
        <ele>37</ele>
        <time>2019-12-12T06:40:48Z</time>
      </trkpt>
      <trkpt lat="59.320017" lon="18.070894">
        <ele>37</ele>
        <time>2019-12-12T06:40:49Z</time>
      </trkpt>
      <trkpt lat="59.320032" lon="18.070957">
        <ele>0</ele>
        <time>2019-12-12T06:40:50Z</time>
      </trkpt>
      <trkpt lat="59.320042" lon="18.071003">
        <ele>37</ele>
        <time>2019-12-12T06:40:51Z</time>
      </trkpt>
      <trkpt lat="59.320083" lon="18.071039">
        <ele>36</ele>
        <time>2019-12-12T06:40:53Z</time>
      </trkpt>
      <trkpt lat="59.320111" lon="18.071067">
        <ele>36</ele>
        <time>2019-12-12T06:40:54Z</time>
      </trkpt>
      <trkpt lat="59.320135" lon="18.07109">
        <ele>35</ele>
        <time>2019-12-12T06:40:55Z</time>
      </trkpt>
      <trkpt lat="59.32016" lon="18.071109">
        <ele>34</ele>
        <time>2019-12-12T06:40:56Z</time>
      </trkpt>
      <trkpt lat="59.320187" lon="18.071128">
        <ele>33</ele>
        <time>2019-12-12T06:40:57Z</time>
      </trkpt>
      <trkpt lat="59.320212" lon="18.071143">
        <ele>33</ele>
        <time>2019-12-12T06:40:59Z</time>
      </trkpt>
      <trkpt lat="59.320236" lon="18.071157">
        <ele>32</ele>
        <time>2019-12-12T06:40:59Z</time>
      </trkpt>
      <trkpt lat="59.320258" lon="18.071176">
        <ele>31</ele>
        <time>2019-12-12T06:41:00Z</time>
      </trkpt>
      <trkpt lat="59.320281" lon="18.071214">
        <ele>30</ele>
        <time>2019-12-12T06:41:02Z</time>
      </trkpt>
      <trkpt lat="59.320303" lon="18.071257">
        <ele>30</ele>
        <time>2019-12-12T06:41:02Z</time>
      </trkpt>
      <trkpt lat="59.320326" lon="18.071296">
        <ele>29</ele>
        <time>2019-12-12T06:41:03Z</time>
      </trkpt>
      <trkpt lat="59.320349" lon="18.071336">
        <ele>29</ele>
        <time>2019-12-12T06:41:05Z</time>
      </trkpt>
      <trkpt lat="59.320374" lon="18.071367">
        <ele>28</ele>
        <time>2019-12-12T06:41:05Z</time>
      </trkpt>
      <trkpt lat="59.320401" lon="18.071392">
        <ele>28</ele>
        <time>2019-12-12T06:41:07Z</time>
      </trkpt>
      <trkpt lat="59.320429" lon="18.071414">
        <ele>27</ele>
        <time>2019-12-12T06:41:07Z</time>
      </trkpt>
      <trkpt lat="59.320457" lon="18.07143">
        <ele>27</ele>
        <time>2019-12-12T06:41:09Z</time>
      </trkpt>
      <trkpt lat="59.320485" lon="18.071446">
        <ele>26</ele>
        <time>2019-12-12T06:41:10Z</time>
      </trkpt>
      <trkpt lat="59.320513" lon="18.071458">
        <ele>26</ele>
        <time>2019-12-12T06:41:10Z</time>
      </trkpt>
      <trkpt lat="59.320542" lon="18.071458">
        <ele>26</ele>
        <time>2019-12-12T06:41:11Z</time>
      </trkpt>
      <trkpt lat="59.32057" lon="18.07146">
        <ele>25</ele>
        <time>2019-12-12T06:41:13Z</time>
      </trkpt>
      <trkpt lat="59.320598" lon="18.071464">
        <ele>25</ele>
        <time>2019-12-12T06:41:13Z</time>
      </trkpt>
      <trkpt lat="59.320627" lon="18.071466">
        <ele>25</ele>
        <time>2019-12-12T06:41:14Z</time>
      </trkpt>
      <trkpt lat="59.320657" lon="18.071476">
        <ele>24</ele>
        <time>2019-12-12T06:41:15Z</time>
      </trkpt>
      <trkpt lat="59.320686" lon="18.071486">
        <ele>24</ele>
        <time>2019-12-12T06:41:16Z</time>
      </trkpt>
      <trkpt lat="59.320716" lon="18.071501">
        <ele>23</ele>
        <time>2019-12-12T06:41:17Z</time>
      </trkpt>
      <trkpt lat="59.320745" lon="18.071523">
        <ele>23</ele>
        <time>2019-12-12T06:41:18Z</time>
      </trkpt>
      <trkpt lat="59.320772" lon="18.071557">
        <ele>23</ele>
        <time>2019-12-12T06:41:19Z</time>
      </trkpt>
      <trkpt lat="59.320794" lon="18.071602">
        <ele>23</ele>
        <time>2019-12-12T06:41:21Z</time>
      </trkpt>
      <trkpt lat="59.320812" lon="18.071654">
        <ele>22</ele>
        <time>2019-12-12T06:41:21Z</time>
      </trkpt>
      <trkpt lat="59.320826" lon="18.07171">
        <ele>22</ele>
        <time>2019-12-12T06:41:22Z</time>
      </trkpt>
      <trkpt lat="59.320839" lon="18.07177">
        <ele>22</ele>
        <time>2019-12-12T06:41:24Z</time>
      </trkpt>
      <trkpt lat="59.320852" lon="18.071826">
        <ele>22</ele>
        <time>2019-12-12T06:41:25Z</time>
      </trkpt>
      <trkpt lat="59.320865" lon="18.071886">
        <ele>22</ele>
        <time>2019-12-12T06:41:25Z</time>
      </trkpt>
      <trkpt lat="59.320877" lon="18.071944">
        <ele>21</ele>
        <time>2019-12-12T06:41:26Z</time>
      </trkpt>
      <trkpt lat="59.32089" lon="18.072002">
        <ele>21</ele>
        <time>2019-12-12T06:41:28Z</time>
      </trkpt>
      <trkpt lat="59.320904" lon="18.072055">
        <ele>21</ele>
        <time>2019-12-12T06:41:29Z</time>
      </trkpt>
      <trkpt lat="59.320923" lon="18.072098">
        <ele>21</ele>
        <time>2019-12-12T06:41:29Z</time>
      </trkpt>
      <trkpt lat="59.320944" lon="18.072138">
        <ele>20</ele>
        <time>2019-12-12T06:41:31Z</time>
      </trkpt>
      <trkpt lat="59.320967" lon="18.072172">
        <ele>20</ele>
        <time>2019-12-12T06:41:31Z</time>
      </trkpt>
      <trkpt lat="59.320993" lon="18.072198">
        <ele>20</ele>
        <time>2019-12-12T06:41:32Z</time>
      </trkpt>
      <trkpt lat="59.321022" lon="18.072222">
        <ele>19</ele>
        <time>2019-12-12T06:41:33Z</time>
      </trkpt>
      <trkpt lat="59.321052" lon="18.072246">
        <ele>19</ele>
        <time>2019-12-12T06:41:34Z</time>
      </trkpt>
      <trkpt lat="59.321083" lon="18.072268">
        <ele>19</ele>
        <time>2019-12-12T06:41:35Z</time>
      </trkpt>
      <trkpt lat="59.321114" lon="18.07229">
        <ele>19</ele>
        <time>2019-12-12T06:41:37Z</time>
      </trkpt>
      <trkpt lat="59.321144" lon="18.072311">
        <ele>18</ele>
        <time>2019-12-12T06:41:37Z</time>
      </trkpt>
      <trkpt lat="59.321173" lon="18.072332">
        <ele>18</ele>
        <time>2019-12-12T06:41:38Z</time>
      </trkpt>
      <trkpt lat="59.321202" lon="18.072348">
        <ele>18</ele>
        <time>2019-12-12T06:41:40Z</time>
      </trkpt>
      <trkpt lat="59.32123" lon="18.07237">
        <ele>18</ele>
        <time>2019-12-12T06:41:41Z</time>
      </trkpt>
      <trkpt lat="59.321258" lon="18.07239">
        <ele>17</ele>
        <time>2019-12-12T06:41:41Z</time>
      </trkpt>
      <trkpt lat="59.321286" lon="18.07241">
        <ele>17</ele>
        <time>2019-12-12T06:41:42Z</time>
      </trkpt>
      <trkpt lat="59.321315" lon="18.072426">
        <ele>17</ele>
        <time>2019-12-12T06:41:44Z</time>
      </trkpt>
      <trkpt lat="59.321343" lon="18.072445">
        <ele>17</ele>
        <time>2019-12-12T06:41:44Z</time>
      </trkpt>
      <trkpt lat="59.321372" lon="18.072466">
        <ele>16</ele>
        <time>2019-12-12T06:41:45Z</time>
      </trkpt>
      <trkpt lat="59.321401" lon="18.072488">
        <ele>16</ele>
        <time>2019-12-12T06:41:46Z</time>
      </trkpt>
      <trkpt lat="59.321429" lon="18.072508">
        <ele>16</ele>
        <time>2019-12-12T06:41:48Z</time>
      </trkpt>
      <trkpt lat="59.321457" lon="18.072528">
        <ele>16</ele>
        <time>2019-12-12T06:41:48Z</time>
      </trkpt>
      <trkpt lat="59.321483" lon="18.072548">
        <ele>15</ele>
        <time>2019-12-12T06:41:50Z</time>
      </trkpt>
      <trkpt lat="59.321511" lon="18.072564">
        <ele>15</ele>
        <time>2019-12-12T06:41:50Z</time>
      </trkpt>
      <trkpt lat="59.321539" lon="18.072584">
        <ele>15</ele>
        <time>2019-12-12T06:41:51Z</time>
      </trkpt>
      <trkpt lat="59.321566" lon="18.072604">
        <ele>15</ele>
        <time>2019-12-12T06:41:53Z</time>
      </trkpt>
      <trkpt lat="59.321595" lon="18.072626">
        <ele>15</ele>
        <time>2019-12-12T06:41:53Z</time>
      </trkpt>
      <trkpt lat="59.321621" lon="18.072645">
        <ele>14</ele>
        <time>2019-12-12T06:41:54Z</time>
      </trkpt>
      <trkpt lat="59.321645" lon="18.072666">
        <ele>14</ele>
        <time>2019-12-12T06:41:55Z</time>
      </trkpt>
      <trkpt lat="59.321673" lon="18.072684">
        <ele>14</ele>
        <time>2019-12-12T06:41:56Z</time>
      </trkpt>
      <trkpt lat="59.321705" lon="18.072702">
        <ele>13</ele>
        <time>2019-12-12T06:41:58Z</time>
      </trkpt>
      <trkpt lat="59.321736" lon="18.072719">
        <ele>13</ele>
        <time>2019-12-12T06:41:58Z</time>
      </trkpt>
      <trkpt lat="59.321764" lon="18.07274">
        <ele>13</ele>
        <time>2019-12-12T06:41:59Z</time>
      </trkpt>
      <trkpt lat="59.321793" lon="18.072762">
        <ele>12</ele>
        <time>2019-12-12T06:42:01Z</time>
      </trkpt>
      <trkpt lat="59.321823" lon="18.072784">
        <ele>12</ele>
        <time>2019-12-12T06:42:01Z</time>
      </trkpt>
      <trkpt lat="59.321852" lon="18.072794">
        <ele>12</ele>
        <time>2019-12-12T06:42:02Z</time>
      </trkpt>
      <trkpt lat="59.321882" lon="18.072807">
        <ele>12</ele>
        <time>2019-12-12T06:42:03Z</time>
      </trkpt>
      <trkpt lat="59.32191" lon="18.072824">
        <ele>12</ele>
        <time>2019-12-12T06:42:04Z</time>
      </trkpt>
      <trkpt lat="59.321935" lon="18.072845">
        <ele>11</ele>
        <time>2019-12-12T06:42:05Z</time>
      </trkpt>
      <trkpt lat="59.32196" lon="18.072867">
        <ele>11</ele>
        <time>2019-12-12T06:42:07Z</time>
      </trkpt>
      <trkpt lat="59.321988" lon="18.072891">
        <ele>11</ele>
        <time>2019-12-12T06:42:07Z</time>
      </trkpt>
      <trkpt lat="59.322013" lon="18.072914">
        <ele>11</ele>
        <time>2019-12-12T06:42:09Z</time>
      </trkpt>
      <trkpt lat="59.322037" lon="18.072939">
        <ele>11</ele>
        <time>2019-12-12T06:42:09Z</time>
      </trkpt>
      <trkpt lat="59.322057" lon="18.07298">
        <ele>11</ele>
        <time>2019-12-12T06:42:10Z</time>
      </trkpt>
      <trkpt lat="59.322071" lon="18.073031">
        <ele>11</ele>
        <time>2019-12-12T06:42:12Z</time>
      </trkpt>
      <trkpt lat="59.322072" lon="18.07308">
        <ele>11</ele>
        <time>2019-12-12T06:42:12Z</time>
      </trkpt>
      <trkpt lat="59.322057" lon="18.073122">
        <ele>11</ele>
        <time>2019-12-12T06:42:13Z</time>
      </trkpt>
      <trkpt lat="59.322039" lon="18.073169">
        <ele>11</ele>
        <time>2019-12-12T06:42:15Z</time>
      </trkpt>
      <trkpt lat="59.322022" lon="18.073217">
        <ele>11</ele>
        <time>2019-12-12T06:42:15Z</time>
      </trkpt>
      <trkpt lat="59.322002" lon="18.073266">
        <ele>11</ele>
        <time>2019-12-12T06:42:16Z</time>
      </trkpt>
      <trkpt lat="59.321986" lon="18.073311">
        <ele>11</ele>
        <time>2019-12-12T06:42:18Z</time>
      </trkpt>
      <trkpt lat="59.32197" lon="18.073359">
        <ele>11</ele>
        <time>2019-12-12T06:42:18Z</time>
      </trkpt>
      <trkpt lat="59.321956" lon="18.07341">
        <ele>10</ele>
        <time>2019-12-12T06:42:19Z</time>
      </trkpt>
      <trkpt lat="59.321942" lon="18.073463">
        <ele>10</ele>
        <time>2019-12-12T06:42:20Z</time>
      </trkpt>
      <trkpt lat="59.321933" lon="18.073517">
        <ele>10</ele>
        <time>2019-12-12T06:42:21Z</time>
      </trkpt>
      <trkpt lat="59.321921" lon="18.073569">
        <ele>10</ele>
        <time>2019-12-12T06:42:22Z</time>
      </trkpt>
      <trkpt lat="59.321911" lon="18.073624">
        <ele>10</ele>
        <time>2019-12-12T06:42:23Z</time>
      </trkpt>
      <trkpt lat="59.321908" lon="18.073682">
        <ele>9</ele>
        <time>2019-12-12T06:42:24Z</time>
      </trkpt>
      <trkpt lat="59.32192" lon="18.073753">
        <ele>9</ele>
        <time>2019-12-12T06:42:26Z</time>
      </trkpt>
      <trkpt lat="59.321929" lon="18.073808">
        <ele>9</ele>
        <time>2019-12-12T06:42:26Z</time>
      </trkpt>
      <trkpt lat="59.321949" lon="18.073853">
        <ele>9</ele>
        <time>2019-12-12T06:42:27Z</time>
      </trkpt>
      <trkpt lat="59.321974" lon="18.073891">
        <ele>8</ele>
        <time>2019-12-12T06:42:29Z</time>
      </trkpt>
      <trkpt lat="59.322004" lon="18.07393">
        <ele>8</ele>
        <time>2019-12-12T06:42:29Z</time>
      </trkpt>
      <trkpt lat="59.322035" lon="18.073969">
        <ele>8</ele>
        <time>2019-12-12T06:42:31Z</time>
      </trkpt>
      <trkpt lat="59.322067" lon="18.073987">
        <ele>8</ele>
        <time>2019-12-12T06:42:31Z</time>
      </trkpt>
      <trkpt lat="59.322087" lon="18.074021">
        <ele>8</ele>
        <time>2019-12-12T06:42:32Z</time>
      </trkpt>
      <trkpt lat="59.322109" lon="18.074059">
        <ele>8</ele>
        <time>2019-12-12T06:42:34Z</time>
      </trkpt>
      <trkpt lat="59.322127" lon="18.074095">
        <ele>8</ele>
        <time>2019-12-12T06:42:34Z</time>
      </trkpt>
      <trkpt lat="59.322143" lon="18.074122">
        <ele>7</ele>
        <time>2019-12-12T06:42:35Z</time>
      </trkpt>
      <trkpt lat="59.32217" lon="18.074141">
        <ele>7</ele>
        <time>2019-12-12T06:42:36Z</time>
      </trkpt>
      <trkpt lat="59.322198" lon="18.074158">
        <ele>7</ele>
        <time>2019-12-12T06:42:37Z</time>
      </trkpt>
      <trkpt lat="59.322223" lon="18.074195">
        <ele>7</ele>
        <time>2019-12-12T06:42:39Z</time>
      </trkpt>
      <trkpt lat="59.322247" lon="18.074226">
        <ele>7</ele>
        <time>2019-12-12T06:42:39Z</time>
      </trkpt>
      <trkpt lat="59.32227" lon="18.074252">
        <ele>7</ele>
        <time>2019-12-12T06:42:40Z</time>
      </trkpt>
      <trkpt lat="59.322288" lon="18.07429">
        <ele>7</ele>
        <time>2019-12-12T06:42:42Z</time>
      </trkpt>
      <trkpt lat="59.32231" lon="18.07433">
        <ele>6</ele>
        <time>2019-12-12T06:42:42Z</time>
      </trkpt>
      <trkpt lat="59.322356" lon="18.074318">
        <ele>6</ele>
        <time>2019-12-12T06:42:43Z</time>
      </trkpt>
      <trkpt lat="59.322385" lon="18.074347">
        <ele>6</ele>
        <time>2019-12-12T06:42:45Z</time>
      </trkpt>
      <trkpt lat="59.322414" lon="18.074376">
        <ele>6</ele>
        <time>2019-12-12T06:42:45Z</time>
      </trkpt>
      <trkpt lat="59.322441" lon="18.074408">
        <ele>6</ele>
        <time>2019-12-12T06:42:46Z</time>
      </trkpt>
      <trkpt lat="59.322469" lon="18.074442">
        <ele>6</ele>
        <time>2019-12-12T06:42:48Z</time>
      </trkpt>
      <trkpt lat="59.322495" lon="18.074472">
        <ele>6</ele>
        <time>2019-12-12T06:42:48Z</time>
      </trkpt>
      <trkpt lat="59.322525" lon="18.074498">
        <ele>6</ele>
        <time>2019-12-12T06:42:49Z</time>
      </trkpt>
      <trkpt lat="59.322557" lon="18.074502">
        <ele>5</ele>
        <time>2019-12-12T06:42:51Z</time>
      </trkpt>
      <trkpt lat="59.322587" lon="18.074513">
        <ele>5</ele>
        <time>2019-12-12T06:42:51Z</time>
      </trkpt>
      <trkpt lat="59.322675" lon="18.074598">
        <ele>5</ele>
        <time>2019-12-12T06:42:54Z</time>
      </trkpt>
      <trkpt lat="59.322708" lon="18.074613">
        <ele>4</ele>
        <time>2019-12-12T06:42:56Z</time>
      </trkpt>
      <trkpt lat="59.32274" lon="18.074628">
        <ele>4</ele>
        <time>2019-12-12T06:42:56Z</time>
      </trkpt>
      <trkpt lat="59.32277" lon="18.074646">
        <ele>4</ele>
        <time>2019-12-12T06:42:57Z</time>
      </trkpt>
      <trkpt lat="59.322816" lon="18.074722">
        <ele>4</ele>
        <time>2019-12-12T06:42:59Z</time>
      </trkpt>
      <trkpt lat="59.322841" lon="18.07476">
        <ele>4</ele>
        <time>2019-12-12T06:43:00Z</time>
      </trkpt>
      <trkpt lat="59.322864" lon="18.074797">
        <ele>4</ele>
        <time>2019-12-12T06:43:02Z</time>
      </trkpt>
      <trkpt lat="59.322886" lon="18.074832">
        <ele>4</ele>
        <time>2019-12-12T06:43:02Z</time>
      </trkpt>
      <trkpt lat="59.322913" lon="18.074865">
        <ele>0</ele>
        <time>2019-12-12T06:43:03Z</time>
      </trkpt>
      <trkpt lat="59.32294" lon="18.074894">
        <ele>4</ele>
        <time>2019-12-12T06:43:04Z</time>
      </trkpt>
      <trkpt lat="59.322957" lon="18.074923">
        <ele>4</ele>
        <time>2019-12-12T06:43:06Z</time>
      </trkpt>
      <trkpt lat="59.322993" lon="18.074927">
        <ele>4</ele>
        <time>2019-12-12T06:43:06Z</time>
      </trkpt>
      <trkpt lat="59.323026" lon="18.074931">
        <ele>3</ele>
        <time>2019-12-12T06:43:07Z</time>
      </trkpt>
      <trkpt lat="59.323061" lon="18.074938">
        <ele>3</ele>
        <time>2019-12-12T06:43:09Z</time>
      </trkpt>
      <trkpt lat="59.323095" lon="18.074952">
        <ele>3</ele>
        <time>2019-12-12T06:43:09Z</time>
      </trkpt>
      <trkpt lat="59.323129" lon="18.074953">
        <ele>3</ele>
        <time>2019-12-12T06:43:10Z</time>
      </trkpt>
      <trkpt lat="59.323157" lon="18.074956">
        <ele>3</ele>
        <time>2019-12-12T06:43:12Z</time>
      </trkpt>
      <trkpt lat="59.323184" lon="18.074963">
        <ele>2</ele>
        <time>2019-12-12T06:43:12Z</time>
      </trkpt>
      <trkpt lat="59.323213" lon="18.074975">
        <ele>2</ele>
        <time>2019-12-12T06:43:13Z</time>
      </trkpt>
      <trkpt lat="59.323247" lon="18.074978">
        <ele>2</ele>
        <time>2019-12-12T06:43:14Z</time>
      </trkpt>
      <trkpt lat="59.323277" lon="18.074986">
        <ele>2</ele>
        <time>2019-12-12T06:43:15Z</time>
      </trkpt>
      <trkpt lat="59.323305" lon="18.074981">
        <ele>2</ele>
        <time>2019-12-12T06:43:17Z</time>
      </trkpt>
      <trkpt lat="59.323333" lon="18.07498">
        <ele>1</ele>
        <time>2019-12-12T06:43:17Z</time>
      </trkpt>
      <trkpt lat="59.323362" lon="18.074995">
        <ele>1</ele>
        <time>2019-12-12T06:43:18Z</time>
      </trkpt>
      <trkpt lat="59.323388" lon="18.075015">
        <ele>1</ele>
        <time>2019-12-12T06:43:20Z</time>
      </trkpt>
      <trkpt lat="59.323417" lon="18.075017">
        <ele>1</ele>
        <time>2019-12-12T06:43:21Z</time>
      </trkpt>
      <trkpt lat="59.323444" lon="18.075021">
        <ele>1</ele>
        <time>2019-12-12T06:43:21Z</time>
      </trkpt>
      <trkpt lat="59.323472" lon="18.075024">
        <ele>1</ele>
        <time>2019-12-12T06:43:23Z</time>
      </trkpt>
      <trkpt lat="59.323501" lon="18.075039">
        <ele>1</ele>
        <time>2019-12-12T06:43:23Z</time>
      </trkpt>
      <trkpt lat="59.323529" lon="18.075052">
        <ele>1</ele>
        <time>2019-12-12T06:43:25Z</time>
      </trkpt>
      <trkpt lat="59.323558" lon="18.075062">
        <ele>1</ele>
        <time>2019-12-12T06:43:25Z</time>
      </trkpt>
      <trkpt lat="59.323586" lon="18.075074">
        <ele>1</ele>
        <time>2019-12-12T06:43:26Z</time>
      </trkpt>
      <trkpt lat="59.323616" lon="18.075079">
        <ele>0</ele>
        <time>2019-12-12T06:43:28Z</time>
      </trkpt>
      <trkpt lat="59.323644" lon="18.075094">
        <ele>1</ele>
        <time>2019-12-12T06:43:28Z</time>
      </trkpt>
      <trkpt lat="59.323672" lon="18.075091">
        <ele>1</ele>
        <time>2019-12-12T06:43:29Z</time>
      </trkpt>
      <trkpt lat="59.323701" lon="18.075095">
        <ele>1</ele>
        <time>2019-12-12T06:43:31Z</time>
      </trkpt>
      <trkpt lat="59.323727" lon="18.075106">
        <ele>1</ele>
        <time>2019-12-12T06:43:31Z</time>
      </trkpt>
      <trkpt lat="59.323754" lon="18.075119">
        <ele>1</ele>
        <time>2019-12-12T06:43:32Z</time>
      </trkpt>
      <trkpt lat="59.323783" lon="18.075127">
        <ele>1</ele>
        <time>2019-12-12T06:43:33Z</time>
      </trkpt>
      <trkpt lat="59.323808" lon="18.075136">
        <ele>1</ele>
        <time>2019-12-12T06:43:34Z</time>
      </trkpt>
      <trkpt lat="59.323834" lon="18.075152">
        <ele>1</ele>
        <time>2019-12-12T06:43:35Z</time>
      </trkpt>
      <trkpt lat="59.323862" lon="18.075163">
        <ele>1</ele>
        <time>2019-12-12T06:43:36Z</time>
      </trkpt>
      <trkpt lat="59.323889" lon="18.075174">
        <ele>1</ele>
        <time>2019-12-12T06:43:38Z</time>
      </trkpt>
      <trkpt lat="59.323917" lon="18.075188">
        <ele>0</ele>
        <time>2019-12-12T06:43:38Z</time>
      </trkpt>
      <trkpt lat="59.323943" lon="18.075215">
        <ele>0</ele>
        <time>2019-12-12T06:43:39Z</time>
      </trkpt>
      <trkpt lat="59.323969" lon="18.075229">
        <ele>0</ele>
        <time>2019-12-12T06:43:40Z</time>
      </trkpt>
      <trkpt lat="59.323996" lon="18.075239">
        <ele>0</ele>
        <time>2019-12-12T06:43:42Z</time>
      </trkpt>
      <trkpt lat="59.324024" lon="18.075253">
        <ele>0</ele>
        <time>2019-12-12T06:43:42Z</time>
      </trkpt>
      <trkpt lat="59.324051" lon="18.075263">
        <ele>0</ele>
        <time>2019-12-12T06:43:44Z</time>
      </trkpt>
      <trkpt lat="59.324077" lon="18.07527">
        <ele>0</ele>
        <time>2019-12-12T06:43:44Z</time>
      </trkpt>
      <trkpt lat="59.324103" lon="18.07527">
        <ele>0</ele>
        <time>2019-12-12T06:43:45Z</time>
      </trkpt>
      <trkpt lat="59.324131" lon="18.075285">
        <ele>0</ele>
        <time>2019-12-12T06:43:47Z</time>
      </trkpt>
      <trkpt lat="59.324158" lon="18.075292">
        <ele>0</ele>
        <time>2019-12-12T06:43:47Z</time>
      </trkpt>
      <trkpt lat="59.324185" lon="18.075303">
        <ele>0</ele>
        <time>2019-12-12T06:43:48Z</time>
      </trkpt>
      <trkpt lat="59.32421" lon="18.075319">
        <ele>0</ele>
        <time>2019-12-12T06:43:49Z</time>
      </trkpt>
      <trkpt lat="59.324237" lon="18.075333">
        <ele>0</ele>
        <time>2019-12-12T06:43:50Z</time>
      </trkpt>
      <trkpt lat="59.324266" lon="18.075344">
        <ele>0</ele>
        <time>2019-12-12T06:43:51Z</time>
      </trkpt>
      <trkpt lat="59.324295" lon="18.075351">
        <ele>0</ele>
        <time>2019-12-12T06:43:52Z</time>
      </trkpt>
      <trkpt lat="59.324322" lon="18.075357">
        <ele>0</ele>
        <time>2019-12-12T06:43:53Z</time>
      </trkpt>
      <trkpt lat="59.32435" lon="18.075355">
        <ele>0</ele>
        <time>2019-12-12T06:43:55Z</time>
      </trkpt>
      <trkpt lat="59.324374" lon="18.075369">
        <ele>0</ele>
        <time>2019-12-12T06:43:56Z</time>
      </trkpt>
      <trkpt lat="59.324398" lon="18.075379">
        <ele>0</ele>
        <time>2019-12-12T06:43:56Z</time>
      </trkpt>
      <trkpt lat="59.324423" lon="18.075396">
        <ele>0</ele>
        <time>2019-12-12T06:43:57Z</time>
      </trkpt>
      <trkpt lat="59.32445" lon="18.075409">
        <ele>0</ele>
        <time>2019-12-12T06:43:59Z</time>
      </trkpt>
      <trkpt lat="59.32448" lon="18.075422">
        <ele>0</ele>
        <time>2019-12-12T06:43:59Z</time>
      </trkpt>
      <trkpt lat="59.324507" lon="18.075427">
        <ele>0</ele>
        <time>2019-12-12T06:44:01Z</time>
      </trkpt>
      <trkpt lat="59.324534" lon="18.075431">
        <ele>0</ele>
        <time>2019-12-12T06:44:01Z</time>
      </trkpt>
      <trkpt lat="59.324566" lon="18.075433">
        <ele>0</ele>
        <time>2019-12-12T06:44:03Z</time>
      </trkpt>
      <trkpt lat="59.324595" lon="18.075443">
        <ele>0</ele>
        <time>2019-12-12T06:44:03Z</time>
      </trkpt>
      <trkpt lat="59.324622" lon="18.07545">
        <ele>0</ele>
        <time>2019-12-12T06:44:04Z</time>
      </trkpt>
      <trkpt lat="59.324651" lon="18.075458">
        <ele>0</ele>
        <time>2019-12-12T06:44:06Z</time>
      </trkpt>
      <trkpt lat="59.324678" lon="18.07547">
        <ele>0</ele>
        <time>2019-12-12T06:44:06Z</time>
      </trkpt>
      <trkpt lat="59.324703" lon="18.075481">
        <ele>0</ele>
        <time>2019-12-12T06:44:07Z</time>
      </trkpt>
      <trkpt lat="59.32473" lon="18.075484">
        <ele>0</ele>
        <time>2019-12-12T06:44:08Z</time>
      </trkpt>
      <trkpt lat="59.324761" lon="18.075493">
        <ele>0</ele>
        <time>2019-12-12T06:44:09Z</time>
      </trkpt>
      <trkpt lat="59.324792" lon="18.075502">
        <ele>0</ele>
        <time>2019-12-12T06:44:10Z</time>
      </trkpt>
      <trkpt lat="59.32482" lon="18.075516">
        <ele>0</ele>
        <time>2019-12-12T06:44:11Z</time>
      </trkpt>
      <trkpt lat="59.324846" lon="18.075529">
        <ele>0</ele>
        <time>2019-12-12T06:44:12Z</time>
      </trkpt>
      <trkpt lat="59.324871" lon="18.075536">
        <ele>0</ele>
        <time>2019-12-12T06:44:14Z</time>
      </trkpt>
      <trkpt lat="59.324895" lon="18.07555">
        <ele>0</ele>
        <time>2019-12-12T06:44:14Z</time>
      </trkpt>
      <trkpt lat="59.324916" lon="18.075566">
        <ele>0</ele>
        <time>2019-12-12T06:44:15Z</time>
      </trkpt>
      <trkpt lat="59.324937" lon="18.075571">
        <ele>0</ele>
        <time>2019-12-12T06:44:16Z</time>
      </trkpt>
      <trkpt lat="59.324955" lon="18.075585">
        <ele>0</ele>
        <time>2019-12-12T06:44:17Z</time>
      </trkpt>
      <trkpt lat="59.324976" lon="18.075591">
        <ele>0</ele>
        <time>2019-12-12T06:44:18Z</time>
      </trkpt>
      <trkpt lat="59.324999" lon="18.07559">
        <ele>0</ele>
        <time>2019-12-12T06:44:20Z</time>
      </trkpt>
      <trkpt lat="59.325028" lon="18.075588">
        <ele>0</ele>
        <time>2019-12-12T06:44:20Z</time>
      </trkpt>
      <trkpt lat="59.325059" lon="18.075581">
        <ele>0</ele>
        <time>2019-12-12T06:44:21Z</time>
      </trkpt>
      <trkpt lat="59.325086" lon="18.075576">
        <ele>0</ele>
        <time>2019-12-12T06:44:22Z</time>
      </trkpt>
      <trkpt lat="59.32511" lon="18.075564">
        <ele>0</ele>
        <time>2019-12-12T06:44:23Z</time>
      </trkpt>
      <trkpt lat="59.325137" lon="18.075555">
        <ele>0</ele>
        <time>2019-12-12T06:44:24Z</time>
      </trkpt>
      <trkpt lat="59.325164" lon="18.075558">
        <ele>0</ele>
        <time>2019-12-12T06:44:25Z</time>
      </trkpt>
      <trkpt lat="59.325194" lon="18.075564">
        <ele>0</ele>
        <time>2019-12-12T06:44:26Z</time>
      </trkpt>
      <trkpt lat="59.325224" lon="18.075566">
        <ele>0</ele>
        <time>2019-12-12T06:44:28Z</time>
      </trkpt>
      <trkpt lat="59.325253" lon="18.075551">
        <ele>0</ele>
        <time>2019-12-12T06:44:28Z</time>
      </trkpt>
      <trkpt lat="59.325281" lon="18.075547">
        <ele>0</ele>
        <time>2019-12-12T06:44:29Z</time>
      </trkpt>
      <trkpt lat="59.32531" lon="18.075539">
        <ele>0</ele>
        <time>2019-12-12T06:44:31Z</time>
      </trkpt>
      <trkpt lat="59.325341" lon="18.075529">
        <ele>0</ele>
        <time>2019-12-12T06:44:31Z</time>
      </trkpt>
      <trkpt lat="59.325368" lon="18.075518">
        <ele>0</ele>
        <time>2019-12-12T06:44:33Z</time>
      </trkpt>
      <trkpt lat="59.325397" lon="18.075508">
        <ele>0</ele>
        <time>2019-12-12T06:44:33Z</time>
      </trkpt>
      <trkpt lat="59.325429" lon="18.0755">
        <ele>0</ele>
        <time>2019-12-12T06:44:34Z</time>
      </trkpt>
      <trkpt lat="59.325465" lon="18.075509">
        <ele>0</ele>
        <time>2019-12-12T06:44:35Z</time>
      </trkpt>
      <trkpt lat="59.325493" lon="18.075513">
        <ele>0</ele>
        <time>2019-12-12T06:44:36Z</time>
      </trkpt>
      <trkpt lat="59.325533" lon="18.075546">
        <ele>0</ele>
        <time>2019-12-12T06:44:37Z</time>
      </trkpt>
      <trkpt lat="59.325555" lon="18.075529">
        <ele>0</ele>
        <time>2019-12-12T06:44:39Z</time>
      </trkpt>
      <trkpt lat="59.325578" lon="18.075508">
        <ele>1</ele>
        <time>2019-12-12T06:44:39Z</time>
      </trkpt>
      <trkpt lat="59.325604" lon="18.075501">
        <ele>1</ele>
        <time>2019-12-12T06:44:41Z</time>
      </trkpt>
      <trkpt lat="59.32563" lon="18.075488">
        <ele>1</ele>
        <time>2019-12-12T06:44:41Z</time>
      </trkpt>
      <trkpt lat="59.325656" lon="18.07549">
        <ele>1</ele>
        <time>2019-12-12T06:44:42Z</time>
      </trkpt>
      <trkpt lat="59.325684" lon="18.075496">
        <ele>1</ele>
        <time>2019-12-12T06:44:44Z</time>
      </trkpt>
      <trkpt lat="59.325705" lon="18.075522">
        <ele>1</ele>
        <time>2019-12-12T06:44:44Z</time>
      </trkpt>
      <trkpt lat="59.325718" lon="18.07557">
        <ele>1</ele>
        <time>2019-12-12T06:44:45Z</time>
      </trkpt>
      <trkpt lat="59.325727" lon="18.07561">
        <ele>1</ele>
        <time>2019-12-12T06:44:46Z</time>
      </trkpt>
      <trkpt lat="59.325745" lon="18.075639">
        <ele>1</ele>
        <time>2019-12-12T06:44:47Z</time>
      </trkpt>
      <trkpt lat="59.325775" lon="18.075664">
        <ele>1</ele>
        <time>2019-12-12T06:44:48Z</time>
      </trkpt>
      <trkpt lat="59.325804" lon="18.075672">
        <ele>2</ele>
        <time>2019-12-12T06:44:50Z</time>
      </trkpt>
      <trkpt lat="59.325834" lon="18.075652">
        <ele>2</ele>
        <time>2019-12-12T06:44:50Z</time>
      </trkpt>
      <trkpt lat="59.325862" lon="18.075625">
        <ele>2</ele>
        <time>2019-12-12T06:44:51Z</time>
      </trkpt>
      <trkpt lat="59.325888" lon="18.075596">
        <ele>2</ele>
        <time>2019-12-12T06:44:52Z</time>
      </trkpt>
      <trkpt lat="59.325915" lon="18.075565">
        <ele>3</ele>
        <time>2019-12-12T06:44:53Z</time>
      </trkpt>
      <trkpt lat="59.325943" lon="18.075541">
        <ele>3</ele>
        <time>2019-12-12T06:44:54Z</time>
      </trkpt>
      <trkpt lat="59.325972" lon="18.075511">
        <ele>3</ele>
        <time>2019-12-12T06:44:55Z</time>
      </trkpt>
      <trkpt lat="59.325998" lon="18.075483">
        <ele>3</ele>
        <time>2019-12-12T06:44:56Z</time>
      </trkpt>
      <trkpt lat="59.326024" lon="18.07545">
        <ele>4</ele>
        <time>2019-12-12T06:44:58Z</time>
      </trkpt>
      <trkpt lat="59.326049" lon="18.075417">
        <ele>4</ele>
        <time>2019-12-12T06:44:59Z</time>
      </trkpt>
      <trkpt lat="59.326074" lon="18.075394">
        <ele>4</ele>
        <time>2019-12-12T06:44:59Z</time>
      </trkpt>
      <trkpt lat="59.326097" lon="18.075374">
        <ele>4</ele>
        <time>2019-12-12T06:45:01Z</time>
      </trkpt>
      <trkpt lat="59.32612" lon="18.075354">
        <ele>4</ele>
        <time>2019-12-12T06:45:02Z</time>
      </trkpt>
      <trkpt lat="59.326143" lon="18.07533">
        <ele>4</ele>
        <time>2019-12-12T06:45:02Z</time>
      </trkpt>
      <trkpt lat="59.326165" lon="18.075302">
        <ele>4</ele>
        <time>2019-12-12T06:45:03Z</time>
      </trkpt>
      <trkpt lat="59.326186" lon="18.075272">
        <ele>4</ele>
        <time>2019-12-12T06:45:05Z</time>
      </trkpt>
      <trkpt lat="59.326209" lon="18.075241">
        <ele>4</ele>
        <time>2019-12-12T06:45:05Z</time>
      </trkpt>
      <trkpt lat="59.326234" lon="18.075212">
        <ele>4</ele>
        <time>2019-12-12T06:45:06Z</time>
      </trkpt>
      <trkpt lat="59.326258" lon="18.075186">
        <ele>5</ele>
        <time>2019-12-12T06:45:08Z</time>
      </trkpt>
      <trkpt lat="59.326282" lon="18.075162">
        <ele>5</ele>
        <time>2019-12-12T06:45:08Z</time>
      </trkpt>
      <trkpt lat="59.326304" lon="18.075138">
        <ele>5</ele>
        <time>2019-12-12T06:45:09Z</time>
      </trkpt>
      <trkpt lat="59.326326" lon="18.075112">
        <ele>5</ele>
        <time>2019-12-12T06:45:11Z</time>
      </trkpt>
      <trkpt lat="59.326347" lon="18.075082">
        <ele>5</ele>
        <time>2019-12-12T06:45:11Z</time>
      </trkpt>
      <trkpt lat="59.32637" lon="18.075054">
        <ele>5</ele>
        <time>2019-12-12T06:45:12Z</time>
      </trkpt>
      <trkpt lat="59.326392" lon="18.075026">
        <ele>5</ele>
        <time>2019-12-12T06:45:14Z</time>
      </trkpt>
      <trkpt lat="59.326414" lon="18.074998">
        <ele>5</ele>
        <time>2019-12-12T06:45:14Z</time>
      </trkpt>
      <trkpt lat="59.326438" lon="18.074968">
        <ele>5</ele>
        <time>2019-12-12T06:45:15Z</time>
      </trkpt>
      <trkpt lat="59.326462" lon="18.07494">
        <ele>5</ele>
        <time>2019-12-12T06:45:17Z</time>
      </trkpt>
      <trkpt lat="59.326489" lon="18.074914">
        <ele>5</ele>
        <time>2019-12-12T06:45:18Z</time>
      </trkpt>
      <trkpt lat="59.326514" lon="18.074886">
        <ele>5</ele>
        <time>2019-12-12T06:45:18Z</time>
      </trkpt>
      <trkpt lat="59.326541" lon="18.074858">
        <ele>5</ele>
        <time>2019-12-12T06:45:19Z</time>
      </trkpt>
      <trkpt lat="59.326567" lon="18.074836">
        <ele>5</ele>
        <time>2019-12-12T06:45:21Z</time>
      </trkpt>
      <trkpt lat="59.326594" lon="18.074812">
        <ele>5</ele>
        <time>2019-12-12T06:45:21Z</time>
      </trkpt>
      <trkpt lat="59.32662" lon="18.074788">
        <ele>5</ele>
        <time>2019-12-12T06:45:22Z</time>
      </trkpt>
      <trkpt lat="59.326645" lon="18.074765">
        <ele>5</ele>
        <time>2019-12-12T06:45:24Z</time>
      </trkpt>
      <trkpt lat="59.326671" lon="18.074744">
        <ele>5</ele>
        <time>2019-12-12T06:45:25Z</time>
      </trkpt>
      <trkpt lat="59.326696" lon="18.074727">
        <ele>5</ele>
        <time>2019-12-12T06:45:25Z</time>
      </trkpt>
      <trkpt lat="59.326724" lon="18.074706">
        <ele>5</ele>
        <time>2019-12-12T06:45:26Z</time>
      </trkpt>
      <trkpt lat="59.326752" lon="18.074677">
        <ele>6</ele>
        <time>2019-12-12T06:45:27Z</time>
      </trkpt>
      <trkpt lat="59.32678" lon="18.07465">
        <ele>6</ele>
        <time>2019-12-12T06:45:28Z</time>
      </trkpt>
      <trkpt lat="59.326807" lon="18.074626">
        <ele>6</ele>
        <time>2019-12-12T06:45:29Z</time>
      </trkpt>
      <trkpt lat="59.326833" lon="18.074604">
        <ele>6</ele>
        <time>2019-12-12T06:45:30Z</time>
      </trkpt>
      <trkpt lat="59.326859" lon="18.074582">
        <ele>5</ele>
        <time>2019-12-12T06:45:31Z</time>
      </trkpt>
      <trkpt lat="59.326882" lon="18.074561">
        <ele>5</ele>
        <time>2019-12-12T06:45:33Z</time>
      </trkpt>
      <trkpt lat="59.326906" lon="18.074536">
        <ele>5</ele>
        <time>2019-12-12T06:45:33Z</time>
      </trkpt>
      <trkpt lat="59.326928" lon="18.074509">
        <ele>5</ele>
        <time>2019-12-12T06:45:34Z</time>
      </trkpt>
      <trkpt lat="59.32695" lon="18.074478">
        <ele>5</ele>
        <time>2019-12-12T06:45:36Z</time>
      </trkpt>
      <trkpt lat="59.326972" lon="18.074445">
        <ele>5</ele>
        <time>2019-12-12T06:45:36Z</time>
      </trkpt>
      <trkpt lat="59.326995" lon="18.074414">
        <ele>5</ele>
        <time>2019-12-12T06:45:37Z</time>
      </trkpt>
      <trkpt lat="59.327018" lon="18.074386">
        <ele>5</ele>
        <time>2019-12-12T06:45:38Z</time>
      </trkpt>
      <trkpt lat="59.32704" lon="18.074355">
        <ele>5</ele>
        <time>2019-12-12T06:45:39Z</time>
      </trkpt>
      <trkpt lat="59.327065" lon="18.074324">
        <ele>6</ele>
        <time>2019-12-12T06:45:40Z</time>
      </trkpt>
      <trkpt lat="59.327088" lon="18.07429">
        <ele>6</ele>
        <time>2019-12-12T06:45:41Z</time>
      </trkpt>
      <trkpt lat="59.32711" lon="18.074257">
        <ele>5</ele>
        <time>2019-12-12T06:45:43Z</time>
      </trkpt>
      <trkpt lat="59.327132" lon="18.074229">
        <ele>5</ele>
        <time>2019-12-12T06:45:43Z</time>
      </trkpt>
      <trkpt lat="59.327156" lon="18.074198">
        <ele>6</ele>
        <time>2019-12-12T06:45:44Z</time>
      </trkpt>
      <trkpt lat="59.327179" lon="18.074166">
        <ele>6</ele>
        <time>2019-12-12T06:45:45Z</time>
      </trkpt>
      <trkpt lat="59.327202" lon="18.074138">
        <ele>6</ele>
        <time>2019-12-12T06:45:46Z</time>
      </trkpt>
      <trkpt lat="59.327225" lon="18.074112">
        <ele>6</ele>
        <time>2019-12-12T06:45:47Z</time>
      </trkpt>
      <trkpt lat="59.327247" lon="18.074084">
        <ele>6</ele>
        <time>2019-12-12T06:45:48Z</time>
      </trkpt>
      <trkpt lat="59.327269" lon="18.07406">
        <ele>6</ele>
        <time>2019-12-12T06:45:49Z</time>
      </trkpt>
      <trkpt lat="59.327291" lon="18.074036">
        <ele>6</ele>
        <time>2019-12-12T06:45:51Z</time>
      </trkpt>
      <trkpt lat="59.327313" lon="18.074008">
        <ele>6</ele>
        <time>2019-12-12T06:45:51Z</time>
      </trkpt>
      <trkpt lat="59.327337" lon="18.073982">
        <ele>6</ele>
        <time>2019-12-12T06:45:52Z</time>
      </trkpt>
      <trkpt lat="59.327359" lon="18.073958">
        <ele>6</ele>
        <time>2019-12-12T06:45:54Z</time>
      </trkpt>
      <trkpt lat="59.327383" lon="18.073934">
        <ele>6</ele>
        <time>2019-12-12T06:45:55Z</time>
      </trkpt>
      <trkpt lat="59.327406" lon="18.073908">
        <ele>5</ele>
        <time>2019-12-12T06:45:55Z</time>
      </trkpt>
      <trkpt lat="59.327431" lon="18.073882">
        <ele>5</ele>
        <time>2019-12-12T06:45:57Z</time>
      </trkpt>
      <trkpt lat="59.327455" lon="18.073854">
        <ele>6</ele>
        <time>2019-12-12T06:45:57Z</time>
      </trkpt>
      <trkpt lat="59.327479" lon="18.073825">
        <ele>6</ele>
        <time>2019-12-12T06:45:58Z</time>
      </trkpt>
      <trkpt lat="59.327503" lon="18.073796">
        <ele>6</ele>
        <time>2019-12-12T06:46:00Z</time>
      </trkpt>
      <trkpt lat="59.327528" lon="18.073764">
        <ele>6</ele>
        <time>2019-12-12T06:46:00Z</time>
      </trkpt>
      <trkpt lat="59.327552" lon="18.073734">
        <ele>6</ele>
        <time>2019-12-12T06:46:02Z</time>
      </trkpt>
      <trkpt lat="59.327576" lon="18.073709">
        <ele>6</ele>
        <time>2019-12-12T06:46:02Z</time>
      </trkpt>
      <trkpt lat="59.327599" lon="18.073682">
        <ele>6</ele>
        <time>2019-12-12T06:46:03Z</time>
      </trkpt>
      <trkpt lat="59.327622" lon="18.073652">
        <ele>6</ele>
        <time>2019-12-12T06:46:05Z</time>
      </trkpt>
      <trkpt lat="59.327645" lon="18.073622">
        <ele>6</ele>
        <time>2019-12-12T06:46:05Z</time>
      </trkpt>
      <trkpt lat="59.327667" lon="18.07359">
        <ele>6</ele>
        <time>2019-12-12T06:46:06Z</time>
      </trkpt>
      <trkpt lat="59.327691" lon="18.073562">
        <ele>6</ele>
        <time>2019-12-12T06:46:07Z</time>
      </trkpt>
      <trkpt lat="59.327715" lon="18.073535">
        <ele>6</ele>
        <time>2019-12-12T06:46:08Z</time>
      </trkpt>
      <trkpt lat="59.327739" lon="18.073509">
        <ele>6</ele>
        <time>2019-12-12T06:46:10Z</time>
      </trkpt>
      <trkpt lat="59.327763" lon="18.073483">
        <ele>6</ele>
        <time>2019-12-12T06:46:10Z</time>
      </trkpt>
      <trkpt lat="59.327786" lon="18.073456">
        <ele>6</ele>
        <time>2019-12-12T06:46:11Z</time>
      </trkpt>
      <trkpt lat="59.327809" lon="18.073429">
        <ele>6</ele>
        <time>2019-12-12T06:46:13Z</time>
      </trkpt>
      <trkpt lat="59.327833" lon="18.073403">
        <ele>6</ele>
        <time>2019-12-12T06:46:14Z</time>
      </trkpt>
      <trkpt lat="59.327858" lon="18.073378">
        <ele>6</ele>
        <time>2019-12-12T06:46:14Z</time>
      </trkpt>
      <trkpt lat="59.327882" lon="18.073355">
        <ele>6</ele>
        <time>2019-12-12T06:46:16Z</time>
      </trkpt>
      <trkpt lat="59.327907" lon="18.073327">
        <ele>6</ele>
        <time>2019-12-12T06:46:16Z</time>
      </trkpt>
      <trkpt lat="59.32793" lon="18.073298">
        <ele>6</ele>
        <time>2019-12-12T06:46:17Z</time>
      </trkpt>
      <trkpt lat="59.327955" lon="18.073273">
        <ele>6</ele>
        <time>2019-12-12T06:46:19Z</time>
      </trkpt>
      <trkpt lat="59.32798" lon="18.073251">
        <ele>6</ele>
        <time>2019-12-12T06:46:20Z</time>
      </trkpt>
      <trkpt lat="59.328006" lon="18.073229">
        <ele>6</ele>
        <time>2019-12-12T06:46:20Z</time>
      </trkpt>
      <trkpt lat="59.328032" lon="18.073209">
        <ele>6</ele>
        <time>2019-12-12T06:46:21Z</time>
      </trkpt>
      <trkpt lat="59.328057" lon="18.073193">
        <ele>6</ele>
        <time>2019-12-12T06:46:22Z</time>
      </trkpt>
      <trkpt lat="59.328083" lon="18.073179">
        <ele>6</ele>
        <time>2019-12-12T06:46:23Z</time>
      </trkpt>
      <trkpt lat="59.328109" lon="18.073164">
        <ele>6</ele>
        <time>2019-12-12T06:46:24Z</time>
      </trkpt>
      <trkpt lat="59.328137" lon="18.073147">
        <ele>6</ele>
        <time>2019-12-12T06:46:25Z</time>
      </trkpt>
      <trkpt lat="59.328164" lon="18.073134">
        <ele>6</ele>
        <time>2019-12-12T06:46:26Z</time>
      </trkpt>
      <trkpt lat="59.328194" lon="18.073128">
        <ele>6</ele>
        <time>2019-12-12T06:46:28Z</time>
      </trkpt>
      <trkpt lat="59.328222" lon="18.073127">
        <ele>6</ele>
        <time>2019-12-12T06:46:28Z</time>
      </trkpt>
      <trkpt lat="59.32825" lon="18.07313">
        <ele>6</ele>
        <time>2019-12-12T06:46:29Z</time>
      </trkpt>
      <trkpt lat="59.328277" lon="18.073134">
        <ele>5</ele>
        <time>2019-12-12T06:46:31Z</time>
      </trkpt>
      <trkpt lat="59.328304" lon="18.073137">
        <ele>5</ele>
        <time>2019-12-12T06:46:31Z</time>
      </trkpt>
      <trkpt lat="59.328331" lon="18.07314">
        <ele>5</ele>
        <time>2019-12-12T06:46:33Z</time>
      </trkpt>
      <trkpt lat="59.328358" lon="18.073149">
        <ele>5</ele>
        <time>2019-12-12T06:46:33Z</time>
      </trkpt>
      <trkpt lat="59.328386" lon="18.073159">
        <ele>5</ele>
        <time>2019-12-12T06:46:35Z</time>
      </trkpt>
      <trkpt lat="59.328415" lon="18.07317">
        <ele>5</ele>
        <time>2019-12-12T06:46:35Z</time>
      </trkpt>
      <trkpt lat="59.328443" lon="18.073179">
        <ele>5</ele>
        <time>2019-12-12T06:46:36Z</time>
      </trkpt>
      <trkpt lat="59.328471" lon="18.073189">
        <ele>5</ele>
        <time>2019-12-12T06:46:38Z</time>
      </trkpt>
      <trkpt lat="59.3285" lon="18.073199">
        <ele>5</ele>
        <time>2019-12-12T06:46:38Z</time>
      </trkpt>
      <trkpt lat="59.328529" lon="18.073204">
        <ele>5</ele>
        <time>2019-12-12T06:46:39Z</time>
      </trkpt>
      <trkpt lat="59.328557" lon="18.073213">
        <ele>5</ele>
        <time>2019-12-12T06:46:41Z</time>
      </trkpt>
      <trkpt lat="59.328584" lon="18.07322">
        <ele>5</ele>
        <time>2019-12-12T06:46:41Z</time>
      </trkpt>
      <trkpt lat="59.328612" lon="18.073224">
        <ele>5</ele>
        <time>2019-12-12T06:46:42Z</time>
      </trkpt>
      <trkpt lat="59.328639" lon="18.073231">
        <ele>5</ele>
        <time>2019-12-12T06:46:44Z</time>
      </trkpt>
      <trkpt lat="59.328666" lon="18.073239">
        <ele>5</ele>
        <time>2019-12-12T06:46:44Z</time>
      </trkpt>
      <trkpt lat="59.328694" lon="18.073251">
        <ele>5</ele>
        <time>2019-12-12T06:46:45Z</time>
      </trkpt>
      <trkpt lat="59.328722" lon="18.073257">
        <ele>5</ele>
        <time>2019-12-12T06:46:46Z</time>
      </trkpt>
      <trkpt lat="59.32875" lon="18.073264">
        <ele>5</ele>
        <time>2019-12-12T06:46:47Z</time>
      </trkpt>
      <trkpt lat="59.328778" lon="18.073273">
        <ele>5</ele>
        <time>2019-12-12T06:46:48Z</time>
      </trkpt>
      <trkpt lat="59.328805" lon="18.07328">
        <ele>5</ele>
        <time>2019-12-12T06:46:49Z</time>
      </trkpt>
      <trkpt lat="59.328833" lon="18.073282">
        <ele>5</ele>
        <time>2019-12-12T06:46:50Z</time>
      </trkpt>
      <trkpt lat="59.328862" lon="18.073286">
        <ele>5</ele>
        <time>2019-12-12T06:46:52Z</time>
      </trkpt>
      <trkpt lat="59.328889" lon="18.073292">
        <ele>5</ele>
        <time>2019-12-12T06:46:52Z</time>
      </trkpt>
      <trkpt lat="59.328917" lon="18.073301">
        <ele>5</ele>
        <time>2019-12-12T06:46:53Z</time>
      </trkpt>
      <trkpt lat="59.328945" lon="18.07331">
        <ele>5</ele>
        <time>2019-12-12T06:46:55Z</time>
      </trkpt>
      <trkpt lat="59.328972" lon="18.073314">
        <ele>5</ele>
        <time>2019-12-12T06:46:55Z</time>
      </trkpt>
      <trkpt lat="59.329" lon="18.073323">
        <ele>5</ele>
        <time>2019-12-12T06:46:56Z</time>
      </trkpt>
      <trkpt lat="59.329027" lon="18.073329">
        <ele>5</ele>
        <time>2019-12-12T06:46:58Z</time>
      </trkpt>
      <trkpt lat="59.329055" lon="18.073335">
        <ele>5</ele>
        <time>2019-12-12T06:46:58Z</time>
      </trkpt>
      <trkpt lat="59.329083" lon="18.073341">
        <ele>5</ele>
        <time>2019-12-12T06:46:59Z</time>
      </trkpt>
      <trkpt lat="59.329111" lon="18.073348">
        <ele>5</ele>
        <time>2019-12-12T06:47:01Z</time>
      </trkpt>
      <trkpt lat="59.329138" lon="18.073354">
        <ele>5</ele>
        <time>2019-12-12T06:47:01Z</time>
      </trkpt>
      <trkpt lat="59.329167" lon="18.073361">
        <ele>5</ele>
        <time>2019-12-12T06:47:02Z</time>
      </trkpt>
      <trkpt lat="59.329194" lon="18.073364">
        <ele>5</ele>
        <time>2019-12-12T06:47:03Z</time>
      </trkpt>
      <trkpt lat="59.329221" lon="18.073368">
        <ele>5</ele>
        <time>2019-12-12T06:47:04Z</time>
      </trkpt>
      <trkpt lat="59.329249" lon="18.073375">
        <ele>5</ele>
        <time>2019-12-12T06:47:05Z</time>
      </trkpt>
      <trkpt lat="59.329278" lon="18.073382">
        <ele>5</ele>
        <time>2019-12-12T06:47:06Z</time>
      </trkpt>
      <trkpt lat="59.329306" lon="18.073386">
        <ele>5</ele>
        <time>2019-12-12T06:47:07Z</time>
      </trkpt>
      <trkpt lat="59.329333" lon="18.073395">
        <ele>5</ele>
        <time>2019-12-12T06:47:09Z</time>
      </trkpt>
      <trkpt lat="59.32936" lon="18.073405">
        <ele>5</ele>
        <time>2019-12-12T06:47:09Z</time>
      </trkpt>
      <trkpt lat="59.329387" lon="18.07341">
        <ele>5</ele>
        <time>2019-12-12T06:47:11Z</time>
      </trkpt>
      <trkpt lat="59.329414" lon="18.073416">
        <ele>5</ele>
        <time>2019-12-12T06:47:11Z</time>
      </trkpt>
      <trkpt lat="59.329441" lon="18.073424">
        <ele>5</ele>
        <time>2019-12-12T06:47:13Z</time>
      </trkpt>
      <trkpt lat="59.329467" lon="18.073438">
        <ele>5</ele>
        <time>2019-12-12T06:47:14Z</time>
      </trkpt>
      <trkpt lat="59.329492" lon="18.073462">
        <ele>5</ele>
        <time>2019-12-12T06:47:14Z</time>
      </trkpt>
      <trkpt lat="59.329513" lon="18.073493">
        <ele>5</ele>
        <time>2019-12-12T06:47:15Z</time>
      </trkpt>
      <trkpt lat="59.329533" lon="18.073531">
        <ele>5</ele>
        <time>2019-12-12T06:47:17Z</time>
      </trkpt>
      <trkpt lat="59.329551" lon="18.073565">
        <ele>5</ele>
        <time>2019-12-12T06:47:17Z</time>
      </trkpt>
      <trkpt lat="59.329572" lon="18.073596">
        <ele>5</ele>
        <time>2019-12-12T06:47:18Z</time>
      </trkpt>
      <trkpt lat="59.329592" lon="18.073618">
        <ele>5</ele>
        <time>2019-12-12T06:47:19Z</time>
      </trkpt>
      <trkpt lat="59.329611" lon="18.073629">
        <ele>5</ele>
        <time>2019-12-12T06:47:20Z</time>
      </trkpt>
      <trkpt lat="59.329635" lon="18.073651">
        <ele>4</ele>
        <time>2019-12-12T06:47:22Z</time>
      </trkpt>
      <trkpt lat="59.329656" lon="18.073631">
        <ele>3</ele>
        <time>2019-12-12T06:47:40Z</time>
      </trkpt>
      <trkpt lat="59.329679" lon="18.073623">
        <ele>3</ele>
        <time>2019-12-12T06:47:41Z</time>
      </trkpt>
      <trkpt lat="59.329707" lon="18.073611">
        <ele>3</ele>
        <time>2019-12-12T06:47:43Z</time>
      </trkpt>
      <trkpt lat="59.329736" lon="18.07359">
        <ele>3</ele>
        <time>2019-12-12T06:47:43Z</time>
      </trkpt>
      <trkpt lat="59.329766" lon="18.073573">
        <ele>3</ele>
        <time>2019-12-12T06:47:44Z</time>
      </trkpt>
      <trkpt lat="59.329796" lon="18.073557">
        <ele>3</ele>
        <time>2019-12-12T06:47:46Z</time>
      </trkpt>
      <trkpt lat="59.329826" lon="18.073546">
        <ele>3</ele>
        <time>2019-12-12T06:47:46Z</time>
      </trkpt>
      <trkpt lat="59.329853" lon="18.073538">
        <ele>3</ele>
        <time>2019-12-12T06:47:47Z</time>
      </trkpt>
      <trkpt lat="59.329882" lon="18.073523">
        <ele>3</ele>
        <time>2019-12-12T06:47:49Z</time>
      </trkpt>
      <trkpt lat="59.329912" lon="18.073509">
        <ele>3</ele>
        <time>2019-12-12T06:47:50Z</time>
      </trkpt>
      <trkpt lat="59.329942" lon="18.073498">
        <ele>3</ele>
        <time>2019-12-12T06:47:50Z</time>
      </trkpt>
      <trkpt lat="59.329971" lon="18.073485">
        <ele>3</ele>
        <time>2019-12-12T06:47:51Z</time>
      </trkpt>
      <trkpt lat="59.330001" lon="18.073474">
        <ele>3</ele>
        <time>2019-12-12T06:47:52Z</time>
      </trkpt>
      <trkpt lat="59.330028" lon="18.073461">
        <ele>3</ele>
        <time>2019-12-12T06:47:53Z</time>
      </trkpt>
      <trkpt lat="59.330057" lon="18.073441">
        <ele>3</ele>
        <time>2019-12-12T06:47:54Z</time>
      </trkpt>
      <trkpt lat="59.330087" lon="18.073424">
        <ele>3</ele>
        <time>2019-12-12T06:47:55Z</time>
      </trkpt>
      <trkpt lat="59.330117" lon="18.07341">
        <ele>3</ele>
        <time>2019-12-12T06:47:56Z</time>
      </trkpt>
      <trkpt lat="59.330148" lon="18.073397">
        <ele>3</ele>
        <time>2019-12-12T06:47:58Z</time>
      </trkpt>
      <trkpt lat="59.330179" lon="18.073381">
        <ele>3</ele>
        <time>2019-12-12T06:47:58Z</time>
      </trkpt>
      <trkpt lat="59.330209" lon="18.073362">
        <ele>3</ele>
        <time>2019-12-12T06:47:59Z</time>
      </trkpt>
      <trkpt lat="59.33024" lon="18.073345">
        <ele>3</ele>
        <time>2019-12-12T06:48:01Z</time>
      </trkpt>
      <trkpt lat="59.33027" lon="18.073328">
        <ele>3</ele>
        <time>2019-12-12T06:48:01Z</time>
      </trkpt>
      <trkpt lat="59.3303" lon="18.073309">
        <ele>3</ele>
        <time>2019-12-12T06:48:02Z</time>
      </trkpt>
      <trkpt lat="59.330328" lon="18.073292">
        <ele>3</ele>
        <time>2019-12-12T06:48:04Z</time>
      </trkpt>
      <trkpt lat="59.330356" lon="18.073272">
        <ele>3</ele>
        <time>2019-12-12T06:48:04Z</time>
      </trkpt>
      <trkpt lat="59.330383" lon="18.07325">
        <ele>3</ele>
        <time>2019-12-12T06:48:06Z</time>
      </trkpt>
      <trkpt lat="59.33041" lon="18.073226">
        <ele>3</ele>
        <time>2019-12-12T06:48:06Z</time>
      </trkpt>
      <trkpt lat="59.330437" lon="18.073206">
        <ele>3</ele>
        <time>2019-12-12T06:48:08Z</time>
      </trkpt>
      <trkpt lat="59.330464" lon="18.073189">
        <ele>3</ele>
        <time>2019-12-12T06:48:08Z</time>
      </trkpt>
      <trkpt lat="59.330492" lon="18.07317">
        <ele>3</ele>
        <time>2019-12-12T06:48:10Z</time>
      </trkpt>
      <trkpt lat="59.330518" lon="18.073155">
        <ele>3</ele>
        <time>2019-12-12T06:48:10Z</time>
      </trkpt>
      <trkpt lat="59.330546" lon="18.073166">
        <ele>3</ele>
        <time>2019-12-12T06:48:11Z</time>
      </trkpt>
      <trkpt lat="59.330567" lon="18.073179">
        <ele>3</ele>
        <time>2019-12-12T06:48:13Z</time>
      </trkpt>
      <trkpt lat="59.330586" lon="18.073203">
        <ele>4</ele>
        <time>2019-12-12T06:48:13Z</time>
      </trkpt>
      <trkpt lat="59.330604" lon="18.073236">
        <ele>4</ele>
        <time>2019-12-12T06:48:14Z</time>
      </trkpt>
      <trkpt lat="59.330618" lon="18.073272">
        <ele>4</ele>
        <time>2019-12-12T06:48:15Z</time>
      </trkpt>
      <trkpt lat="59.330634" lon="18.073309">
        <ele>4</ele>
        <time>2019-12-12T06:48:16Z</time>
      </trkpt>
      <trkpt lat="59.330649" lon="18.073348">
        <ele>5</ele>
        <time>2019-12-12T06:48:18Z</time>
      </trkpt>
      <trkpt lat="59.330666" lon="18.07339">
        <ele>5</ele>
        <time>2019-12-12T06:48:18Z</time>
      </trkpt>
      <trkpt lat="59.33068" lon="18.073432">
        <ele>5</ele>
        <time>2019-12-12T06:48:19Z</time>
      </trkpt>
      <trkpt lat="59.330696" lon="18.07347">
        <ele>5</ele>
        <time>2019-12-12T06:48:21Z</time>
      </trkpt>
      <trkpt lat="59.330713" lon="18.073506">
        <ele>5</ele>
        <time>2019-12-12T06:48:21Z</time>
      </trkpt>
      <trkpt lat="59.330728" lon="18.073539">
        <ele>5</ele>
        <time>2019-12-12T06:48:22Z</time>
      </trkpt>
      <trkpt lat="59.330736" lon="18.073577">
        <ele>5</ele>
        <time>2019-12-12T06:48:24Z</time>
      </trkpt>
      <trkpt lat="59.330744" lon="18.073612">
        <ele>5</ele>
        <time>2019-12-12T06:48:24Z</time>
      </trkpt>
      <trkpt lat="59.330777" lon="18.073803">
        <ele>6</ele>
        <time>2019-12-12T06:48:29Z</time>
      </trkpt>
      <trkpt lat="59.330856" lon="18.073939">
        <ele>6</ele>
        <time>2019-12-12T06:48:33Z</time>
      </trkpt>
      <trkpt lat="59.330946" lon="18.074122">
        <ele>7</ele>
        <time>2019-12-12T06:48:37Z</time>
      </trkpt>
      <trkpt lat="59.331027" lon="18.074262">
        <ele>7</ele>
        <time>2019-12-12T06:48:40Z</time>
      </trkpt>
      <trkpt lat="59.331048" lon="18.074293">
        <ele>8</ele>
        <time>2019-12-12T06:48:42Z</time>
      </trkpt>
      <trkpt lat="59.331072" lon="18.074322">
        <ele>8</ele>
        <time>2019-12-12T06:48:42Z</time>
      </trkpt>
      <trkpt lat="59.3311" lon="18.074349">
        <ele>8</ele>
        <time>2019-12-12T06:48:44Z</time>
      </trkpt>
      <trkpt lat="59.331134" lon="18.074379">
        <ele>8</ele>
        <time>2019-12-12T06:48:44Z</time>
      </trkpt>
      <trkpt lat="59.331157" lon="18.074405">
        <ele>8</ele>
        <time>2019-12-12T06:48:46Z</time>
      </trkpt>
      <trkpt lat="59.331182" lon="18.074429">
        <ele>8</ele>
        <time>2019-12-12T06:48:46Z</time>
      </trkpt>
      <trkpt lat="59.331208" lon="18.074455">
        <ele>9</ele>
        <time>2019-12-12T06:48:48Z</time>
      </trkpt>
      <trkpt lat="59.331232" lon="18.074489">
        <ele>9</ele>
        <time>2019-12-12T06:48:48Z</time>
      </trkpt>
      <trkpt lat="59.331254" lon="18.074521">
        <ele>9</ele>
        <time>2019-12-12T06:48:49Z</time>
      </trkpt>
      <trkpt lat="59.331281" lon="18.074545">
        <ele>9</ele>
        <time>2019-12-12T06:48:51Z</time>
      </trkpt>
      <trkpt lat="59.331313" lon="18.074562">
        <ele>9</ele>
        <time>2019-12-12T06:48:51Z</time>
      </trkpt>
      <trkpt lat="59.331333" lon="18.074581">
        <ele>9</ele>
        <time>2019-12-12T06:48:52Z</time>
      </trkpt>
      <trkpt lat="59.331354" lon="18.074592">
        <ele>9</ele>
        <time>2019-12-12T06:48:53Z</time>
      </trkpt>
      <trkpt lat="59.331402" lon="18.074628">
        <ele>9</ele>
        <time>2019-12-12T06:48:56Z</time>
      </trkpt>
      <trkpt lat="59.331429" lon="18.074636">
        <ele>9</ele>
        <time>2019-12-12T06:48:56Z</time>
      </trkpt>
      <trkpt lat="59.331517" lon="18.074681">
        <ele>8</ele>
        <time>2019-12-12T06:49:00Z</time>
      </trkpt>
      <trkpt lat="59.331627" lon="18.074724">
        <ele>8</ele>
        <time>2019-12-12T06:49:05Z</time>
      </trkpt>
      <trkpt lat="59.331738" lon="18.074856">
        <ele>6</ele>
        <time>2019-12-12T06:49:10Z</time>
      </trkpt>
      <trkpt lat="59.331818" lon="18.075008">
        <ele>6</ele>
        <time>2019-12-12T06:49:13Z</time>
      </trkpt>
      <trkpt lat="59.331846" lon="18.075058">
        <ele>6</ele>
        <time>2019-12-12T06:49:13Z</time>
      </trkpt>
      <trkpt lat="59.33187" lon="18.075101">
        <ele>6</ele>
        <time>2019-12-12T06:49:14Z</time>
      </trkpt>
      <trkpt lat="59.33189" lon="18.075152">
        <ele>6</ele>
        <time>2019-12-12T06:49:16Z</time>
      </trkpt>
      <trkpt lat="59.331908" lon="18.075202">
        <ele>6</ele>
        <time>2019-12-12T06:49:16Z</time>
      </trkpt>
      <trkpt lat="59.331927" lon="18.075255">
        <ele>6</ele>
        <time>2019-12-12T06:49:17Z</time>
      </trkpt>
      <trkpt lat="59.33194" lon="18.075311">
        <ele>5</ele>
        <time>2019-12-12T06:49:19Z</time>
      </trkpt>
      <trkpt lat="59.331947" lon="18.075363">
        <ele>5</ele>
        <time>2019-12-12T06:49:19Z</time>
      </trkpt>
      <trkpt lat="59.331957" lon="18.075418">
        <ele>5</ele>
        <time>2019-12-12T06:49:21Z</time>
      </trkpt>
      <trkpt lat="59.331968" lon="18.075474">
        <ele>5</ele>
        <time>2019-12-12T06:49:21Z</time>
      </trkpt>
      <trkpt lat="59.331976" lon="18.07553">
        <ele>5</ele>
        <time>2019-12-12T06:49:23Z</time>
      </trkpt>
      <trkpt lat="59.331983" lon="18.075583">
        <ele>5</ele>
        <time>2019-12-12T06:49:24Z</time>
      </trkpt>
      <trkpt lat="59.331997" lon="18.075637">
        <ele>5</ele>
        <time>2019-12-12T06:49:24Z</time>
      </trkpt>
      <trkpt lat="59.332014" lon="18.075686">
        <ele>5</ele>
        <time>2019-12-12T06:49:26Z</time>
      </trkpt>
      <trkpt lat="59.33203" lon="18.07573">
        <ele>5</ele>
        <time>2019-12-12T06:49:26Z</time>
      </trkpt>
      <trkpt lat="59.332047" lon="18.075769">
        <ele>5</ele>
        <time>2019-12-12T06:49:27Z</time>
      </trkpt>
      <trkpt lat="59.332069" lon="18.075811">
        <ele>5</ele>
        <time>2019-12-12T06:49:29Z</time>
      </trkpt>
      <trkpt lat="59.33209" lon="18.075852">
        <ele>5</ele>
        <time>2019-12-12T06:49:29Z</time>
      </trkpt>
      <trkpt lat="59.332113" lon="18.075891">
        <ele>4</ele>
        <time>2019-12-12T06:49:30Z</time>
      </trkpt>
      <trkpt lat="59.332131" lon="18.075928">
        <ele>5</ele>
        <time>2019-12-12T06:49:32Z</time>
      </trkpt>
      <trkpt lat="59.332145" lon="18.075962">
        <ele>5</ele>
        <time>2019-12-12T06:49:32Z</time>
      </trkpt>
      <trkpt lat="59.332163" lon="18.075995">
        <ele>5</ele>
        <time>2019-12-12T06:49:33Z</time>
      </trkpt>
      <trkpt lat="59.332179" lon="18.076033">
        <ele>5</ele>
        <time>2019-12-12T06:49:34Z</time>
      </trkpt>
      <trkpt lat="59.332195" lon="18.076072">
        <ele>5</ele>
        <time>2019-12-12T06:49:35Z</time>
      </trkpt>
      <trkpt lat="59.332214" lon="18.076105">
        <ele>5</ele>
        <time>2019-12-12T06:49:37Z</time>
      </trkpt>
      <trkpt lat="59.332234" lon="18.076141">
        <ele>5</ele>
        <time>2019-12-12T06:49:38Z</time>
      </trkpt>
      <trkpt lat="59.33225" lon="18.076176">
        <ele>5</ele>
        <time>2019-12-12T06:49:38Z</time>
      </trkpt>
      <trkpt lat="59.332267" lon="18.076213">
        <ele>5</ele>
        <time>2019-12-12T06:49:39Z</time>
      </trkpt>
      <trkpt lat="59.332287" lon="18.076253">
        <ele>5</ele>
        <time>2019-12-12T06:49:40Z</time>
      </trkpt>
      <trkpt lat="59.332307" lon="18.076298">
        <ele>6</ele>
        <time>2019-12-12T06:49:41Z</time>
      </trkpt>
      <trkpt lat="59.332324" lon="18.076347">
        <ele>6</ele>
        <time>2019-12-12T06:49:43Z</time>
      </trkpt>
      <trkpt lat="59.332335" lon="18.076393">
        <ele>6</ele>
        <time>2019-12-12T06:49:43Z</time>
      </trkpt>
      <trkpt lat="59.332347" lon="18.076441">
        <ele>6</ele>
        <time>2019-12-12T06:49:45Z</time>
      </trkpt>
      <trkpt lat="59.332362" lon="18.076487">
        <ele>6</ele>
        <time>2019-12-12T06:49:45Z</time>
      </trkpt>
      <trkpt lat="59.332374" lon="18.076533">
        <ele>7</ele>
        <time>2019-12-12T06:49:46Z</time>
      </trkpt>
      <trkpt lat="59.332387" lon="18.076577">
        <ele>7</ele>
        <time>2019-12-12T06:49:48Z</time>
      </trkpt>
      <trkpt lat="59.332399" lon="18.076623">
        <ele>7</ele>
        <time>2019-12-12T06:49:48Z</time>
      </trkpt>
      <trkpt lat="59.332413" lon="18.076668">
        <ele>7</ele>
        <time>2019-12-12T06:49:49Z</time>
      </trkpt>
      <trkpt lat="59.332426" lon="18.07671">
        <ele>7</ele>
        <time>2019-12-12T06:49:50Z</time>
      </trkpt>
      <trkpt lat="59.332442" lon="18.07675">
        <ele>8</ele>
        <time>2019-12-12T06:49:51Z</time>
      </trkpt>
      <trkpt lat="59.332461" lon="18.0768">
        <ele>8</ele>
        <time>2019-12-12T06:49:52Z</time>
      </trkpt>
      <trkpt lat="59.332479" lon="18.076844">
        <ele>8</ele>
        <time>2019-12-12T06:49:53Z</time>
      </trkpt>
      <trkpt lat="59.332491" lon="18.076885">
        <ele>8</ele>
        <time>2019-12-12T06:49:55Z</time>
      </trkpt>
      <trkpt lat="59.332499" lon="18.076932">
        <ele>8</ele>
        <time>2019-12-12T06:49:55Z</time>
      </trkpt>
      <trkpt lat="59.33251" lon="18.076971">
        <ele>8</ele>
        <time>2019-12-12T06:49:56Z</time>
      </trkpt>
      <trkpt lat="59.332533" lon="18.077018">
        <ele>9</ele>
        <time>2019-12-12T06:49:58Z</time>
      </trkpt>
      <trkpt lat="59.332551" lon="18.07705">
        <ele>9</ele>
        <time>2019-12-12T06:50:00Z</time>
      </trkpt>
      <trkpt lat="59.332572" lon="18.077063">
        <ele>9</ele>
        <time>2019-12-12T06:50:02Z</time>
      </trkpt>
      <trkpt lat="59.332594" lon="18.077072">
        <ele>9</ele>
        <time>2019-12-12T06:50:04Z</time>
      </trkpt>
      <trkpt lat="59.332627" lon="18.077087">
        <ele>9</ele>
        <time>2019-12-12T06:50:07Z</time>
      </trkpt>
      <trkpt lat="59.33265" lon="18.077109">
        <ele>9</ele>
        <time>2019-12-12T06:50:07Z</time>
      </trkpt>
      <trkpt lat="59.332677" lon="18.077129">
        <ele>8</ele>
        <time>2019-12-12T06:50:08Z</time>
      </trkpt>
      <trkpt lat="59.332706" lon="18.077145">
        <ele>8</ele>
        <time>2019-12-12T06:50:10Z</time>
      </trkpt>
      <trkpt lat="59.332733" lon="18.077158">
        <ele>8</ele>
        <time>2019-12-12T06:50:10Z</time>
      </trkpt>
      <trkpt lat="59.332761" lon="18.077165">
        <ele>8</ele>
        <time>2019-12-12T06:50:11Z</time>
      </trkpt>
      <trkpt lat="59.33279" lon="18.077181">
        <ele>8</ele>
        <time>2019-12-12T06:50:12Z</time>
      </trkpt>
      <trkpt lat="59.332812" lon="18.077199">
        <ele>8</ele>
        <time>2019-12-12T06:50:13Z</time>
      </trkpt>
      <trkpt lat="59.332834" lon="18.077218">
        <ele>8</ele>
        <time>2019-12-12T06:50:15Z</time>
      </trkpt>
      <trkpt lat="59.33286" lon="18.077237">
        <ele>8</ele>
        <time>2019-12-12T06:50:15Z</time>
      </trkpt>
      <trkpt lat="59.332887" lon="18.07726">
        <ele>8</ele>
        <time>2019-12-12T06:50:16Z</time>
      </trkpt>
      <trkpt lat="59.332914" lon="18.077286">
        <ele>9</ele>
        <time>2019-12-12T06:50:18Z</time>
      </trkpt>
      <trkpt lat="59.332942" lon="18.077318">
        <ele>9</ele>
        <time>2019-12-12T06:50:18Z</time>
      </trkpt>
      <trkpt lat="59.332968" lon="18.077352">
        <ele>9</ele>
        <time>2019-12-12T06:50:19Z</time>
      </trkpt>
      <trkpt lat="59.332991" lon="18.077385">
        <ele>9</ele>
        <time>2019-12-12T06:50:21Z</time>
      </trkpt>
      <trkpt lat="59.333014" lon="18.077414">
        <ele>9</ele>
        <time>2019-12-12T06:50:21Z</time>
      </trkpt>
      <trkpt lat="59.333034" lon="18.077444">
        <ele>9</ele>
        <time>2019-12-12T06:50:22Z</time>
      </trkpt>
      <trkpt lat="59.333058" lon="18.07747">
        <ele>9</ele>
        <time>2019-12-12T06:50:24Z</time>
      </trkpt>
      <trkpt lat="59.333078" lon="18.077497">
        <ele>9</ele>
        <time>2019-12-12T06:50:24Z</time>
      </trkpt>
      <trkpt lat="59.333102" lon="18.077521">
        <ele>9</ele>
        <time>2019-12-12T06:50:25Z</time>
      </trkpt>
      <trkpt lat="59.333126" lon="18.077548">
        <ele>10</ele>
        <time>2019-12-12T06:50:26Z</time>
      </trkpt>
      <trkpt lat="59.333148" lon="18.077566">
        <ele>10</ele>
        <time>2019-12-12T06:50:27Z</time>
      </trkpt>
      <trkpt lat="59.333168" lon="18.077587">
        <ele>10</ele>
        <time>2019-12-12T06:50:29Z</time>
      </trkpt>
      <trkpt lat="59.33319" lon="18.077607">
        <ele>10</ele>
        <time>2019-12-12T06:50:29Z</time>
      </trkpt>
      <trkpt lat="59.333217" lon="18.077625">
        <ele>11</ele>
        <time>2019-12-12T06:50:30Z</time>
      </trkpt>
      <trkpt lat="59.333234" lon="18.077646">
        <ele>11</ele>
        <time>2019-12-12T06:50:32Z</time>
      </trkpt>
      <trkpt lat="59.333252" lon="18.077666">
        <ele>11</ele>
        <time>2019-12-12T06:50:32Z</time>
      </trkpt>
      <trkpt lat="59.333275" lon="18.077686">
        <ele>11</ele>
        <time>2019-12-12T06:50:33Z</time>
      </trkpt>
      <trkpt lat="59.333296" lon="18.077699">
        <ele>12</ele>
        <time>2019-12-12T06:50:35Z</time>
      </trkpt>
      <trkpt lat="59.333316" lon="18.077714">
        <ele>12</ele>
        <time>2019-12-12T06:50:35Z</time>
      </trkpt>
      <trkpt lat="59.333356" lon="18.077736">
        <ele>12</ele>
        <time>2019-12-12T06:50:38Z</time>
      </trkpt>
      <trkpt lat="59.333384" lon="18.077742">
        <ele>12</ele>
        <time>2019-12-12T06:50:38Z</time>
      </trkpt>
      <trkpt lat="59.333406" lon="18.077754">
        <ele>12</ele>
        <time>2019-12-12T06:50:40Z</time>
      </trkpt>
      <trkpt lat="59.333426" lon="18.077778">
        <ele>12</ele>
        <time>2019-12-12T06:50:40Z</time>
      </trkpt>
      <trkpt lat="59.333447" lon="18.077832">
        <ele>13</ele>
        <time>2019-12-12T06:50:42Z</time>
      </trkpt>
      <trkpt lat="59.333465" lon="18.077858">
        <ele>13</ele>
        <time>2019-12-12T06:50:43Z</time>
      </trkpt>
      <trkpt lat="59.333492" lon="18.077882">
        <ele>13</ele>
        <time>2019-12-12T06:50:45Z</time>
      </trkpt>
      <trkpt lat="59.333523" lon="18.077901">
        <ele>14</ele>
        <time>2019-12-12T06:50:45Z</time>
      </trkpt>
      <trkpt lat="59.333561" lon="18.077914">
        <ele>14</ele>
        <time>2019-12-12T06:50:46Z</time>
      </trkpt>
      <trkpt lat="59.333596" lon="18.077932">
        <ele>15</ele>
        <time>2019-12-12T06:50:47Z</time>
      </trkpt>
      <trkpt lat="59.333631" lon="18.077958">
        <ele>15</ele>
        <time>2019-12-12T06:50:48Z</time>
      </trkpt>
      <trkpt lat="59.333659" lon="18.077981">
        <ele>16</ele>
        <time>2019-12-12T06:50:49Z</time>
      </trkpt>
      <trkpt lat="59.333692" lon="18.078006">
        <ele>16</ele>
        <time>2019-12-12T06:50:50Z</time>
      </trkpt>
      <trkpt lat="59.333753" lon="18.078056">
        <ele>17</ele>
        <time>2019-12-12T06:50:53Z</time>
      </trkpt>
      <trkpt lat="59.333776" lon="18.078084">
        <ele>17</ele>
        <time>2019-12-12T06:50:53Z</time>
      </trkpt>
      <trkpt lat="59.333798" lon="18.078111">
        <ele>17</ele>
        <time>2019-12-12T06:50:54Z</time>
      </trkpt>
      <trkpt lat="59.333826" lon="18.078136">
        <ele>17</ele>
        <time>2019-12-12T06:50:56Z</time>
      </trkpt>
      <trkpt lat="59.333852" lon="18.078157">
        <ele>17</ele>
        <time>2019-12-12T06:50:56Z</time>
      </trkpt>
      <trkpt lat="59.333877" lon="18.078181">
        <ele>17</ele>
        <time>2019-12-12T06:50:57Z</time>
      </trkpt>
      <trkpt lat="59.333904" lon="18.078207">
        <ele>18</ele>
        <time>2019-12-12T06:50:59Z</time>
      </trkpt>
      <trkpt lat="59.333931" lon="18.078233">
        <ele>18</ele>
        <time>2019-12-12T06:50:59Z</time>
      </trkpt>
      <trkpt lat="59.333964" lon="18.078252">
        <ele>18</ele>
        <time>2019-12-12T06:51:01Z</time>
      </trkpt>
      <trkpt lat="59.333993" lon="18.07827">
        <ele>18</ele>
        <time>2019-12-12T06:51:01Z</time>
      </trkpt>
      <trkpt lat="59.334028" lon="18.078292">
        <ele>18</ele>
        <time>2019-12-12T06:51:02Z</time>
      </trkpt>
      <trkpt lat="59.334061" lon="18.078317">
        <ele>18</ele>
        <time>2019-12-12T06:51:04Z</time>
      </trkpt>
      <trkpt lat="59.334092" lon="18.078332">
        <ele>18</ele>
        <time>2019-12-12T06:51:04Z</time>
      </trkpt>
      <trkpt lat="59.334124" lon="18.078345">
        <ele>18</ele>
        <time>2019-12-12T06:51:05Z</time>
      </trkpt>
      <trkpt lat="59.334143" lon="18.078362">
        <ele>18</ele>
        <time>2019-12-12T06:51:06Z</time>
      </trkpt>
      <trkpt lat="59.334155" lon="18.078389">
        <ele>18</ele>
        <time>2019-12-12T06:51:07Z</time>
      </trkpt>
      <trkpt lat="59.334172" lon="18.078413">
        <ele>18</ele>
        <time>2019-12-12T06:51:08Z</time>
      </trkpt>
      <trkpt lat="59.334199" lon="18.078438">
        <ele>18</ele>
        <time>2019-12-12T06:51:09Z</time>
      </trkpt>
      <trkpt lat="59.334232" lon="18.078458">
        <ele>18</ele>
        <time>2019-12-12T06:51:10Z</time>
      </trkpt>
      <trkpt lat="59.33426" lon="18.078477">
        <ele>19</ele>
        <time>2019-12-12T06:51:12Z</time>
      </trkpt>
      <trkpt lat="59.334292" lon="18.078489">
        <ele>18</ele>
        <time>2019-12-12T06:51:13Z</time>
      </trkpt>
      <trkpt lat="59.334319" lon="18.078508">
        <ele>18</ele>
        <time>2019-12-12T06:51:13Z</time>
      </trkpt>
      <trkpt lat="59.334347" lon="18.078526">
        <ele>19</ele>
        <time>2019-12-12T06:51:14Z</time>
      </trkpt>
      <trkpt lat="59.334377" lon="18.078544">
        <ele>19</ele>
        <time>2019-12-12T06:51:15Z</time>
      </trkpt>
      <trkpt lat="59.334412" lon="18.078561">
        <ele>19</ele>
        <time>2019-12-12T06:51:16Z</time>
      </trkpt>
      <trkpt lat="59.334444" lon="18.078574">
        <ele>19</ele>
        <time>2019-12-12T06:51:18Z</time>
      </trkpt>
      <trkpt lat="59.33448" lon="18.078588">
        <ele>19</ele>
        <time>2019-12-12T06:51:18Z</time>
      </trkpt>
      <trkpt lat="59.334514" lon="18.078603">
        <ele>19</ele>
        <time>2019-12-12T06:51:20Z</time>
      </trkpt>
      <trkpt lat="59.334547" lon="18.078622">
        <ele>19</ele>
        <time>2019-12-12T06:51:20Z</time>
      </trkpt>
      <trkpt lat="59.334578" lon="18.078636">
        <ele>19</ele>
        <time>2019-12-12T06:51:21Z</time>
      </trkpt>
      <trkpt lat="59.334608" lon="18.07865">
        <ele>20</ele>
        <time>2019-12-12T06:51:23Z</time>
      </trkpt>
      <trkpt lat="59.334637" lon="18.078662">
        <ele>20</ele>
        <time>2019-12-12T06:51:23Z</time>
      </trkpt>
      <trkpt lat="59.334673" lon="18.078677">
        <ele>20</ele>
        <time>2019-12-12T06:51:24Z</time>
      </trkpt>
      <trkpt lat="59.334698" lon="18.078694">
        <ele>20</ele>
        <time>2019-12-12T06:51:25Z</time>
      </trkpt>
      <trkpt lat="59.334713" lon="18.078716">
        <ele>20</ele>
        <time>2019-12-12T06:51:26Z</time>
      </trkpt>
      <trkpt lat="59.334732" lon="18.078737">
        <ele>20</ele>
        <time>2019-12-12T06:51:27Z</time>
      </trkpt>
      <trkpt lat="59.334767" lon="18.078788">
        <ele>20</ele>
        <time>2019-12-12T06:51:29Z</time>
      </trkpt>
      <trkpt lat="59.334833" lon="18.078866">
        <ele>20</ele>
        <time>2019-12-12T06:51:32Z</time>
      </trkpt>
      <trkpt lat="59.334858" lon="18.078899">
        <ele>20</ele>
        <time>2019-12-12T06:51:33Z</time>
      </trkpt>
      <trkpt lat="59.334881" lon="18.078936">
        <ele>21</ele>
        <time>2019-12-12T06:51:34Z</time>
      </trkpt>
      <trkpt lat="59.334956" lon="18.079001">
        <ele>20</ele>
        <time>2019-12-12T06:51:37Z</time>
      </trkpt>
      <trkpt lat="59.334983" lon="18.079023">
        <ele>20</ele>
        <time>2019-12-12T06:51:37Z</time>
      </trkpt>
      <trkpt lat="59.335004" lon="18.079044">
        <ele>20</ele>
        <time>2019-12-12T06:51:38Z</time>
      </trkpt>
      <trkpt lat="59.335028" lon="18.079065">
        <ele>20</ele>
        <time>2019-12-12T06:51:40Z</time>
      </trkpt>
      <trkpt lat="59.335056" lon="18.079086">
        <ele>20</ele>
        <time>2019-12-12T06:51:40Z</time>
      </trkpt>
      <trkpt lat="59.335083" lon="18.079107">
        <ele>20</ele>
        <time>2019-12-12T06:51:41Z</time>
      </trkpt>
      <trkpt lat="59.335109" lon="18.079131">
        <ele>21</ele>
        <time>2019-12-12T06:51:42Z</time>
      </trkpt>
      <trkpt lat="59.335135" lon="18.079149">
        <ele>21</ele>
        <time>2019-12-12T06:51:43Z</time>
      </trkpt>
      <trkpt lat="59.335162" lon="18.079172">
        <ele>20</ele>
        <time>2019-12-12T06:51:45Z</time>
      </trkpt>
      <trkpt lat="59.335184" lon="18.079201">
        <ele>20</ele>
        <time>2019-12-12T06:51:46Z</time>
      </trkpt>
      <trkpt lat="59.335217" lon="18.079227">
        <ele>20</ele>
        <time>2019-12-12T06:51:46Z</time>
      </trkpt>
      <trkpt lat="59.335248" lon="18.079251">
        <ele>20</ele>
        <time>2019-12-12T06:51:47Z</time>
      </trkpt>
      <trkpt lat="59.335275" lon="18.079279">
        <ele>21</ele>
        <time>2019-12-12T06:51:48Z</time>
      </trkpt>
      <trkpt lat="59.335292" lon="18.079305">
        <ele>21</ele>
        <time>2019-12-12T06:51:49Z</time>
      </trkpt>
      <trkpt lat="59.335313" lon="18.079332">
        <ele>21</ele>
        <time>2019-12-12T06:51:50Z</time>
      </trkpt>
      <trkpt lat="59.335332" lon="18.079359">
        <ele>21</ele>
        <time>2019-12-12T06:51:51Z</time>
      </trkpt>
      <trkpt lat="59.33535" lon="18.079382">
        <ele>21</ele>
        <time>2019-12-12T06:51:52Z</time>
      </trkpt>
      <trkpt lat="59.335373" lon="18.079399">
        <ele>21</ele>
        <time>2019-12-12T06:51:54Z</time>
      </trkpt>
      <trkpt lat="59.335392" lon="18.079415">
        <ele>21</ele>
        <time>2019-12-12T06:51:54Z</time>
      </trkpt>
      <trkpt lat="59.335411" lon="18.079438">
        <ele>21</ele>
        <time>2019-12-12T06:51:56Z</time>
      </trkpt>
      <trkpt lat="59.335434" lon="18.079459">
        <ele>21</ele>
        <time>2019-12-12T06:51:56Z</time>
      </trkpt>
      <trkpt lat="59.335468" lon="18.07947">
        <ele>21</ele>
        <time>2019-12-12T06:51:58Z</time>
      </trkpt>
      <trkpt lat="59.335497" lon="18.07949">
        <ele>21</ele>
        <time>2019-12-12T06:51:58Z</time>
      </trkpt>
      <trkpt lat="59.335518" lon="18.079515">
        <ele>21</ele>
        <time>2019-12-12T06:51:59Z</time>
      </trkpt>
      <trkpt lat="59.335545" lon="18.079537">
        <ele>21</ele>
        <time>2019-12-12T06:52:01Z</time>
      </trkpt>
      <trkpt lat="59.335572" lon="18.079553">
        <ele>21</ele>
        <time>2019-12-12T06:52:01Z</time>
      </trkpt>
      <trkpt lat="59.335599" lon="18.079567">
        <ele>22</ele>
        <time>2019-12-12T06:52:02Z</time>
      </trkpt>
      <trkpt lat="59.335623" lon="18.079591">
        <ele>22</ele>
        <time>2019-12-12T06:52:03Z</time>
      </trkpt>
      <trkpt lat="59.335643" lon="18.079617">
        <ele>22</ele>
        <time>2019-12-12T06:52:05Z</time>
      </trkpt>
      <trkpt lat="59.335667" lon="18.079634">
        <ele>22</ele>
        <time>2019-12-12T06:52:05Z</time>
      </trkpt>
      <trkpt lat="59.335693" lon="18.07965">
        <ele>22</ele>
        <time>2019-12-12T06:52:06Z</time>
      </trkpt>
      <trkpt lat="59.335719" lon="18.079667">
        <ele>22</ele>
        <time>2019-12-12T06:52:08Z</time>
      </trkpt>
      <trkpt lat="59.335744" lon="18.079689">
        <ele>23</ele>
        <time>2019-12-12T06:52:08Z</time>
      </trkpt>
      <trkpt lat="59.335771" lon="18.079714">
        <ele>23</ele>
        <time>2019-12-12T06:52:09Z</time>
      </trkpt>
      <trkpt lat="59.335795" lon="18.079732">
        <ele>23</ele>
        <time>2019-12-12T06:52:10Z</time>
      </trkpt>
      <trkpt lat="59.335819" lon="18.079749">
        <ele>23</ele>
        <time>2019-12-12T06:52:11Z</time>
      </trkpt>
      <trkpt lat="59.335844" lon="18.079765">
        <ele>23</ele>
        <time>2019-12-12T06:52:13Z</time>
      </trkpt>
      <trkpt lat="59.335867" lon="18.079773">
        <ele>23</ele>
        <time>2019-12-12T06:52:13Z</time>
      </trkpt>
      <trkpt lat="59.335889" lon="18.079787">
        <ele>23</ele>
        <time>2019-12-12T06:52:15Z</time>
      </trkpt>
      <trkpt lat="59.335913" lon="18.079802">
        <ele>23</ele>
        <time>2019-12-12T06:52:15Z</time>
      </trkpt>
      <trkpt lat="59.335935" lon="18.079819">
        <ele>23</ele>
        <time>2019-12-12T06:52:17Z</time>
      </trkpt>
      <trkpt lat="59.335962" lon="18.079833">
        <ele>24</ele>
        <time>2019-12-12T06:52:17Z</time>
      </trkpt>
      <trkpt lat="59.335994" lon="18.079837">
        <ele>24</ele>
        <time>2019-12-12T06:52:18Z</time>
      </trkpt>
      <trkpt lat="59.336027" lon="18.079844">
        <ele>25</ele>
        <time>2019-12-12T06:52:20Z</time>
      </trkpt>
      <trkpt lat="59.336062" lon="18.07985">
        <ele>25</ele>
        <time>2019-12-12T06:52:20Z</time>
      </trkpt>
      <trkpt lat="59.33609" lon="18.079863">
        <ele>25</ele>
        <time>2019-12-12T06:52:21Z</time>
      </trkpt>
      <trkpt lat="59.336117" lon="18.079881">
        <ele>26</ele>
        <time>2019-12-12T06:52:23Z</time>
      </trkpt>
      <trkpt lat="59.336136" lon="18.079899">
        <ele>26</ele>
        <time>2019-12-12T06:52:23Z</time>
      </trkpt>
      <trkpt lat="59.336157" lon="18.079923">
        <ele>26</ele>
        <time>2019-12-12T06:52:24Z</time>
      </trkpt>
      <trkpt lat="59.336179" lon="18.079946">
        <ele>26</ele>
        <time>2019-12-12T06:52:26Z</time>
      </trkpt>
      <trkpt lat="59.336204" lon="18.079969">
        <ele>26</ele>
        <time>2019-12-12T06:52:26Z</time>
      </trkpt>
      <trkpt lat="59.33623" lon="18.079988">
        <ele>26</ele>
        <time>2019-12-12T06:52:27Z</time>
      </trkpt>
      <trkpt lat="59.336257" lon="18.080011">
        <ele>27</ele>
        <time>2019-12-12T06:52:28Z</time>
      </trkpt>
      <trkpt lat="59.336286" lon="18.080034">
        <ele>27</ele>
        <time>2019-12-12T06:52:29Z</time>
      </trkpt>
      <trkpt lat="59.336311" lon="18.080057">
        <ele>27</ele>
        <time>2019-12-12T06:52:31Z</time>
      </trkpt>
      <trkpt lat="59.336334" lon="18.080079">
        <ele>27</ele>
        <time>2019-12-12T06:52:31Z</time>
      </trkpt>
      <trkpt lat="59.336364" lon="18.080101">
        <ele>28</ele>
        <time>2019-12-12T06:52:32Z</time>
      </trkpt>
      <trkpt lat="59.336394" lon="18.080132">
        <ele>28</ele>
        <time>2019-12-12T06:52:34Z</time>
      </trkpt>
      <trkpt lat="59.336415" lon="18.08016">
        <ele>28</ele>
        <time>2019-12-12T06:52:34Z</time>
      </trkpt>
      <trkpt lat="59.33644" lon="18.080185">
        <ele>29</ele>
        <time>2019-12-12T06:52:35Z</time>
      </trkpt>
      <trkpt lat="59.336466" lon="18.080212">
        <ele>29</ele>
        <time>2019-12-12T06:52:37Z</time>
      </trkpt>
      <trkpt lat="59.33649" lon="18.080237">
        <ele>29</ele>
        <time>2019-12-12T06:52:37Z</time>
      </trkpt>
      <trkpt lat="59.33651" lon="18.080268">
        <ele>29</ele>
        <time>2019-12-12T06:52:38Z</time>
      </trkpt>
      <trkpt lat="59.336534" lon="18.080291">
        <ele>30</ele>
        <time>2019-12-12T06:52:39Z</time>
      </trkpt>
      <trkpt lat="59.336562" lon="18.080315">
        <ele>30</ele>
        <time>2019-12-12T06:52:41Z</time>
      </trkpt>
      <trkpt lat="59.336587" lon="18.08034">
        <ele>31</ele>
        <time>2019-12-12T06:52:41Z</time>
      </trkpt>
      <trkpt lat="59.336611" lon="18.080364">
        <ele>31</ele>
        <time>2019-12-12T06:52:42Z</time>
      </trkpt>
      <trkpt lat="59.336641" lon="18.080384">
        <ele>31</ele>
        <time>2019-12-12T06:52:43Z</time>
      </trkpt>
      <trkpt lat="59.336668" lon="18.080402">
        <ele>32</ele>
        <time>2019-12-12T06:52:44Z</time>
      </trkpt>
      <trkpt lat="59.336696" lon="18.080421">
        <ele>32</ele>
        <time>2019-12-12T06:52:45Z</time>
      </trkpt>
      <trkpt lat="59.336729" lon="18.080439">
        <ele>32</ele>
        <time>2019-12-12T06:52:46Z</time>
      </trkpt>
      <trkpt lat="59.336761" lon="18.080453">
        <ele>32</ele>
        <time>2019-12-12T06:52:47Z</time>
      </trkpt>
      <trkpt lat="59.336788" lon="18.080474">
        <ele>32</ele>
        <time>2019-12-12T06:52:49Z</time>
      </trkpt>
      <trkpt lat="59.336815" lon="18.080494">
        <ele>32</ele>
        <time>2019-12-12T06:52:49Z</time>
      </trkpt>
      <trkpt lat="59.33688" lon="18.080511">
        <ele>32</ele>
        <time>2019-12-12T06:52:52Z</time>
      </trkpt>
      <trkpt lat="59.336973" lon="18.080521">
        <ele>34</ele>
        <time>2019-12-12T06:52:53Z</time>
      </trkpt>
      <trkpt lat="59.337025" lon="18.080536">
        <ele>35</ele>
        <time>2019-12-12T06:52:55Z</time>
      </trkpt>
      <trkpt lat="59.337072" lon="18.080553">
        <ele>36</ele>
        <time>2019-12-12T06:52:55Z</time>
      </trkpt>
      <trkpt lat="59.337112" lon="18.08061">
        <ele>37</ele>
        <time>2019-12-12T06:52:56Z</time>
      </trkpt>
      <trkpt lat="59.337144" lon="18.08067">
        <ele>38</ele>
        <time>2019-12-12T06:52:58Z</time>
      </trkpt>
      <trkpt lat="59.337166" lon="18.080718">
        <ele>38</ele>
        <time>2019-12-12T06:52:58Z</time>
      </trkpt>
      <trkpt lat="59.337188" lon="18.080738">
        <ele>38</ele>
        <time>2019-12-12T06:52:59Z</time>
      </trkpt>
      <trkpt lat="59.337212" lon="18.080754">
        <ele>38</ele>
        <time>2019-12-12T06:53:01Z</time>
      </trkpt>
      <trkpt lat="59.337239" lon="18.080766">
        <ele>38</ele>
        <time>2019-12-12T06:53:01Z</time>
      </trkpt>
      <trkpt lat="59.337264" lon="18.080779">
        <ele>39</ele>
        <time>2019-12-12T06:53:02Z</time>
      </trkpt>
      <trkpt lat="59.337286" lon="18.080798">
        <ele>39</ele>
        <time>2019-12-12T06:53:03Z</time>
      </trkpt>
      <trkpt lat="59.337307" lon="18.080815">
        <ele>39</ele>
        <time>2019-12-12T06:53:04Z</time>
      </trkpt>
      <trkpt lat="59.337331" lon="18.080838">
        <ele>39</ele>
        <time>2019-12-12T06:53:05Z</time>
      </trkpt>
      <trkpt lat="59.337352" lon="18.080866">
        <ele>39</ele>
        <time>2019-12-12T06:53:06Z</time>
      </trkpt>
      <trkpt lat="59.33737" lon="18.080889">
        <ele>39</ele>
        <time>2019-12-12T06:53:07Z</time>
      </trkpt>
      <trkpt lat="59.33739" lon="18.080914">
        <ele>39</ele>
        <time>2019-12-12T06:53:08Z</time>
      </trkpt>
      <trkpt lat="59.337406" lon="18.08093">
        <ele>39</ele>
        <time>2019-12-12T06:53:09Z</time>
      </trkpt>
      <trkpt lat="59.337422" lon="18.080959">
        <ele>40</ele>
        <time>2019-12-12T06:53:10Z</time>
      </trkpt>
      <trkpt lat="59.337442" lon="18.080979">
        <ele>40</ele>
        <time>2019-12-12T06:53:12Z</time>
      </trkpt>
      <trkpt lat="59.33747" lon="18.080994">
        <ele>40</ele>
        <time>2019-12-12T06:53:13Z</time>
      </trkpt>
      <trkpt lat="59.337492" lon="18.081007">
        <ele>40</ele>
        <time>2019-12-12T06:53:13Z</time>
      </trkpt>
      <trkpt lat="59.337518" lon="18.081028">
        <ele>40</ele>
        <time>2019-12-12T06:53:14Z</time>
      </trkpt>
      <trkpt lat="59.337538" lon="18.081054">
        <ele>40</ele>
        <time>2019-12-12T06:53:15Z</time>
      </trkpt>
      <trkpt lat="59.337563" lon="18.081074">
        <ele>40</ele>
        <time>2019-12-12T06:53:16Z</time>
      </trkpt>
      <trkpt lat="59.33759" lon="18.0811">
        <ele>40</ele>
        <time>2019-12-12T06:53:17Z</time>
      </trkpt>
      <trkpt lat="59.33762" lon="18.08112">
        <ele>40</ele>
        <time>2019-12-12T06:53:18Z</time>
      </trkpt>
      <trkpt lat="59.337646" lon="18.081142">
        <ele>40</ele>
        <time>2019-12-12T06:53:19Z</time>
      </trkpt>
      <trkpt lat="59.33767" lon="18.081165">
        <ele>40</ele>
        <time>2019-12-12T06:53:21Z</time>
      </trkpt>
      <trkpt lat="59.337765" lon="18.081214">
        <ele>40</ele>
        <time>2019-12-12T06:53:24Z</time>
      </trkpt>
      <trkpt lat="59.337795" lon="18.081235">
        <ele>40</ele>
        <time>2019-12-12T06:53:24Z</time>
      </trkpt>
      <trkpt lat="59.337852" lon="18.081278">
        <ele>40</ele>
        <time>2019-12-12T06:53:27Z</time>
      </trkpt>
      <trkpt lat="59.337954" lon="18.081361">
        <ele>41</ele>
        <time>2019-12-12T06:53:30Z</time>
      </trkpt>
      <trkpt lat="59.33805" lon="18.081452">
        <ele>41</ele>
        <time>2019-12-12T06:53:32Z</time>
      </trkpt>
      <trkpt lat="59.338142" lon="18.08148">
        <ele>41</ele>
        <time>2019-12-12T06:53:35Z</time>
      </trkpt>
      <trkpt lat="59.33818" lon="18.08148">
        <ele>41</ele>
        <time>2019-12-12T06:53:36Z</time>
      </trkpt>
      <trkpt lat="59.338206" lon="18.081508">
        <ele>41</ele>
        <time>2019-12-12T06:53:37Z</time>
      </trkpt>
      <trkpt lat="59.338231" lon="18.081569">
        <ele>41</ele>
        <time>2019-12-12T06:53:38Z</time>
      </trkpt>
      <trkpt lat="59.338252" lon="18.081623">
        <ele>41</ele>
        <time>2019-12-12T06:53:40Z</time>
      </trkpt>
      <trkpt lat="59.338268" lon="18.081662">
        <ele>41</ele>
        <time>2019-12-12T06:53:40Z</time>
      </trkpt>
      <trkpt lat="59.338285" lon="18.081689">
        <ele>41</ele>
        <time>2019-12-12T06:53:41Z</time>
      </trkpt>
      <trkpt lat="59.338308" lon="18.081709">
        <ele>41</ele>
        <time>2019-12-12T06:53:43Z</time>
      </trkpt>
      <trkpt lat="59.338328" lon="18.081715">
        <ele>41</ele>
        <time>2019-12-12T06:53:43Z</time>
      </trkpt>
      <trkpt lat="59.338344" lon="18.081728">
        <ele>41</ele>
        <time>2019-12-12T06:53:44Z</time>
      </trkpt>
      <trkpt lat="59.338365" lon="18.081747">
        <ele>41</ele>
        <time>2019-12-12T06:53:45Z</time>
      </trkpt>
      <trkpt lat="59.338386" lon="18.081762">
        <ele>41</ele>
        <time>2019-12-12T06:53:47Z</time>
      </trkpt>
      <trkpt lat="59.338402" lon="18.081791">
        <ele>41</ele>
        <time>2019-12-12T06:53:47Z</time>
      </trkpt>
      <trkpt lat="59.338423" lon="18.081814">
        <ele>41</ele>
        <time>2019-12-12T06:53:48Z</time>
      </trkpt>
      <trkpt lat="59.338441" lon="18.081836">
        <ele>41</ele>
        <time>2019-12-12T06:53:50Z</time>
      </trkpt>
      <trkpt lat="59.33846" lon="18.081855">
        <ele>42</ele>
        <time>2019-12-12T06:53:50Z</time>
      </trkpt>
      <trkpt lat="59.338482" lon="18.081871">
        <ele>42</ele>
        <time>2019-12-12T06:53:52Z</time>
      </trkpt>
      <trkpt lat="59.338506" lon="18.081895">
        <ele>42</ele>
        <time>2019-12-12T06:53:52Z</time>
      </trkpt>
      <trkpt lat="59.338534" lon="18.081918">
        <ele>42</ele>
        <time>2019-12-12T06:53:53Z</time>
      </trkpt>
      <trkpt lat="59.338557" lon="18.081943">
        <ele>42</ele>
        <time>2019-12-12T06:53:55Z</time>
      </trkpt>
      <trkpt lat="59.338582" lon="18.081974">
        <ele>42</ele>
        <time>2019-12-12T06:53:55Z</time>
      </trkpt>
      <trkpt lat="59.338602" lon="18.081998">
        <ele>43</ele>
        <time>2019-12-12T06:53:56Z</time>
      </trkpt>
      <trkpt lat="59.338625" lon="18.082036">
        <ele>43</ele>
        <time>2019-12-12T06:53:58Z</time>
      </trkpt>
      <trkpt lat="59.33865" lon="18.082063">
        <ele>43</ele>
        <time>2019-12-12T06:53:58Z</time>
      </trkpt>
      <trkpt lat="59.338672" lon="18.082095">
        <ele>43</ele>
        <time>2019-12-12T06:53:59Z</time>
      </trkpt>
      <trkpt lat="59.338698" lon="18.082125">
        <ele>43</ele>
        <time>2019-12-12T06:54:00Z</time>
      </trkpt>
      <trkpt lat="59.338727" lon="18.082146">
        <ele>44</ele>
        <time>2019-12-12T06:54:01Z</time>
      </trkpt>
      <trkpt lat="59.338753" lon="18.08217">
        <ele>44</ele>
        <time>2019-12-12T06:54:03Z</time>
      </trkpt>
      <trkpt lat="59.338777" lon="18.082192">
        <ele>44</ele>
        <time>2019-12-12T06:54:03Z</time>
      </trkpt>
      <trkpt lat="59.338804" lon="18.082211">
        <ele>44</ele>
        <time>2019-12-12T06:54:05Z</time>
      </trkpt>
      <trkpt lat="59.338835" lon="18.082228">
        <ele>44</ele>
        <time>2019-12-12T06:54:05Z</time>
      </trkpt>
      <trkpt lat="59.338873" lon="18.082234">
        <ele>44</ele>
        <time>2019-12-12T06:54:06Z</time>
      </trkpt>
      <trkpt lat="59.33891" lon="18.082234">
        <ele>44</ele>
        <time>2019-12-12T06:54:08Z</time>
      </trkpt>
      <trkpt lat="59.338959" lon="18.082237">
        <ele>44</ele>
        <time>2019-12-12T06:54:09Z</time>
      </trkpt>
      <trkpt lat="59.338995" lon="18.082244">
        <ele>44</ele>
        <time>2019-12-12T06:54:09Z</time>
      </trkpt>
      <trkpt lat="59.339032" lon="18.082263">
        <ele>44</ele>
        <time>2019-12-12T06:54:11Z</time>
      </trkpt>
      <trkpt lat="59.33907" lon="18.082295">
        <ele>44</ele>
        <time>2019-12-12T06:54:11Z</time>
      </trkpt>
      <trkpt lat="59.339118" lon="18.08233">
        <ele>44</ele>
        <time>2019-12-12T06:54:12Z</time>
      </trkpt>
      <trkpt lat="59.339162" lon="18.08238">
        <ele>45</ele>
        <time>2019-12-12T06:54:13Z</time>
      </trkpt>
      <trkpt lat="59.339207" lon="18.082419">
        <ele>45</ele>
        <time>2019-12-12T06:54:14Z</time>
      </trkpt>
      <trkpt lat="59.339247" lon="18.082464">
        <ele>45</ele>
        <time>2019-12-12T06:54:15Z</time>
      </trkpt>
      <trkpt lat="59.339281" lon="18.082506">
        <ele>45</ele>
        <time>2019-12-12T06:54:17Z</time>
      </trkpt>
      <trkpt lat="59.33931" lon="18.082544">
        <ele>45</ele>
        <time>2019-12-12T06:54:17Z</time>
      </trkpt>
      <trkpt lat="59.339331" lon="18.082579">
        <ele>45</ele>
        <time>2019-12-12T06:54:18Z</time>
      </trkpt>
      <trkpt lat="59.339352" lon="18.082612">
        <ele>45</ele>
        <time>2019-12-12T06:54:20Z</time>
      </trkpt>
      <trkpt lat="59.339376" lon="18.082642">
        <ele>45</ele>
        <time>2019-12-12T06:54:20Z</time>
      </trkpt>
      <trkpt lat="59.339392" lon="18.082675">
        <ele>44</ele>
        <time>2019-12-12T06:54:21Z</time>
      </trkpt>
      <trkpt lat="59.339388" lon="18.082722">
        <ele>44</ele>
        <time>2019-12-12T06:54:22Z</time>
      </trkpt>
      <trkpt lat="59.339375" lon="18.08277">
        <ele>44</ele>
        <time>2019-12-12T06:54:23Z</time>
      </trkpt>
      <trkpt lat="59.339363" lon="18.082818">
        <ele>43</ele>
        <time>2019-12-12T06:54:25Z</time>
      </trkpt>
      <trkpt lat="59.339353" lon="18.082874">
        <ele>43</ele>
        <time>2019-12-12T06:54:25Z</time>
      </trkpt>
      <trkpt lat="59.339337" lon="18.082931">
        <ele>43</ele>
        <time>2019-12-12T06:54:26Z</time>
      </trkpt>
      <trkpt lat="59.339322" lon="18.082986">
        <ele>42</ele>
        <time>2019-12-12T06:54:28Z</time>
      </trkpt>
      <trkpt lat="59.339303" lon="18.083038">
        <ele>42</ele>
        <time>2019-12-12T06:54:28Z</time>
      </trkpt>
      <trkpt lat="59.339291" lon="18.083086">
        <ele>42</ele>
        <time>2019-12-12T06:54:29Z</time>
      </trkpt>
      <trkpt lat="59.339266" lon="18.083198">
        <ele>41</ele>
        <time>2019-12-12T06:54:31Z</time>
      </trkpt>
      <trkpt lat="59.339251" lon="18.083262">
        <ele>41</ele>
        <time>2019-12-12T06:54:32Z</time>
      </trkpt>
      <trkpt lat="59.339236" lon="18.083323">
        <ele>40</ele>
        <time>2019-12-12T06:54:33Z</time>
      </trkpt>
      <trkpt lat="59.339193" lon="18.083425">
        <ele>39</ele>
        <time>2019-12-12T06:54:35Z</time>
      </trkpt>
      <trkpt lat="59.339172" lon="18.083472">
        <ele>39</ele>
        <time>2019-12-12T06:54:36Z</time>
      </trkpt>
      <trkpt lat="59.339162" lon="18.083522">
        <ele>39</ele>
        <time>2019-12-12T06:54:38Z</time>
      </trkpt>
      <trkpt lat="59.339151" lon="18.083566">
        <ele>39</ele>
        <time>2019-12-12T06:54:38Z</time>
      </trkpt>
      <trkpt lat="59.339198" lon="18.083747">
        <ele>38</ele>
        <time>2019-12-12T06:54:44Z</time>
      </trkpt>
      <trkpt lat="59.339306" lon="18.083851">
        <ele>38</ele>
        <time>2019-12-12T06:54:49Z</time>
      </trkpt>
      <trkpt lat="59.339371" lon="18.083904">
        <ele>38</ele>
        <time>2019-12-12T06:54:50Z</time>
      </trkpt>
      <trkpt lat="59.339468" lon="18.083975">
        <ele>38</ele>
        <time>2019-12-12T06:54:53Z</time>
      </trkpt>
      <trkpt lat="59.339554" lon="18.084047">
        <ele>39</ele>
        <time>2019-12-12T06:54:56Z</time>
      </trkpt>
      <trkpt lat="59.339691" lon="18.08411">
        <ele>38</ele>
        <time>2019-12-12T06:54:59Z</time>
      </trkpt>
      <trkpt lat="59.339732" lon="18.084123">
        <ele>38</ele>
        <time>2019-12-12T06:55:01Z</time>
      </trkpt>
      <trkpt lat="59.339768" lon="18.084146">
        <ele>38</ele>
        <time>2019-12-12T06:55:01Z</time>
      </trkpt>
      <trkpt lat="59.339798" lon="18.084184">
        <ele>38</ele>
        <time>2019-12-12T06:55:02Z</time>
      </trkpt>
      <trkpt lat="59.339826" lon="18.084216">
        <ele>39</ele>
        <time>2019-12-12T06:55:04Z</time>
      </trkpt>
      <trkpt lat="59.339854" lon="18.084241">
        <ele>39</ele>
        <time>2019-12-12T06:55:04Z</time>
      </trkpt>
      <trkpt lat="59.339883" lon="18.084276">
        <ele>0</ele>
        <time>2019-12-12T06:55:05Z</time>
      </trkpt>
      <trkpt lat="59.339909" lon="18.084312">
        <ele>39</ele>
        <time>2019-12-12T06:55:06Z</time>
      </trkpt>
      <trkpt lat="59.339932" lon="18.084344">
        <ele>39</ele>
        <time>2019-12-12T06:55:08Z</time>
      </trkpt>
      <trkpt lat="59.339959" lon="18.084376">
        <ele>40</ele>
        <time>2019-12-12T06:55:08Z</time>
      </trkpt>
      <trkpt lat="59.33999" lon="18.084404">
        <ele>39</ele>
        <time>2019-12-12T06:55:09Z</time>
      </trkpt>
      <trkpt lat="59.34002" lon="18.08444">
        <ele>39</ele>
        <time>2019-12-12T06:55:11Z</time>
      </trkpt>
      <trkpt lat="59.34005" lon="18.084473">
        <ele>39</ele>
        <time>2019-12-12T06:55:11Z</time>
      </trkpt>
      <trkpt lat="59.340077" lon="18.084504">
        <ele>39</ele>
        <time>2019-12-12T06:55:12Z</time>
      </trkpt>
      <trkpt lat="59.340101" lon="18.084534">
        <ele>39</ele>
        <time>2019-12-12T06:55:14Z</time>
      </trkpt>
      <trkpt lat="59.340193" lon="18.08461">
        <ele>39</ele>
        <time>2019-12-12T06:55:17Z</time>
      </trkpt>
      <trkpt lat="59.34023" lon="18.08463">
        <ele>40</ele>
        <time>2019-12-12T06:55:17Z</time>
      </trkpt>
      <trkpt lat="59.340291" lon="18.084634">
        <ele>40</ele>
        <time>2019-12-12T06:55:18Z</time>
      </trkpt>
      <trkpt lat="59.340329" lon="18.084663">
        <ele>40</ele>
        <time>2019-12-12T06:55:20Z</time>
      </trkpt>
      <trkpt lat="59.340361" lon="18.084704">
        <ele>40</ele>
        <time>2019-12-12T06:55:20Z</time>
      </trkpt>
      <trkpt lat="59.340386" lon="18.08476">
        <ele>40</ele>
        <time>2019-12-12T06:55:22Z</time>
      </trkpt>
      <trkpt lat="59.340411" lon="18.084813">
        <ele>40</ele>
        <time>2019-12-12T06:55:22Z</time>
      </trkpt>
      <trkpt lat="59.340426" lon="18.084874">
        <ele>39</ele>
        <time>2019-12-12T06:55:23Z</time>
      </trkpt>
      <trkpt lat="59.340437" lon="18.08494">
        <ele>39</ele>
        <time>2019-12-12T06:55:25Z</time>
      </trkpt>
      <trkpt lat="59.340442" lon="18.084995">
        <ele>39</ele>
        <time>2019-12-12T06:55:25Z</time>
      </trkpt>
      <trkpt lat="59.340443" lon="18.085043">
        <ele>39</ele>
        <time>2019-12-12T06:55:26Z</time>
      </trkpt>
    </trkseg>
  </trk>
</gpx>